Provisional Data: Pine Creek near Telescope, PA


Please select a monitoring station.
Please select start date.
Please select start date.

Toggle Unit: C/F Toggle Unit: C/F
Sample Time Temperature (C) Temperature (F) Specific Conductivity (mS/cm) pH   Turbidity (NTU+) DO (mg/L)
3/7/2021 12:00:00 AM 1.29 34.322 0.089 6.73 2.71 13.33
3/7/2021 12:15:00 AM 1.26 34.268 0.089 6.72 2.75 13.34
3/7/2021 12:30:00 AM 1.23 34.214 0.09 6.72 2.7 13.36
3/7/2021 12:45:00 AM 1.19 34.142 0.089 6.72 2.74 13.36
3/7/2021 1:00:00 AM 1.16 34.088 0.089 6.73 2.64 13.38
3/7/2021 1:15:00 AM 1.13 34.034 0.089 6.72 2.66 13.38
3/7/2021 1:30:00 AM 1.1 33.98 0.089 6.7 2.71 13.4
3/7/2021 1:45:00 AM 1.07 33.926 0.089 6.7 2.73 13.41
3/7/2021 2:00:00 AM 1.03 33.854 0.089 6.7 2.68 13.42
3/7/2021 2:15:00 AM 0.99 33.782 0.089 6.71 2.74 13.44
3/7/2021 2:30:00 AM 0.94 33.692 0.089 6.69 2.65 13.45
3/7/2021 2:45:00 AM 0.89 33.602 0.089 6.7 2.72 13.47
3/7/2021 3:00:00 AM 0.84 33.512 0.089 6.69 2.7 13.49
3/7/2021 3:15:00 AM 0.79 33.422 0.089 6.7 2.7 13.5
3/7/2021 3:30:00 AM 0.74 33.332 0.089 6.69 2.7 13.53
3/7/2021 3:45:00 AM 0.69 33.242 0.089 6.68 2.67 13.55
3/7/2021 4:00:00 AM 0.63 33.134 0.089 6.68 2.71 13.57
3/7/2021 4:15:00 AM 0.57 33.026 0.089 6.68 2.73 13.6
3/7/2021 4:30:00 AM 0.52 32.936 0.089 6.69 2.74 13.63
3/7/2021 4:45:00 AM 0.48 32.864 0.089 6.68 2.67 13.64
3/7/2021 5:00:00 AM 0.43 32.774 0.089 6.69 2.67 13.67
3/7/2021 5:15:00 AM 0.39 32.702 0.089 6.68 2.68 13.69
3/7/2021 5:30:00 AM 0.36 32.648 0.089 6.68 2.69 13.72
3/7/2021 5:45:00 AM 0.32 32.576 0.089 6.68 2.73 13.73
3/7/2021 6:00:00 AM 0.28 32.504 0.089 6.69 2.68 13.75
3/7/2021 6:15:00 AM 0.25 32.45 0.089 6.68 2.69 13.77
3/7/2021 6:30:00 AM 0.22 32.396 0.089 6.68 2.67 13.8
3/7/2021 6:45:00 AM 0.17 32.306 0.089 6.68 2.67 13.85
3/7/2021 7:00:00 AM 0.13 32.234 0.089 6.68 2.7 13.93
3/7/2021 7:15:00 AM 0.09 32.162 0.089 6.71 2.74 14.04
3/7/2021 7:30:00 AM 0.06 32.108 0.089 6.74 2.72 14.15
3/7/2021 7:45:00 AM 0.05 32.09 0.088 6.78 2.69 14.27
3/7/2021 8:00:00 AM 0.06 32.108 0.088 6.81 2.67 14.36
3/7/2021 8:15:00 AM 0.08 32.144 0.088 6.84 2.64 14.41
3/7/2021 8:30:00 AM 0.12 32.216 0.088 6.86 2.66 14.46
3/7/2021 8:45:00 AM 0.18 32.324 0.088 6.88 2.71 14.49
3/7/2021 9:00:00 AM 0.27 32.486 0.088 6.91 2.69 14.51
3/7/2021 9:15:00 AM 0.36 32.648 0.087 6.94 2.68 14.52
3/7/2021 9:30:00 AM 0.46 32.828 0.087 6.96 2.65 14.52
3/7/2021 9:45:00 AM 0.58 33.044 0.087 6.98 2.65 14.5
3/7/2021 10:00:00 AM 0.72 33.296 0.087 6.99 2.7 14.46
3/7/2021 10:15:00 AM 0.88 33.584 0.087 7.03 2.62 14.42
3/7/2021 10:30:00 AM 1.05 33.89 0.087 7.03 2.69 14.36
3/7/2021 10:45:00 AM 1.24 34.232 0.086 7.05 2.64 14.3
3/7/2021 11:00:00 AM 1.45 34.61 0.086 7.07 2.65 14.23
3/7/2021 11:15:00 AM 1.67 35.006 0.086 7.08 2.63 14.14
3/7/2021 11:30:00 AM 1.92 35.456 0.086 7.11 2.67 14.06
3/7/2021 11:45:00 AM 2.18 35.924 0.086 7.12 2.65 13.96
3/7/2021 12:00:00 PM 2.42 36.356 0.086 7.12 2.64 13.88
3/7/2021 12:15:00 PM 2.63 36.734 0.086 7.13 2.67 13.79
3/7/2021 12:30:00 PM 2.81 37.058 0.086 7.15 2.72 13.71
3/7/2021 12:45:00 PM 2.95 37.31 0.086 7.14 2.7 13.64
3/7/2021 1:00:00 PM 3.08 37.544 0.086 7.16 2.74 13.58
3/7/2021 1:15:00 PM 3.19 37.742 0.086 7.15 2.69 13.51
3/7/2021 1:30:00 PM 3.3 37.94 0.086 7.16 2.78 13.44
3/7/2021 1:45:00 PM 3.41 38.138 0.086 7.16 2.7 13.39
3/7/2021 2:00:00 PM 3.51 38.318 0.087 7.18 2.78 13.34
3/7/2021 2:15:00 PM 3.6 38.48 0.087 7.17 2.75 13.28
3/7/2021 2:30:00 PM 3.65 38.57 0.087 7.17 2.75 13.23
3/7/2021 2:45:00 PM 3.69 38.642 0.087 7.17 2.74 13.19
3/7/2021 3:00:00 PM 3.72 38.696 0.087 7.15 2.8 13.14
3/7/2021 3:15:00 PM 3.74 38.732 0.087 7.14 2.73 13.1
3/7/2021 3:30:00 PM 3.75 38.75 0.086 7.13 2.81 13.07
3/7/2021 3:45:00 PM 3.74 38.732 0.086 7.1 2.8 13.05
3/7/2021 4:00:00 PM 3.7 38.66 0.086 7.09 2.73 13.04
3/7/2021 4:15:00 PM 3.66 38.588 0.086 7.1 2.78 13.03
3/7/2021 4:30:00 PM 3.6 38.48 0.085 7.07 2.77 13.02
3/7/2021 4:45:00 PM 3.52 38.336 0.085 7.05 2.76 13.02
3/7/2021 5:00:00 PM 3.45 38.21 0.085 7.03 2.75 13.02
3/7/2021 5:15:00 PM 3.36 38.048 0.085 7.01 2.8 13.01
3/7/2021 5:30:00 PM 3.24 37.832 0.085 6.97 2.72 13
3/7/2021 5:45:00 PM 3.1 37.58 0.085 6.92 2.79 12.98
3/7/2021 6:00:00 PM 2.98 37.364 0.085 6.88 2.8 12.97
3/7/2021 6:15:00 PM 2.87 37.166 0.085 6.85 2.74 12.94
3/7/2021 6:30:00 PM 2.75 36.95 0.086 6.82 2.79 12.92
3/7/2021 6:45:00 PM 2.64 36.752 0.086 6.79 2.78 12.92
3/7/2021 7:00:00 PM 2.53 36.554 0.086 6.78 2.8 12.94
3/7/2021 7:15:00 PM 2.41 36.338 0.086 6.77 2.78 12.97
3/7/2021 7:30:00 PM 2.29 36.122 0.087 6.75 2.8 13.01
3/7/2021 7:45:00 PM 2.17 35.906 0.087 6.73 2.79 13.05
3/7/2021 8:00:00 PM 2.05 35.69 0.087 6.73 2.88 13.09
3/7/2021 8:15:00 PM 1.94 35.492 0.087 6.73 2.76 13.14
3/7/2021 8:30:00 PM 1.83 35.294 0.087 6.71 2.73 13.16
3/7/2021 8:45:00 PM 1.73 35.114 0.088 6.72 2.8 13.21
3/7/2021 9:00:00 PM 1.64 34.952 0.088 6.71 2.73 13.25
3/7/2021 9:15:00 PM 1.54 34.772 0.088 6.7 2.72 13.29
3/7/2021 9:30:00 PM 1.45 34.61 0.088 6.7 2.75 13.33
3/7/2021 9:45:00 PM 1.35 34.43 0.088 6.71 2.61 13.36
3/7/2021 10:00:00 PM 1.26 34.268 0.088 6.71 2.76 13.4
3/7/2021 10:15:00 PM 1.17 34.106 0.088 6.7 2.75 13.44
3/7/2021 10:30:00 PM 1.09 33.962 0.088 6.7 2.79 13.47
3/7/2021 10:45:00 PM 1 33.8 0.088 6.7 2.74 13.51
3/7/2021 11:00:00 PM 0.91 33.638 0.088 6.7 2.71 13.55
3/7/2021 11:15:00 PM 0.83 33.494 0.088 6.68 2.7 13.57
3/7/2021 11:30:00 PM 0.75 33.35 0.088 6.69 2.75 13.61
3/7/2021 11:45:00 PM 0.67 33.206 0.088 6.69 2.69 13.65
3/8/2021 12:00:00 AM 0.59 33.062 0.089 6.68 2.7 13.67
3/8/2021 12:15:00 AM 0.51 32.918 0.089 6.68 2.76 13.71
3/8/2021 12:30:00 AM 0.44 32.792 0.089 6.68 2.82 13.73
3/8/2021 12:45:00 AM 0.36 32.648 0.089 6.69 2.74 13.77
3/8/2021 1:00:00 AM 0.29 32.522 0.089 6.68 2.74 13.79
3/8/2021 1:15:00 AM 0.22 32.396 0.089 6.68 2.74 13.83
3/8/2021 1:30:00 AM 0.15 32.27 0.089 6.69 2.76 13.85
3/8/2021 1:45:00 AM 0.09 32.162 0.089 6.67 2.74 13.89
3/8/2021 2:00:00 AM 0.02 32.036 0.089 6.68 2.76 13.92
3/8/2021 2:15:00 AM -0.05 31.91 0.089 6.67 2.74 13.94
3/8/2021 2:30:00 AM -0.11 31.802 0.089 6.67 2.74 13.98
3/8/2021 2:45:00 AM -0.17 31.694 0.088 6.66 2.8 14.01
3/8/2021 3:00:00 AM -0.15 31.73 0.088 6.68 2.81 14.04
3/8/2021 3:15:00 AM -0.15 31.73 0.088 6.69 2.75 14.05
3/8/2021 3:30:00 AM -0.15 31.73 0.089 6.69 2.75 14.07
3/8/2021 3:45:00 AM -0.15 31.73 0.087 6.67 2.79 14.08
3/8/2021 4:00:00 AM -0.14 31.748 0.082 6.67 2.8 14.09
3/8/2021 4:15:00 AM -0.14 31.748 0.078 6.67 3.62 14.1
3/8/2021 4:30:00 AM -0.14 31.748 0.074 6.67 5.22 14.09
3/8/2021 4:45:00 AM -0.14 31.748 0.071 6.68 6.5 14.1
3/8/2021 5:00:00 AM -0.13 31.766 0.067 6.68 7.96 14.1
3/8/2021 5:15:00 AM -0.13 31.766 0.064 6.68 8.24 14.09
3/8/2021 5:30:00 AM -0.13 31.766 0.06 6.67 9.08 14.1
3/8/2021 5:45:00 AM -0.13 31.766 0.057 6.68 9.4 14.09
3/8/2021 6:00:00 AM -0.13 31.766 0.052 6.68 9.94 14.08
3/8/2021 6:15:00 AM -0.13 31.766 0.049 6.69 10.7 14.08
3/8/2021 6:30:00 AM -0.13 31.766 0.048 6.69 10.39 14.08
3/8/2021 6:45:00 AM -0.13 31.766 0.047 6.7 10.2 14.11
3/8/2021 7:00:00 AM -0.13 31.766 0.046 6.71 10.22 14.18
3/8/2021 7:15:00 AM -0.13 31.766 0.046 6.74 10.17 14.25
3/8/2021 7:30:00 AM -0.13 31.766 0.046 6.75 9.99 14.31
3/8/2021 7:45:00 AM -0.13 31.766 0.046 6.76 9.32 14.4
3/8/2021 8:00:00 AM -0.13 31.766 0.046 6.79 9.31 14.47
3/8/2021 8:15:00 AM -0.13 31.766 0.046 6.81 9.15 14.53
3/8/2021 8:30:00 AM -0.13 31.766 0.046 6.83 9.3 14.59
3/8/2021 8:45:00 AM -0.13 31.766 0.046 6.85 8.92 14.63
3/8/2021 9:00:00 AM -0.13 31.766 0.047 6.87 8.94 14.64
3/8/2021 9:15:00 AM -0.13 31.766 0.048 6.88 8.99 14.67
3/8/2021 9:30:00 AM -0.13 31.766 0.049 6.87 8.94 14.68
3/8/2021 9:45:00 AM -0.13 31.766 0.05 6.88 9.41 14.67
3/8/2021 10:00:00 AM -0.13 31.766 0.052 6.86 11.8 14.67
3/8/2021 10:15:00 AM -0.12 31.784 0.057 6.88 56.39 14.67
3/8/2021 10:30:00 AM -0.07 31.874 0.087 6.89 4.39 14.67
3/8/2021 10:45:00 AM -0.1 31.82 0.088 6.91 4.2 14.65
3/8/2021 11:00:00 AM -0.09 31.838 0.088 6.95 3.88 14.65
3/8/2021 11:15:00 AM -0.03 31.946 0.089 6.96 3.63 14.66
3/8/2021 11:30:00 AM 0.04 32.072 0.089 7 3.33 14.66
3/8/2021 11:45:00 AM 0.13 32.234 0.088 7.01 3.41 14.63
3/8/2021 12:00:00 PM 0.25 32.45 0.088 7.01 3.12 14.55
3/8/2021 12:15:00 PM 0.5 32.9 0.087 7.06 3 14.49
3/8/2021 12:30:00 PM 0.78 33.404 0.087 7.09 2.89 14.4
3/8/2021 12:45:00 PM 1.09 33.962 0.086 7.11 2.89 14.31
3/8/2021 1:00:00 PM 1.4 34.52 0.086 7.14 2.87 14.21
3/8/2021 1:15:00 PM 1.66 34.988 0.086 7.15 2.91 14.12
3/8/2021 1:30:00 PM 1.86 35.348 0.087 7.15 2.87 14.04
3/8/2021 1:45:00 PM 2.02 35.636 0.086 7.17 2.86 13.99
3/8/2021 2:00:00 PM 2.14 35.852 0.086 7.15 2.87 13.93
3/8/2021 2:15:00 PM 2.25 36.05 0.086 7.18 2.86 13.89
3/8/2021 2:30:00 PM 2.36 36.248 0.086 7.19 2.88 13.86
3/8/2021 2:45:00 PM 2.44 36.392 0.086 7.19 2.86 13.83
3/8/2021 3:00:00 PM 2.51 36.518 0.086 7.16 2.88 13.75
3/8/2021 3:15:00 PM 2.64 36.752 0.086 7.16 2.83 13.68
3/8/2021 3:30:00 PM 2.75 36.95 0.085 7.18 2.78 13.62
3/8/2021 3:45:00 PM 2.83 37.094 0.085 7.16 2.76 13.57
3/8/2021 4:00:00 PM 2.9 37.22 0.085 7.17 2.77 13.56
3/8/2021 4:15:00 PM 2.96 37.328 0.085 7.16 2.88 13.53
3/8/2021 4:30:00 PM 2.97 37.346 0.085 7.16 2.85 13.47
3/8/2021 4:45:00 PM 2.97 37.346 0.085 7.13 2.76 13.41
3/8/2021 5:00:00 PM 2.97 37.346 0.085 7.1 2.88 13.37
3/8/2021 5:15:00 PM 2.97 37.346 0.085 7.07 2.79 13.31
3/8/2021 5:30:00 PM 2.94 37.292 0.085 7.06 2.85 13.25
3/8/2021 5:45:00 PM 2.9 37.22 0.085 7 2.84 13.18
3/8/2021 6:00:00 PM 2.86 37.148 0.085 6.97 2.86 13.1
3/8/2021 6:15:00 PM 2.81 37.058 0.086 6.92 2.91 13.03
3/8/2021 6:30:00 PM 2.75 36.95 0.086 6.88 2.91 12.98
3/8/2021 6:45:00 PM 2.7 36.86 0.086 6.85 2.95 12.94
3/8/2021 7:00:00 PM 2.64 36.752 0.086 6.82 2.98 12.92
3/8/2021 7:15:00 PM 2.59 36.662 0.086 6.82 2.91 12.92
3/8/2021 7:30:00 PM 2.52 36.536 0.086 6.79 2.86 12.92
3/8/2021 7:45:00 PM 2.46 36.428 0.086 6.78 2.93 12.94
3/8/2021 8:00:00 PM 2.4 36.32 0.087 6.77 2.82 12.96
3/8/2021 8:15:00 PM 2.34 36.212 0.087 6.77 2.86 12.97
3/8/2021 8:30:00 PM 2.29 36.122 0.087 6.77 2.92 12.98
3/8/2021 8:45:00 PM 2.23 36.014 0.087 6.76 2.83 13.01
3/8/2021 9:00:00 PM 2.19 35.942 0.087 6.76 2.81 13.02
3/8/2021 9:15:00 PM 2.14 35.852 0.087 6.75 2.83 13.04
3/8/2021 9:30:00 PM 2.11 35.798 0.087 6.74 2.81 13.06
3/8/2021 9:45:00 PM 2.09 35.762 0.087 6.75 2.86 13.07
3/8/2021 10:00:00 PM 2.07 35.726 0.087 6.75 2.77 13.08
3/8/2021 10:15:00 PM 2.06 35.708 0.087 6.76 2.82 13.09
3/8/2021 10:30:00 PM 2.05 35.69 0.087 6.76 2.84 13.09
3/8/2021 10:45:00 PM 2.04 35.672 0.087 6.76 2.78 13.09
3/8/2021 11:00:00 PM 2.02 35.636 0.088 6.75 2.82 13.09
3/8/2021 11:15:00 PM 2.01 35.618 0.088 6.75 2.83 13.1
3/8/2021 11:30:00 PM 1.99 35.582 0.088 6.76 2.78 13.1
3/8/2021 11:45:00 PM 1.97 35.546 0.088 6.76 2.82 13.12
3/9/2021 12:00:00 AM 1.96 35.528 0.088 6.75 2.8 13.11
3/9/2021 12:15:00 AM 1.96 35.528 0.088 6.75 2.79 13.11
3/9/2021 12:30:00 AM 1.97 35.546 0.088 6.77 2.78 13.1
3/9/2021 12:45:00 AM 1.97 35.546 0.088 6.75 2.77 13.1
3/9/2021 1:00:00 AM 1.96 35.528 0.088 6.76 2.81 13.09
3/9/2021 1:15:00 AM 1.95 35.51 0.088 6.75 2.79 13.11
3/9/2021 1:30:00 AM 1.93 35.474 0.088 6.76 2.81 13.11
3/9/2021 1:45:00 AM 1.91 35.438 0.088 6.74 2.74 13.1
3/9/2021 2:00:00 AM 1.9 35.42 0.088 6.75 2.82 13.11
3/9/2021 2:15:00 AM 1.9 35.42 0.088 6.74 2.78 13.11
3/9/2021 2:30:00 AM 1.91 35.438 0.088 6.75 2.87 13.11
3/9/2021 2:45:00 AM 1.91 35.438 0.088 6.74 2.87 13.11
3/9/2021 3:00:00 AM 1.9 35.42 0.088 6.75 3.71 13.11
3/9/2021 3:15:00 AM 1.89 35.402 0.088 6.75 3.3 13.1
3/9/2021 3:30:00 AM 1.88 35.384 0.088 6.73 2.95 13.12
3/9/2021 3:45:00 AM 1.87 35.366 0.088 6.74 2.82 13.12
3/9/2021 4:00:00 AM 1.85 35.33 0.088 6.72 2.74 13.12
3/9/2021 4:15:00 AM 1.83 35.294 0.088 6.74 2.78 13.13
3/9/2021 4:30:00 AM 1.81 35.258 0.088 6.73 3.31 13.13
3/9/2021 4:45:00 AM 1.78 35.204 0.088 6.72 2.85 13.15
3/9/2021 5:00:00 AM 1.76 35.168 0.088 6.71 2.86 13.15
3/9/2021 5:15:00 AM 1.74 35.132 0.088 6.73 2.75 13.17
3/9/2021 5:30:00 AM 1.72 35.096 0.088 6.72 2.85 13.17
3/9/2021 5:45:00 AM 1.7 35.06 0.088 6.72 2.74 13.19
3/9/2021 6:00:00 AM 1.67 35.006 0.088 6.72 2.77 13.21
3/9/2021 6:15:00 AM 1.64 34.952 0.088 6.71 2.74 13.21
3/9/2021 6:30:00 AM 1.61 34.898 0.088 6.73 2.79 13.24
3/9/2021 6:45:00 AM 1.59 34.862 0.088 6.73 2.76 13.29
3/9/2021 7:00:00 AM 1.58 34.844 0.087 6.75 2.8 13.4
3/9/2021 7:15:00 AM 1.57 34.826 0.087 6.78 2.8 13.52
3/9/2021 7:30:00 AM 1.57 34.826 0.087 6.8 2.75 13.62
3/9/2021 7:45:00 AM 1.58 34.844 0.087 6.84 2.75 13.73
3/9/2021 8:00:00 AM 1.61 34.898 0.087 6.88 2.75 13.83
3/9/2021 8:15:00 AM 1.66 34.988 0.087 6.91 2.79 13.89
3/9/2021 8:30:00 AM 1.73 35.114 0.087 6.93 2.77 13.95
3/9/2021 8:45:00 AM 1.82 35.276 0.086 7 2.75 13.98
3/9/2021 9:00:00 AM 1.93 35.474 0.086 7.02 2.78 13.99
3/9/2021 9:15:00 AM 2.07 35.726 0.086 7.07 2.75 13.99
3/9/2021 9:30:00 AM 2.22 35.996 0.086 7.09 2.8 13.97
3/9/2021 9:45:00 AM 2.39 36.302 0.086 7.13 2.71 13.95
3/9/2021 10:00:00 AM 2.56 36.608 0.085 7.15 2.77 13.91
3/9/2021 10:15:00 AM 2.77 36.986 0.085 7.17 2.75 13.86
3/9/2021 10:30:00 AM 2.98 37.364 0.085 7.19 2.84 13.8
3/9/2021 10:45:00 AM 3.21 37.778 0.085 7.2 2.85 13.72
3/9/2021 11:00:00 AM 3.45 38.21 0.084 7.23 2.82 13.64
3/9/2021 11:15:00 AM 3.72 38.696 0.084 7.25 2.83 13.56
3/9/2021 11:30:00 AM 4 39.2 0.084 7.26 2.78 13.46
3/9/2021 11:45:00 AM 4.29 39.722 0.084 7.32 2.81 13.37
3/9/2021 12:00:00 PM 4.55 40.19 0.083 7.32 2.82 13.26
3/9/2021 12:15:00 PM 4.81 40.658 0.083 7.34 2.81 13.18
3/9/2021 12:30:00 PM 5.03 41.054 0.083 7.37 2.86 13.08
3/9/2021 12:45:00 PM 5.23 41.414 0.083 7.37 2.87 13
3/9/2021 1:00:00 PM 5.41 41.738 0.083 7.38 2.98 12.93
3/9/2021 1:15:00 PM 5.56 42.008 0.083 7.4 2.92 12.85
3/9/2021 1:30:00 PM 5.69 42.242 0.083 7.4 2.94 12.77
3/9/2021 1:45:00 PM 5.81 42.458 0.083 7.4 2.95 12.72
3/9/2021 2:00:00 PM 5.92 42.656 0.083 7.4 2.98 12.66
3/9/2021 2:15:00 PM 6.02 42.836 0.083 7.38 2.98 12.59
3/9/2021 2:30:00 PM 6.1 42.98 0.083 7.4 3.04 12.54
3/9/2021 2:45:00 PM 6.18 43.124 0.083 7.41 2.98 12.49
3/9/2021 3:00:00 PM 6.24 43.232 0.083 7.38 3.01 12.42
3/9/2021 3:15:00 PM 6.3 43.34 0.083 7.38 3.08 12.38
3/9/2021 3:30:00 PM 6.33 43.394 0.083 7.36 3.1 12.33
3/9/2021 3:45:00 PM 6.34 43.412 0.083 7.34 3.15 12.29
3/9/2021 4:00:00 PM 6.32 43.376 0.083 7.33 3.17 12.25
3/9/2021 4:15:00 PM 6.29 43.322 0.083 7.29 3.19 12.22
3/9/2021 4:30:00 PM 6.24 43.232 0.083 7.26 3.16 12.21
3/9/2021 4:45:00 PM 6.18 43.124 0.083 7.22 3.11 12.19
3/9/2021 5:00:00 PM 6.11 42.998 0.083 7.2 3.23 12.17
3/9/2021 5:15:00 PM 6.01 42.818 0.083 7.15 3.17 12.15
3/9/2021 5:30:00 PM 5.86 42.548 0.084 7.1 3.28 12.11
3/9/2021 5:45:00 PM 5.71 42.278 0.084 7.03 3.29 12.09
3/9/2021 6:00:00 PM 5.56 42.008 0.085 6.99 3.32 12.07
3/9/2021 6:15:00 PM 5.41 41.738 0.085 6.95 3.32 12.05
3/9/2021 6:30:00 PM 5.25 41.45 0.085 6.9 3.32 12.04
3/9/2021 6:45:00 PM 5.09 41.162 0.086 6.87 3.45 12.05
3/9/2021 7:00:00 PM 4.93 40.874 0.086 6.85 3.49 12.09
3/9/2021 7:15:00 PM 4.75 40.55 0.086 6.82 3.58 12.14
3/9/2021 7:30:00 PM 4.58 40.244 0.086 6.8 3.46 12.2
3/9/2021 7:45:00 PM 4.42 39.956 0.087 6.8 3.49 12.25
3/9/2021 8:00:00 PM 4.27 39.686 0.087 6.79 3.42 12.3
3/9/2021 8:15:00 PM 4.12 39.416 0.087 6.78 3.33 12.36
3/9/2021 8:30:00 PM 3.98 39.164 0.087 6.77 3.38 12.4
3/9/2021 8:45:00 PM 3.85 38.93 0.087 6.76 3.41 12.46
3/9/2021 9:00:00 PM 3.72 38.696 0.087 6.75 3.42 12.5
3/9/2021 9:15:00 PM 3.6 38.48 0.087 6.76 3.4 12.55
3/9/2021 9:30:00 PM 3.48 38.264 0.088 6.75 3.39 12.59
3/9/2021 9:45:00 PM 3.36 38.048 0.088 6.75 3.38 12.63
3/9/2021 10:00:00 PM 3.26 37.868 0.088 6.75 3.27 12.67
3/9/2021 10:15:00 PM 3.16 37.688 0.088 6.76 3.25 12.71
3/9/2021 10:30:00 PM 3.06 37.508 0.088 6.76 3.3 12.75
3/9/2021 10:45:00 PM 2.97 37.346 0.088 6.75 3.32 12.79
3/9/2021 11:00:00 PM 2.89 37.202 0.089 6.75 3.34 12.83
3/9/2021 11:15:00 PM 2.81 37.058 0.088 6.75 3.3 12.86
3/9/2021 11:30:00 PM 2.73 36.914 0.089 6.75 3.2 12.89
3/9/2021 11:45:00 PM 2.66 36.788 0.089 6.75 3.22 12.92
3/10/2021 12:00:00 AM 2.59 36.662 0.089 6.75 3.21 12.94
3/10/2021 12:15:00 AM 2.52 36.536 0.089 6.75 3.27 12.97
3/10/2021 12:30:00 AM 2.46 36.428 0.089 6.74 3.28 13
3/10/2021 12:45:00 AM 2.4 36.32 0.09 6.74 3.29 13.01
3/10/2021 1:00:00 AM 2.35 36.23 0.09 6.73 3.27 13.03
3/10/2021 1:15:00 AM 2.3 36.14 0.09 6.75 3.12 13.06
3/10/2021 1:30:00 AM 2.25 36.05 0.09 6.74 3.15 13.08
3/10/2021 1:45:00 AM 2.19 35.942 0.09 6.73 3.15 13.09
3/10/2021 2:00:00 AM 2.15 35.87 0.09 6.74 3.31 13.11
3/10/2021 2:15:00 AM 2.1 35.78 0.09 6.74 3.21 13.12
3/10/2021 2:30:00 AM 2.06 35.708 0.09 6.74 3.25 13.14
3/10/2021 2:45:00 AM 2.02 35.636 0.09 6.74 3.19 13.17
3/10/2021 3:00:00 AM 1.98 35.564 0.09 6.74 3.19 13.18
3/10/2021 3:15:00 AM 1.94 35.492 0.09 6.73 3.25 13.2
3/10/2021 3:30:00 AM 1.91 35.438 0.09 6.73 3.23 13.2
3/10/2021 3:45:00 AM 1.87 35.366 0.09 6.73 3.18 13.22
3/10/2021 4:00:00 AM 1.84 35.312 0.09 6.74 3.23 13.22
3/10/2021 4:15:00 AM 1.81 35.258 0.09 6.73 3.13 13.24
3/10/2021 4:30:00 AM 1.77 35.186 0.09 6.71 3.11 13.25
3/10/2021 4:45:00 AM 1.74 35.132 0.09 6.72 3.17 13.27
3/10/2021 5:00:00 AM 1.72 35.096 0.09 6.74 3.09 13.28
3/10/2021 5:15:00 AM 1.68 35.024 0.09 6.72 3.15 13.29
3/10/2021 5:30:00 AM 1.66 34.988 0.09 6.72 3.08 13.3
3/10/2021 5:45:00 AM 1.63 34.934 0.09 6.72 3.14 13.31
3/10/2021 6:00:00 AM 1.61 34.898 0.09 6.71 3.14 13.32
3/10/2021 6:15:00 AM 1.58 34.844 0.09 6.71 3.13 13.33
3/10/2021 6:30:00 AM 1.56 34.808 0.09 6.72 3.19 13.35
3/10/2021 6:45:00 AM 1.53 34.754 0.089 6.73 3.09 13.4
3/10/2021 7:00:00 AM 1.51 34.718 0.089 6.74 3.04 13.46
3/10/2021 7:15:00 AM 1.5 34.7 0.089 6.76 3.06 13.55
3/10/2021 7:30:00 AM 1.5 34.7 0.089 6.79 3 13.65
3/10/2021 7:45:00 AM 1.52 34.736 0.089 6.81 3.06 13.76
3/10/2021 8:00:00 AM 1.54 34.772 0.089 6.86 3.05 13.85
3/10/2021 8:15:00 AM 1.58 34.844 0.089 6.88 3.07 13.92
3/10/2021 8:30:00 AM 1.64 34.952 0.089 6.92 3.08 13.97
3/10/2021 8:45:00 AM 1.73 35.114 0.088 6.97 3.5 14.01
3/10/2021 9:00:00 AM 1.84 35.312 0.088 6.98 3.05 14.02
3/10/2021 9:15:00 AM 1.98 35.564 0.088 7.03 3.07 14.02
3/10/2021 9:30:00 AM 2.13 35.834 0.088 7.06 3.01 14.01
3/10/2021 9:45:00 AM 2.31 36.158 0.087 7.08 3.11 13.98
3/10/2021 10:00:00 AM 2.51 36.518 0.087 7.11 3.14 13.94
3/10/2021 10:15:00 AM 2.72 36.896 0.087 7.14 3.07 13.89
3/10/2021 10:30:00 AM 2.94 37.292 0.087 7.17 3.16 13.82
3/10/2021 10:45:00 AM 3.2 37.76 0.086 7.2 3.07 13.76
3/10/2021 11:00:00 AM 3.47 38.246 0.086 7.23 3.14 13.67
3/10/2021 11:15:00 AM 3.76 38.768 0.086 7.26 3.1 13.58
3/10/2021 11:30:00 AM 4.05 39.29 0.085 7.28 3.12 13.47
3/10/2021 11:45:00 AM 4.36 39.848 0.085 7.3 3.11 13.38
3/10/2021 12:00:00 PM 4.64 40.352 0.085 7.31 3.17 13.27
3/10/2021 12:15:00 PM 4.91 40.838 0.085 7.34 3.16 13.16
3/10/2021 12:30:00 PM 5.17 41.306 0.085 7.35 3.11 13.07
3/10/2021 12:45:00 PM 5.4 41.72 0.084 7.37 3.15 12.99
3/10/2021 1:00:00 PM 5.59 42.062 0.084 7.38 3.16 12.88
3/10/2021 1:15:00 PM 5.76 42.368 0.084 7.39 3.17 12.8
3/10/2021 1:30:00 PM 5.91 42.638 0.084 7.4 3.27 12.73
3/10/2021 1:45:00 PM 6.04 42.872 0.084 7.4 3.26 12.66
3/10/2021 2:00:00 PM 6.19 43.142 0.084 7.41 3.31 12.58
3/10/2021 2:15:00 PM 6.3 43.34 0.084 7.4 3.41 12.52
3/10/2021 2:30:00 PM 6.41 43.538 0.084 7.41 3.43 12.46
3/10/2021 2:45:00 PM 6.5 43.7 0.083 7.4 3.49 12.39
3/10/2021 3:00:00 PM 6.57 43.826 0.083 7.4 3.51 12.31
3/10/2021 3:15:00 PM 6.61 43.898 0.083 7.38 3.68 12.25
3/10/2021 3:30:00 PM 6.63 43.934 0.083 7.36 3.92 12.21
3/10/2021 3:45:00 PM 6.63 43.934 0.083 7.34 4.11 12.2
3/10/2021 4:00:00 PM 6.6 43.88 0.083 7.34 4.39 12.21
3/10/2021 4:15:00 PM 6.55 43.79 0.083 7.33 5.28 12.21
3/10/2021 4:30:00 PM 6.49 43.682 0.084 7.3 5.23 12.2
3/10/2021 4:45:00 PM 6.39 43.502 0.084 7.26 5.76 12.18
3/10/2021 5:00:00 PM 6.26 43.268 0.083 7.22 6.53 12.18
3/10/2021 5:15:00 PM 6.13 43.034 0.084 7.13 7.12 12.17
3/10/2021 5:30:00 PM 5.95 42.71 0.084 7.08 7.31 12.14
3/10/2021 5:45:00 PM 5.76 42.368 0.085 7.03 7.64 12.1
3/10/2021 6:00:00 PM 5.53 41.954 0.085 6.92 9 12.08
3/10/2021 6:15:00 PM 5.31 41.558 0.086 6.86 9.8 12.07
3/10/2021 6:30:00 PM 5.05 41.09 0.086 6.8 10.4 12.1
3/10/2021 6:45:00 PM 4.82 40.676 0.087 6.75 10.06 12.15
3/10/2021 7:00:00 PM 4.59 40.262 0.087 6.73 10.46 12.21
3/10/2021 7:15:00 PM 4.37 39.866 0.088 6.7 10.69 12.29
3/10/2021 7:30:00 PM 4.16 39.488 0.088 6.68 10.2 12.36
3/10/2021 7:45:00 PM 3.98 39.164 0.089 6.68 10.02 12.43
3/10/2021 8:00:00 PM 3.81 38.858 0.089 6.66 9.81 12.5
3/10/2021 8:15:00 PM 3.65 38.57 0.089 6.65 11.08 12.55
3/10/2021 8:30:00 PM 3.52 38.336 0.089 6.64 9.76 12.61
3/10/2021 8:45:00 PM 3.4 38.12 0.088 6.65 10.07 12.65
3/10/2021 9:00:00 PM 3.29 37.922 0.088 6.64 10.25 12.68
3/10/2021 9:15:00 PM 3.2 37.76 0.087 6.64 10.55 12.72
3/10/2021 9:30:00 PM 3.12 37.616 0.087 6.65 12.15 12.75
3/10/2021 9:45:00 PM 3.06 37.508 0.087 6.65 12.76 12.77
3/10/2021 10:00:00 PM 3.01 37.418 0.087 6.65 14.09 12.79
3/10/2021 10:15:00 PM 2.97 37.346 0.086 6.67 15.32 12.81
3/10/2021 10:30:00 PM 2.93 37.274 0.086 6.66 15.31 12.82
3/10/2021 10:45:00 PM 2.9 37.22 0.086 6.66 15.05 12.83
3/10/2021 11:00:00 PM 2.87 37.166 0.086 6.66 15.4 12.84
3/10/2021 11:15:00 PM 2.85 37.13 0.085 6.67 14.68 12.85
3/10/2021 11:30:00 PM 2.84 37.112 0.085 6.67 14.62 12.85
3/10/2021 11:45:00 PM 2.84 37.112 0.085 6.67 13.44 12.85
3/11/2021 12:00:00 AM 2.83 37.094 0.084 6.68 13.17 12.85
3/11/2021 12:15:00 AM 2.84 37.112 0.084 6.67 12.41 12.85
3/11/2021 12:30:00 AM 2.85 37.13 0.084 6.68 12.32 12.85
3/11/2021 12:45:00 AM 2.85 37.13 0.084 6.67 11.4 12.84
3/11/2021 1:00:00 AM 2.86 37.148 0.083 6.67 10.57 12.84
3/11/2021 1:15:00 AM 2.88 37.184 0.083 6.68 9.96 12.83
3/11/2021 1:30:00 AM 2.9 37.22 0.083 6.68 9.87 12.82
3/11/2021 1:45:00 AM 2.92 37.256 0.082 6.68 9.39 12.81
3/11/2021 2:00:00 AM 2.93 37.274 0.082 6.67 9.11 12.81
3/11/2021 2:15:00 AM 2.95 37.31 0.082 6.68 8.84 12.79
3/11/2021 2:30:00 AM 2.98 37.364 0.081 6.67 8.1 12.78
3/11/2021 2:45:00 AM 3 37.4 0.081 6.66 8.06 12.77
3/11/2021 3:00:00 AM 3.02 37.436 0.081 6.66 7.57 12.76
3/11/2021 3:15:00 AM 3.04 37.472 0.081 6.67 7.45 12.75
3/11/2021 3:30:00 AM 3.06 37.508 0.08 6.66 7.23 12.75
3/11/2021 3:45:00 AM 3.07 37.526 0.08 6.67 7.07 12.73
3/11/2021 4:00:00 AM 3.08 37.544 0.08 6.67 6.83 12.73
3/11/2021 4:15:00 AM 3.1 37.58 0.08 6.66 6.69 12.73
3/11/2021 4:30:00 AM 3.11 37.598 0.079 6.66 6.57 12.72
3/11/2021 4:45:00 AM 3.12 37.616 0.079 6.65 6.46 12.71
3/11/2021 5:00:00 AM 3.13 37.634 0.079 6.66 6.38 12.71
3/11/2021 5:15:00 AM 3.13 37.634 0.079 6.66 6.44 12.7
3/11/2021 5:30:00 AM 3.12 37.616 0.079 6.65 6.32 12.71
3/11/2021 5:45:00 AM 3.11 37.598 0.078 6.66 6.36 12.71
3/11/2021 6:00:00 AM 3.11 37.598 0.078 6.66 6.15 12.7
3/11/2021 6:15:00 AM 3.12 37.616 0.078 6.64 6.43 12.7
3/11/2021 6:30:00 AM 3.11 37.598 0.078 6.65 6.07 12.71
3/11/2021 6:45:00 AM 3.1 37.58 0.078 6.66 6.23 12.73
3/11/2021 7:00:00 AM 3.1 37.58 0.078 6.67 5.94 12.77
3/11/2021 7:15:00 AM 3.09 37.562 0.077 6.67 5.72 12.82
3/11/2021 7:30:00 AM 3.1 37.58 0.077 6.69 5.64 12.88
3/11/2021 7:45:00 AM 3.14 37.652 0.077 6.72 5.63 12.95
3/11/2021 8:00:00 AM 3.19 37.742 0.077 6.75 5.39 13.01
3/11/2021 8:15:00 AM 3.23 37.814 0.076 6.76 5.33 13.02
3/11/2021 8:30:00 AM 3.27 37.886 0.076 6.76 5.18 13.03
3/11/2021 8:45:00 AM 3.35 38.03 0.076 6.8 5.29 13.06
3/11/2021 9:00:00 AM 3.43 38.174 0.076 6.83 5.12 13.06
3/11/2021 9:15:00 AM 3.49 38.282 0.075 6.84 5.19 13.06
3/11/2021 9:30:00 AM 3.55 38.39 0.075 6.85 5.22 13.04
3/11/2021 9:45:00 AM 3.62 38.516 0.075 6.85 5.18 13.03
3/11/2021 10:00:00 AM 3.78 38.804 0.075 6.9 5.26 13.03
3/11/2021 10:15:00 AM 3.94 39.092 0.075 6.92 5.2 13.01
3/11/2021 10:30:00 AM 4.13 39.434 0.074 6.97 5.03 13
3/11/2021 10:45:00 AM 4.3 39.74 0.074 6.99 5.21 12.96
3/11/2021 11:00:00 AM 4.54 40.172 0.074 7.04 4.98 12.91
3/11/2021 11:15:00 AM 4.78 40.604 0.074 7.06 5.12 12.86
3/11/2021 11:30:00 AM 5.04 41.072 0.073 7.08 5.33 12.79
3/11/2021 11:45:00 AM 5.19 41.342 0.073 7.09 5.7 12.73
3/11/2021 12:00:00 PM 5.41 41.738 0.073 7.12 5.9 12.66
3/11/2021 12:15:00 PM 5.61 42.098 0.073 7.15 6.1 12.6
3/11/2021 12:30:00 PM 5.81 42.458 0.072 7.15 6.47 12.53
3/11/2021 12:45:00 PM 5.92 42.656 0.072 7.15 7.04 12.45
3/11/2021 1:00:00 PM 5.99 42.782 0.072 7.14 8.16 12.4
3/11/2021 1:15:00 PM 6.06 42.908 0.072 7.12 9.51 12.36
3/11/2021 1:30:00 PM 6.26 43.268 0.072 7.14 11.28 12.29
3/11/2021 1:45:00 PM 6.36 43.448 0.072 7.18 15 12.23
3/11/2021 2:00:00 PM 6.39 43.502 0.072 7.13 17.78 12.18
3/11/2021 2:15:00 PM 6.34 43.412 0.072 7.09 21.37 12.15
3/11/2021 2:30:00 PM 6.33 43.394 0.073 7.04 24.45 12.09
3/11/2021 2:45:00 PM 6.28 43.304 0.074 6.99 30 12.06
3/11/2021 3:00:00 PM 6.13 43.034 0.074 6.92 32.2 12.05
3/11/2021 3:15:00 PM 5.94 42.692 0.074 6.82 44.03 12.03
3/11/2021 3:30:00 PM 5.7 42.26 0.075 6.77 52.14 12.06
3/11/2021 3:45:00 PM 5.47 41.846 0.075 6.7 51.29 12.1
3/11/2021 4:00:00 PM 5.22 41.396 0.075 6.65 50.62 12.16
3/11/2021 4:15:00 PM 5.02 41.036 0.074 6.63 63.33 12.2
3/11/2021 4:30:00 PM 4.85 40.73 0.074 6.6 67.61 12.24
3/11/2021 4:45:00 PM 4.67 40.406 0.074 6.59 78.36 12.29
3/11/2021 5:00:00 PM 4.51 40.118 0.073 6.55 98.29 12.32
3/11/2021 5:15:00 PM 4.41 39.938 0.072 6.53 81.41 12.35
3/11/2021 5:30:00 PM 4.3 39.74 0.072 6.52 74.91 12.38
3/11/2021 5:45:00 PM 4.22 39.596 0.071 6.51 88.19 12.41
3/11/2021 6:00:00 PM 4.16 39.488 0.071 6.52 91.35 12.43
3/11/2021 6:15:00 PM 4.1 39.38 0.071 6.52 83.55 12.44
3/11/2021 6:30:00 PM 4.02 39.236 0.071 6.5 82.72 12.46
3/11/2021 6:45:00 PM 3.95 39.11 0.07 6.5 63.77 12.47
3/11/2021 7:00:00 PM 3.93 39.074 0.07 6.49 60.63 12.48
3/11/2021 7:15:00 PM 3.91 39.038 0.07 6.49 54.67 12.49
3/11/2021 7:30:00 PM 3.9 39.02 0.07 6.49 49.82 12.49
3/11/2021 7:45:00 PM 3.9 39.02 0.069 6.5 46.11 12.49
3/11/2021 8:00:00 PM 3.9 39.02 0.069 6.5 34.67 12.5
3/11/2021 8:15:00 PM 3.93 39.074 0.069 6.51 35.21 12.49
3/11/2021 8:30:00 PM 3.96 39.128 0.069 6.51 42.2 12.47
3/11/2021 8:45:00 PM 3.98 39.164 0.068 6.51 47.02 12.47
3/11/2021 9:00:00 PM 3.99 39.182 0.068 6.5 35.85 12.46
3/11/2021 9:15:00 PM 4.01 39.218 0.068 6.5 33.93 12.46
3/11/2021 9:30:00 PM 4.02 39.236 0.067 6.5 31.38 12.45
3/11/2021 9:45:00 PM 4.02 39.236 0.067 6.49 33.43 12.45
3/11/2021 10:00:00 PM 4.04 39.272 0.066 6.5 31.26 12.44
3/11/2021 10:15:00 PM 4.07 39.326 0.066 6.49 38.02 12.44
3/11/2021 10:30:00 PM 4.09 39.362 0.066 6.49 5217 12.45
3/11/2021 10:45:00 PM 4.1 39.38 0.065 6.49 29.36 12.42
3/11/2021 11:00:00 PM 4.09 39.362 0.065 6.48 31.5 12.43
3/11/2021 11:15:00 PM 4.08 39.344 0.064 6.48 31.86 12.42
3/11/2021 11:30:00 PM 4.09 39.362 0.064 6.49 30.68 12.42
3/11/2021 11:45:00 PM 4.1 39.38 0.064 6.48 27.03 12.43
3/12/2021 12:00:00 AM 4.1 39.38 0.063 6.48 36.27 12.42
3/12/2021 12:15:00 AM 4.1 39.38 0.063 6.49 29.53 12.42
3/12/2021 12:30:00 AM 4.11 39.398 0.063 6.48 28.45 12.42
3/12/2021 12:45:00 AM 4.11 39.398 0.063 6.47 30.17 12.42
3/12/2021 1:00:00 AM 4.13 39.434 0.062 6.48 27.53 12.41
3/12/2021 1:15:00 AM 4.15 39.47 0.062 6.48 26.82 12.41
3/12/2021 1:30:00 AM 4.15 39.47 0.062 6.47 25.75 12.41
3/12/2021 1:45:00 AM 4.17 39.506 0.062 6.47 28.07 12.4
3/12/2021 2:00:00 AM 4.18 39.524 0.062 6.48 35.44 12.4
3/12/2021 2:15:00 AM 4.17 39.506 0.061 6.47 26.24 12.4
3/12/2021 2:30:00 AM 4.15 39.47 0.061 6.47 27.31 12.41
3/12/2021 2:45:00 AM 4.14 39.452 0.061 6.45 25.9 12.41
3/12/2021 3:00:00 AM 4.12 39.416 0.061 6.46 23.36 12.42
3/12/2021 3:15:00 AM 4.11 39.398 0.061 6.44 26.03 12.42
3/12/2021 3:30:00 AM 4.1 39.38 0.061 6.45 24.2 12.43
3/12/2021 3:45:00 AM 4.1 39.38 0.061 6.45 26.22 12.43
3/12/2021 4:00:00 AM 4.07 39.326 0.061 6.46 30.45 12.44
3/12/2021 4:15:00 AM 4.05 39.29 0.061 6.45 24.96 12.45
3/12/2021 4:30:00 AM 4.03 39.254 0.061 6.46 23.7 12.46
3/12/2021 4:45:00 AM 4 39.2 0.061 6.46 22.87 12.47
3/12/2021 5:00:00 AM 3.97 39.146 0.061 6.44 22.45 12.48
3/12/2021 5:15:00 AM 3.94 39.092 0.061 6.44 19.72 12.49
3/12/2021 5:30:00 AM 3.91 39.038 0.06 6.44 19.4 12.5
3/12/2021 5:45:00 AM 3.88 38.984 0.06 6.44 21.24 12.51
3/12/2021 6:00:00 AM 3.86 38.948 0.06 6.44 27.25 12.52
3/12/2021 6:15:00 AM 3.83 38.894 0.06 6.42 16.9 12.53
3/12/2021 6:30:00 AM 3.8 38.84 0.06 6.43 17.25 12.54
3/12/2021 6:45:00 AM 3.78 38.804 0.06 6.43 18.79 12.55
3/12/2021 7:00:00 AM 3.76 38.768 0.06 6.43 17.23 12.57
3/12/2021 7:15:00 AM 3.75 38.75 0.06 6.43 16.82 12.58
3/12/2021 7:30:00 AM 3.74 38.732 0.06 6.44 16.25 12.59
3/12/2021 7:45:00 AM 3.74 38.732 0.06 6.45 16.19 12.6
3/12/2021 8:00:00 AM 3.75 38.75 0.06 6.44 15.86 12.61
3/12/2021 8:15:00 AM 3.78 38.804 0.06 6.46 16.3 12.61
3/12/2021 8:30:00 AM 3.82 38.876 0.06 6.46 15.52 12.62
3/12/2021 8:45:00 AM 3.88 38.984 0.06 6.47 14.7 12.62
3/12/2021 9:00:00 AM 3.96 39.128 0.06 6.49 14.71 12.61
3/12/2021 9:15:00 AM 4.06 39.308 0.06 6.52 14.76 12.59
3/12/2021 9:30:00 AM 4.17 39.506 0.06 6.53 14.3 12.57
3/12/2021 9:45:00 AM 4.3 39.74 0.06 6.54 14.13 12.54
3/12/2021 10:00:00 AM 4.43 39.974 0.06 6.56 13.84 12.51
3/12/2021 10:15:00 AM 4.58 40.244 0.06 6.59 14.07 12.47
3/12/2021 10:30:00 AM 4.73 40.514 0.06 6.56 14.36 12.44
3/12/2021 10:45:00 AM 4.9 40.82 0.06 6.61 14.23 12.39
3/12/2021 11:00:00 AM 5.06 41.108 0.06 6.63 14.56 12.35
3/12/2021 11:15:00 AM 5.23 41.414 0.06 6.63 14.53 12.29
3/12/2021 11:30:00 AM 5.39 41.702 0.06 6.64 14.38 12.24
3/12/2021 11:45:00 AM 5.56 42.008 0.06 6.65 14.46 12.19
3/12/2021 12:00:00 PM 5.72 42.296 0.06 6.65 14.22 12.13
3/12/2021 12:15:00 PM 5.88 42.584 0.06 6.67 14.46 12.08
3/12/2021 12:30:00 PM 6.03 42.854 0.06 6.68 14.25 12.03
3/12/2021 12:45:00 PM 6.17 43.106 0.06 6.69 14.15 11.97
3/12/2021 1:00:00 PM 6.3 43.34 0.06 6.68 14.42 11.93
3/12/2021 1:15:00 PM 6.41 43.538 0.06 6.71 15.22 11.88
3/12/2021 1:30:00 PM 6.52 43.736 0.06 6.66 15.55 11.84
3/12/2021 1:45:00 PM 6.61 43.898 0.06 6.68 16.21 11.81
3/12/2021 2:00:00 PM 6.68 44.024 0.06 6.68 15.99 11.78
3/12/2021 2:15:00 PM 6.73 44.114 0.06 6.69 16.75 11.75
3/12/2021 2:30:00 PM 6.77 44.186 0.06 6.68 21.43 11.72
3/12/2021 2:45:00 PM 6.77 44.186 0.06 6.68 16.87 11.7
3/12/2021 3:00:00 PM 6.76 44.168 0.06 6.7 21.25 11.69
3/12/2021 3:15:00 PM 6.73 44.114 0.06 6.67 21.5 11.69
3/12/2021 3:30:00 PM 6.69 44.042 0.06 6.68 20.54 11.68
3/12/2021 3:45:00 PM 6.63 43.934 0.06 6.65 22.16 11.69
3/12/2021 4:00:00 PM 6.54 43.772 0.06 6.63 24.54 11.7
3/12/2021 4:15:00 PM 6.45 43.61 0.06 6.6 21.07 11.72
3/12/2021 4:30:00 PM 6.34 43.412 0.06 6.57 20.81 11.74
3/12/2021 4:45:00 PM 6.22 43.196 0.06 6.56 21.52 11.76
3/12/2021 5:00:00 PM 6.08 42.944 0.06 6.55 23.21 11.79
3/12/2021 5:15:00 PM 5.93 42.674 0.059 6.56 22.72 11.83
3/12/2021 5:30:00 PM 5.8 42.44 0.059 6.53 22.04 11.86
3/12/2021 5:45:00 PM 5.68 42.224 0.059 6.52 22.25 11.9
3/12/2021 6:00:00 PM 5.58 42.044 0.059 6.51 20.03 11.93
3/12/2021 6:15:00 PM 5.48 41.864 0.059 6.51 21.53 11.96
3/12/2021 6:30:00 PM 5.38 41.684 0.059 6.51 19.66 11.99
3/12/2021 6:45:00 PM 5.29 41.522 0.059 6.5 19.79 12.02
3/12/2021 7:00:00 PM 5.21 41.378 0.059 6.51 19.1 12.05
3/12/2021 7:15:00 PM 5.13 41.234 0.059 6.5 18.86 12.08
3/12/2021 7:30:00 PM 5.07 41.126 0.059 6.5 18.26 12.1
3/12/2021 7:45:00 PM 5.01 41.018 0.059 6.5 15.6 12.12
3/12/2021 8:00:00 PM 4.95 40.91 0.059 6.52 16.59 12.15
3/12/2021 8:15:00 PM 4.9 40.82 0.059 6.53 16.6 12.16
3/12/2021 8:30:00 PM 4.86 40.748 0.059 6.52 15.54 12.18
3/12/2021 8:45:00 PM 4.82 40.676 0.059 6.52 15.34 12.19
3/12/2021 9:00:00 PM 4.78 40.604 0.059 6.48 15.27 12.21
3/12/2021 9:15:00 PM 4.75 40.55 0.059 6.5 15.79 12.22
3/12/2021 9:30:00 PM 4.71 40.478 0.059 6.49 16.74 12.24
3/12/2021 9:45:00 PM 4.65 40.37 0.059 6.49 18.33 12.26
3/12/2021 10:00:00 PM 4.6 40.28 0.059 6.49 16.68 12.27
3/12/2021 10:15:00 PM 4.56 40.208 0.059 6.5 19.24 12.28
3/12/2021 10:30:00 PM 4.52 40.136 0.059 6.51 15.77 12.3
3/12/2021 10:45:00 PM 4.48 40.064 0.059 6.52 16.35 12.31
3/12/2021 11:00:00 PM 4.44 39.992 0.059 6.5 15.64 12.33
3/12/2021 11:15:00 PM 4.38 39.884 0.059 6.48 14.17 12.34
3/12/2021 11:30:00 PM 4.32 39.776 0.059 6.51 13.94 12.36
3/12/2021 11:45:00 PM 4.26 39.668 0.059 6.49 13.48 12.39
3/13/2021 12:00:00 AM 4.21 39.578 0.059 6.5 13 12.41
3/13/2021 12:15:00 AM 4.15 39.47 0.059 6.5 12.51 12.43
3/13/2021 12:30:00 AM 4.1 39.38 0.059 6.49 12.64 12.45
3/13/2021 12:45:00 AM 4.05 39.29 0.059 6.47 12.16 12.47
3/13/2021 1:00:00 AM 3.99 39.182 0.059 6.48 11.51 12.49
3/13/2021 1:15:00 AM 3.94 39.092 0.059 6.49 11.69 12.51
3/13/2021 1:30:00 AM 3.9 39.02 0.059 6.48 11.97 12.53
3/13/2021 1:45:00 AM 3.85 38.93 0.059 6.48 11.51 12.55
3/13/2021 2:00:00 AM 3.82 38.876 0.059 6.49 11.46 12.57
3/13/2021 2:15:00 AM 3.78 38.804 0.059 6.49 11.05 12.58
3/13/2021 2:30:00 AM 3.74 38.732 0.059 6.49 11.16 12.6
3/13/2021 2:45:00 AM 3.7 38.66 0.059 6.48 11.04 12.61
3/13/2021 3:00:00 AM 3.68 38.624 0.059 6.49 10.43 12.63
3/13/2021 3:15:00 AM 3.65 38.57 0.059 6.49 10.75 12.63
3/13/2021 3:30:00 AM 3.62 38.516 0.059 6.49 10.66 12.65
3/13/2021 3:45:00 AM 3.59 38.462 0.059 6.49 10.8 12.66
3/13/2021 4:00:00 AM 3.57 38.426 0.059 6.48 10.19 12.66
3/13/2021 4:15:00 AM 3.54 38.372 0.059 6.48 9.96 12.67
3/13/2021 4:30:00 AM 3.51 38.318 0.059 6.47 10.14 12.68
3/13/2021 4:45:00 AM 3.48 38.264 0.059 6.47 9.88 12.69
3/13/2021 5:00:00 AM 3.45 38.21 0.059 6.48 9.62 12.7
3/13/2021 5:15:00 AM 3.43 38.174 0.059 6.47 9.82 12.72
3/13/2021 5:30:00 AM 3.4 38.12 0.059 6.48 9.83 12.73
3/13/2021 5:45:00 AM 3.38 38.084 0.059 6.48 9.48 12.73
3/13/2021 6:00:00 AM 3.36 38.048 0.059 6.48 9.42 12.74
3/13/2021 6:15:00 AM 3.34 38.012 0.059 6.49 9.2 12.75
3/13/2021 6:30:00 AM 3.32 37.976 0.059 6.48 9.14 12.76
3/13/2021 6:45:00 AM 3.3 37.94 0.059 6.48 8.89 12.77
3/13/2021 7:00:00 AM 3.3 37.94 0.059 6.48 8.83 12.79
3/13/2021 7:15:00 AM 3.3 37.94 0.059 6.5 8.44 12.8
3/13/2021 7:30:00 AM 3.31 37.958 0.059 6.5 8.33 12.81
3/13/2021 7:45:00 AM 3.33 37.994 0.059 6.52 8.35 12.82
3/13/2021 8:00:00 AM 3.34 38.012 0.059 6.52 7.9 12.84
3/13/2021 8:15:00 AM 3.36 38.048 0.059 6.55 7.74 12.83
3/13/2021 8:30:00 AM 3.38 38.084 0.059 6.55 7.46 12.84
3/13/2021 8:45:00 AM 3.42 38.156 0.059 6.55 7.63 12.83
3/13/2021 9:00:00 AM 3.48 38.264 0.059 6.55 7.54 12.83
3/13/2021 9:15:00 AM 3.55 38.39 0.059 6.59 7.23 12.82
3/13/2021 9:30:00 AM 3.64 38.552 0.059 6.6 7.38 12.8
3/13/2021 9:45:00 AM 3.74 38.732 0.059 6.62 7.16 12.77
3/13/2021 10:00:00 AM 3.85 38.93 0.059 6.62 7.41 12.75
3/13/2021 10:15:00 AM 3.97 39.146 0.059 6.62 7.46 12.71
3/13/2021 10:30:00 AM 4.11 39.398 0.059 6.63 6.94 12.68
3/13/2021 10:45:00 AM 4.25 39.65 0.059 6.65 7.18 12.64
3/13/2021 11:00:00 AM 4.4 39.92 0.059 6.65 6.82 12.59
3/13/2021 11:15:00 AM 4.56 40.208 0.059 6.66 6.75 12.55
3/13/2021 11:30:00 AM 4.72 40.496 0.059 6.68 6.82 12.5
3/13/2021 11:45:00 AM 4.89 40.802 0.059 6.7 6.97 12.44
3/13/2021 12:00:00 PM 5.05 41.09 0.059 6.7 7.01 12.39
3/13/2021 12:15:00 PM 5.21 41.378 0.059 6.7 7.2 12.33
3/13/2021 12:30:00 PM 5.37 41.666 0.059 6.71 6.89 12.28
3/13/2021 12:45:00 PM 5.52 41.936 0.059 6.7 6.98 12.22
3/13/2021 1:00:00 PM 5.66 42.188 0.059 6.73 6.96 12.17
3/13/2021 1:15:00 PM 5.78 42.404 0.059 6.71 6.98 12.11
3/13/2021 1:30:00 PM 5.9 42.62 0.059 6.74 7.14 12.06
3/13/2021 1:45:00 PM 6 42.8 0.059 6.76 7.53 12.03
3/13/2021 2:00:00 PM 6.1 42.98 0.059 6.75 7.41 11.99
3/13/2021 2:15:00 PM 6.18 43.124 0.059 6.76 7.4 11.96
3/13/2021 2:30:00 PM 6.23 43.214 0.059 6.76 7.51 11.92
3/13/2021 2:45:00 PM 6.27 43.286 0.059 6.76 7.57 11.9
3/13/2021 3:00:00 PM 6.29 43.322 0.059 6.75 7.55 11.88
3/13/2021 3:15:00 PM 6.29 43.322 0.059 6.73 7.6 11.87
3/13/2021 3:30:00 PM 6.28 43.304 0.059 6.73 7.5 11.86
3/13/2021 3:45:00 PM 6.26 43.268 0.059 6.72 7.8 11.86
3/13/2021 4:00:00 PM 6.21 43.178 0.059 6.71 8.1 11.86
3/13/2021 4:15:00 PM 6.14 43.052 0.059 6.7 7.76 11.87
3/13/2021 4:30:00 PM 6.06 42.908 0.059 6.68 7.9 11.88
3/13/2021 4:45:00 PM 5.97 42.746 0.059 6.66 7.53 11.9
3/13/2021 5:00:00 PM 5.86 42.548 0.059 6.65 7.71 11.91
3/13/2021 5:15:00 PM 5.74 42.332 0.059 6.63 7.73 11.93
3/13/2021 5:30:00 PM 5.63 42.134 0.059 6.62 7.68 11.95
3/13/2021 5:45:00 PM 5.54 41.972 0.059 6.61 7.78 11.97
3/13/2021 6:00:00 PM 5.46 41.828 0.059 6.6 7.68 11.99
3/13/2021 6:15:00 PM 5.37 41.666 0.059 6.59 7.71 12
3/13/2021 6:30:00 PM 5.29 41.522 0.059 6.59 7.56 12.03
3/13/2021 6:45:00 PM 5.21 41.378 0.059 6.58 7.73 12.04
3/13/2021 7:00:00 PM 5.12 41.216 0.059 6.58 7.75 12.07
3/13/2021 7:15:00 PM 5.05 41.09 0.059 6.56 7.78 12.09
3/13/2021 7:30:00 PM 4.97 40.946 0.059 6.56 7.91 12.12
3/13/2021 7:45:00 PM 4.89 40.802 0.059 6.55 7.65 12.14
3/13/2021 8:00:00 PM 4.82 40.676 0.059 6.56 7.72 12.16
3/13/2021 8:15:00 PM 4.75 40.55 0.059 6.56 7.74 12.18
3/13/2021 8:30:00 PM 4.69 40.442 0.059 6.56 7.48 12.2
3/13/2021 8:45:00 PM 4.63 40.334 0.06 6.56 7.4 12.22
3/13/2021 9:00:00 PM 4.58 40.244 0.059 6.57 7.63 12.24
3/13/2021 9:15:00 PM 4.54 40.172 0.06 6.57 7.41 12.25
3/13/2021 9:30:00 PM 4.5 40.1 0.06 6.56 7.56 12.26
3/13/2021 9:45:00 PM 4.47 40.046 0.06 6.57 7.36 12.27
3/13/2021 10:00:00 PM 4.44 39.992 0.06 6.56 7.37 12.28
3/13/2021 10:15:00 PM 4.41 39.938 0.06 6.57 7.18 12.29
3/13/2021 10:30:00 PM 4.39 39.902 0.06 6.57 7.33 12.3
3/13/2021 10:45:00 PM 4.36 39.848 0.06 6.57 6.99 12.31
3/13/2021 11:00:00 PM 4.34 39.812 0.06 6.58 7.1 12.31
3/13/2021 11:15:00 PM 4.32 39.776 0.06 6.57 6.91 12.32
3/13/2021 11:30:00 PM 4.3 39.74 0.06 6.56 7.13 12.33
3/13/2021 11:45:00 PM 4.28 39.704 0.06 6.58 6.79 12.33
3/14/2021 12:00:00 AM 4.26 39.668 0.06 6.56 6.92 12.33
3/14/2021 12:15:00 AM 4.25 39.65 0.06 6.56 6.96 12.34
3/14/2021 12:30:00 AM 4.24 39.632 0.06 6.57 7.1 12.34
3/14/2021 12:45:00 AM 4.22 39.596 0.06 6.55 6.67 12.35
3/14/2021 1:00:00 AM 4.21 39.578 0.06 6.57 6.9 12.35
3/14/2021 1:15:00 AM 4.2 39.56 0.06 6.56 6.9 12.36
3/14/2021 1:30:00 AM 4.18 39.524 0.06 6.54 6.85 12.35
3/14/2021 1:45:00 AM 4.17 39.506 0.06 6.55 6.74 12.36
3/14/2021 3:00:00 AM 4.13 39.434 0.06 6.54 6.47 12.35
3/14/2021 3:15:00 AM 4.12 39.416 0.06 6.53 6.41 12.36
3/14/2021 3:30:00 AM 4.12 39.416 0.06 6.54 6.51 12.36
3/14/2021 3:45:00 AM 4.11 39.398 0.06 6.54 6.51 12.35
3/14/2021 4:00:00 AM 4.1 39.38 0.06 6.54 6.63 12.35
3/14/2021 4:15:00 AM 4.09 39.362 0.06 6.54 6.42 12.36
3/14/2021 4:30:00 AM 4.08 39.344 0.06 6.53 6.49 12.36
3/14/2021 4:45:00 AM 4.07 39.326 0.06 6.54 6.46 12.36
3/14/2021 5:00:00 AM 4.06 39.308 0.06 6.53 6.17 12.36
3/14/2021 5:15:00 AM 4.05 39.29 0.06 6.53 6.46 12.36
3/14/2021 5:30:00 AM 4.04 39.272 0.06 6.54 6.42 12.37
3/14/2021 5:45:00 AM 4.03 39.254 0.06 6.54 6.14 12.37
3/14/2021 6:00:00 AM 4.02 39.236 0.06 6.55 6.19 12.37
3/14/2021 6:15:00 AM 4.01 39.218 0.06 6.55 5.99 12.38
3/14/2021 6:30:00 AM 3.99 39.182 0.06 6.54 5.93 12.39
3/14/2021 6:45:00 AM 3.98 39.164 0.06 6.53 5.93 12.4
3/14/2021 7:00:00 AM 3.97 39.146 0.06 6.54 5.7 12.41
3/14/2021 7:15:00 AM 3.96 39.128 0.06 6.54 5.78 12.43
3/14/2021 7:30:00 AM 3.96 39.128 0.06 6.54 5.54 12.45
3/14/2021 7:45:00 AM 3.97 39.146 0.06 6.56 5.58 12.46
3/14/2021 8:00:00 AM 3.98 39.164 0.06 6.6 5.32 12.47
3/14/2021 8:15:00 AM 4.03 39.254 0.06 6.6 5.34 12.47
3/14/2021 8:30:00 AM 4.09 39.362 0.06 6.62 5.33 12.48
3/14/2021 8:45:00 AM 4.16 39.488 0.06 6.62 5.3 12.47
3/14/2021 9:00:00 AM 4.24 39.632 0.06 6.63 5.14 12.45
3/14/2021 9:15:00 AM 4.34 39.812 0.06 6.63 5.14 12.45
3/14/2021 9:30:00 AM 4.45 40.01 0.06 6.64 5.1 12.43
3/14/2021 9:45:00 AM 4.56 40.208 0.06 6.66 5.27 12.41
3/14/2021 10:00:00 AM 4.7 40.46 0.059 6.68 5.11 12.37
3/14/2021 10:15:00 AM 4.83 40.694 0.059 6.68 5.03 12.33
3/14/2021 10:30:00 AM 4.98 40.964 0.059 6.69 5 12.3
3/14/2021 10:45:00 AM 5.1 41.18 0.059 6.71 4.92 12.26
3/14/2021 11:00:00 AM 5.18 41.324 0.059 6.71 5.12 12.22
3/14/2021 11:15:00 AM 5.33 41.594 0.059 6.71 5.13 12.19
3/14/2021 11:30:00 AM 5.46 41.828 0.059 6.72 5.07 12.15
3/14/2021 11:45:00 AM 5.57 42.026 0.059 6.73 5.05 12.12
3/14/2021 12:00:00 PM 5.69 42.242 0.059 6.73 5.05 12.09
3/14/2021 12:15:00 PM 5.81 42.458 0.059 6.73 5.11 12.06
3/14/2021 12:30:00 PM 5.93 42.674 0.059 6.74 4.92 12.02
3/14/2021 12:45:00 PM 5.97 42.746 0.059 6.75 5.17 11.98
3/14/2021 1:00:00 PM 5.95 42.71 0.059 6.74 5.27 11.97
3/14/2021 1:15:00 PM 5.99 42.782 0.059 6.73 4.91 11.96
3/14/2021 1:30:00 PM 5.97 42.746 0.059 6.74 5.19 11.95
3/14/2021 1:45:00 PM 5.97 42.746 0.06 6.72 4.98 11.97
3/14/2021 2:00:00 PM 6.06 42.908 0.06 6.74 5.41 11.94
3/14/2021 2:15:00 PM 6.01 42.818 0.06 6.74 5.28 11.94
3/14/2021 2:30:00 PM 6 42.8 0.06 6.73 5.29 11.93
3/14/2021 2:45:00 PM 6 42.8 0.06 6.72 6.69 11.92
3/14/2021 3:00:00 PM 6.02 42.836 0.06 6.73 6 11.93
3/14/2021 3:15:00 PM 6.03 42.854 0.06 6.74 5.54 11.93
3/14/2021 3:30:00 PM 6 42.8 0.06 6.74 5.33 11.94
3/14/2021 3:45:00 PM 5.94 42.692 0.06 6.72 5.33 11.93
3/14/2021 4:00:00 PM 5.87 42.566 0.06 6.7 5.2 11.93
3/14/2021 4:15:00 PM 5.79 42.422 0.06 6.69 5.46 11.93
3/14/2021 4:30:00 PM 5.68 42.224 0.06 6.66 5.43 11.95
3/14/2021 4:45:00 PM 5.57 42.026 0.06 6.66 5.48 11.99
3/14/2021 5:00:00 PM 5.43 41.774 0.06 6.64 5.51 12.03
3/14/2021 5:15:00 PM 5.27 41.486 0.06 6.61 5.43 12.06
3/14/2021 5:30:00 PM 5.15 41.27 0.06 6.61 5.91 12.08
3/14/2021 5:45:00 PM 5.02 41.036 0.06 6.6 8.43 12.12
3/14/2021 6:00:00 PM 4.91 40.838 0.06 6.59 5.88 12.14
3/14/2021 6:15:00 PM 4.8 40.64 0.06 6.58 5.66 12.17
3/14/2021 6:30:00 PM 4.69 40.442 0.06 6.57 5.65 12.2
3/14/2021 6:45:00 PM 4.6 40.28 0.061 6.58 5.45 12.22
3/14/2021 7:00:00 PM 4.5 40.1 0.061 6.56 5.45 12.26
3/14/2021 7:15:00 PM 4.4 39.92 0.061 6.55 5.56 12.29
3/14/2021 7:30:00 PM 4.32 39.776 0.061 6.54 5.32 12.32
3/14/2021 7:45:00 PM 4.23 39.614 0.061 6.55 5.43 12.35
3/14/2021 8:00:00 PM 4.15 39.47 0.061 6.54 5.52 12.38
3/14/2021 8:15:00 PM 4.06 39.308 0.061 6.54 5.46 12.41
3/14/2021 8:30:00 PM 3.97 39.146 0.061 6.54 5.56 12.45
3/14/2021 8:45:00 PM 3.88 38.984 0.061 6.53 5.27 12.49
3/14/2021 9:00:00 PM 3.8 38.84 0.061 6.53 5.15 12.51
3/14/2021 9:15:00 PM 3.74 38.732 0.061 6.53 5.24 12.55
3/14/2021 9:30:00 PM 3.66 38.588 0.061 6.53 5.21 12.57
3/14/2021 9:45:00 PM 3.59 38.462 0.061 6.53 5.27 12.6
3/14/2021 10:00:00 PM 3.53 38.354 0.061 6.52 5.13 12.62
3/14/2021 10:15:00 PM 3.47 38.246 0.061 6.53 5.23 12.65
3/14/2021 10:30:00 PM 3.4 38.12 0.061 6.53 5.24 12.68
3/14/2021 10:45:00 PM 3.35 38.03 0.061 6.53 5.19 12.7
3/14/2021 11:00:00 PM 3.29 37.922 0.061 6.52 5.15 12.73
3/14/2021 11:15:00 PM 3.26 37.868 0.061 6.5 5.14 12.74
3/14/2021 11:30:00 PM 3.21 37.778 0.061 6.5 5.18 12.76
3/14/2021 11:45:00 PM 3.17 37.706 0.061 6.5 4.99 12.77
3/15/2021 12:00:00 AM 3.12 37.616 0.061 6.5 5.07 12.79
3/15/2021 12:15:00 AM 3.07 37.526 0.061 6.5 4.96 12.81
3/15/2021 12:30:00 AM 3.04 37.472 0.061 6.49 5.12 12.82
3/15/2021 12:45:00 AM 3 37.4 0.061 6.49 4.94 12.84
3/15/2021 1:00:00 AM 2.98 37.364 0.061 6.5 4.85 12.85
3/15/2021 1:15:00 AM 2.94 37.292 0.061 6.49 4.98 12.87
3/15/2021 1:30:00 AM 2.91 37.238 0.061 6.49 4.98 12.87
3/15/2021 1:45:00 AM 2.88 37.184 0.061 6.5 4.73 12.89
3/15/2021 2:00:00 AM 2.85 37.13 0.061 6.49 4.86 12.89
3/15/2021 2:15:00 AM 2.82 37.076 0.061 6.55 4.81 12.9
3/15/2021 2:30:00 AM 2.79 37.022 0.061 6.52 4.8 12.91
3/15/2021 2:45:00 AM 2.77 36.986 0.061 6.5 4.73 12.92
3/15/2021 3:00:00 AM 2.74 36.932 0.061 6.49 4.67 12.93
3/15/2021 3:15:00 AM 2.71 36.878 0.061 6.49 4.67 12.93
3/15/2021 3:30:00 AM 2.68 36.824 0.061 6.48 4.8 12.94
3/15/2021 3:45:00 AM 2.66 36.788 0.061 6.49 4.55 12.95
3/15/2021 4:00:00 AM 2.64 36.752 0.061 6.49 4.74 12.96
3/15/2021 4:15:00 AM 2.62 36.716 0.062 6.49 4.68 12.97
3/15/2021 4:30:00 AM 2.59 36.662 0.062 6.49 4.42 12.98
3/15/2021 4:45:00 AM 2.57 36.626 0.062 6.48 4.63 12.98
3/15/2021 5:00:00 AM 2.55 36.59 0.062 6.49 4.48 13
3/15/2021 5:15:00 AM 2.53 36.554 0.062 6.49 4.57 13
3/15/2021 5:30:00 AM 2.51 36.518 0.062 6.49 4.38 13.01
3/15/2021 5:45:00 AM 2.49 36.482 0.062 6.5 4.87 13.03
3/15/2021 6:00:00 AM 2.47 36.446 0.062 6.5 4.61 13.03
3/15/2021 6:15:00 AM 2.45 36.41 0.062 6.49 5.34 13.05
3/15/2021 6:30:00 AM 2.43 36.374 0.062 6.49 4.81 13.06
3/15/2021 6:45:00 AM 2.41 36.338 0.062 6.49 4.46 13.07
3/15/2021 7:00:00 AM 2.4 36.32 0.062 6.5 4.41 13.1
3/15/2021 7:15:00 AM 2.38 36.284 0.062 6.51 4.26 13.12
3/15/2021 7:30:00 AM 2.38 36.284 0.062 6.51 4.23 13.14
3/15/2021 7:45:00 AM 2.38 36.284 0.062 6.52 4.24 13.16
3/15/2021 8:00:00 AM 2.38 36.284 0.062 6.53 4.17 13.18
3/15/2021 8:15:00 AM 2.38 36.284 0.062 6.53 4.06 13.2
3/15/2021 8:30:00 AM 2.4 36.32 0.062 6.54 3.94 13.22
3/15/2021 8:45:00 AM 2.45 36.41 0.062 6.55 3.96 13.22
3/15/2021 9:00:00 AM 2.5 36.5 0.062 6.56 3.82 13.22
3/15/2021 9:15:00 AM 2.58 36.644 0.062 6.58 3.9 13.21
3/15/2021 9:30:00 AM 2.69 36.842 0.062 6.58 3.88 13.2
3/15/2021 10:45:00 AM 2.8 37.04 0.062 6.59 3.99 13.17
3/15/2021 11:00:00 AM 2.93 37.274 0.062 6.61 3.86 13.13
3/15/2021 11:15:00 AM 3.06 37.508 0.062 6.62 3.83 13.09
3/15/2021 11:30:00 AM 3.21 37.778 0.061 6.63 3.94 13.06
3/15/2021 11:45:00 AM 3.38 38.084 0.061 6.65 3.81 13.01
3/15/2021 12:00:00 PM 3.55 38.39 0.061 6.66 3.96 12.95
3/15/2021 12:15:00 PM 3.71 38.678 0.061 6.67 3.89 12.89
3/15/2021 12:30:00 PM 3.88 38.984 0.061 6.66 3.81 12.85
3/15/2021 12:45:00 PM 4.07 39.326 0.061 6.67 3.82 12.78
3/15/2021 1:00:00 PM 4.23 39.614 0.061 6.68 3.84 12.72
3/15/2021 1:15:00 PM 4.39 39.902 0.061 6.69 3.84 12.67
3/15/2021 1:30:00 PM 4.54 40.172 0.061 6.7 3.84 12.61
3/15/2021 1:45:00 PM 4.69 40.442 0.061 6.7 3.88 12.56
3/15/2021 2:00:00 PM 4.82 40.676 0.061 6.7 3.74 12.51
3/15/2021 2:15:00 PM 4.93 40.874 0.061 6.71 3.75 12.45
3/15/2021 2:30:00 PM 5.03 41.054 0.061 6.71 3.82 12.4
3/15/2021 2:45:00 PM 5.15 41.27 0.061 6.72 3.91 12.37
3/15/2021 3:00:00 PM 5.25 41.45 0.061 6.73 3.75 12.31
3/15/2021 3:15:00 PM 5.31 41.558 0.061 6.73 3.98 12.29
3/15/2021 3:30:00 PM 5.36 41.648 0.061 6.72 3.89 12.26
3/15/2021 3:45:00 PM 5.41 41.738 0.061 6.73 3.87 12.23
3/15/2021 4:00:00 PM 5.45 41.81 0.061 6.73 3.96 12.21
3/15/2021 4:15:00 PM 5.45 41.81 0.061 6.73 3.84 12.2
3/15/2021 4:30:00 PM 5.43 41.774 0.061 6.72 3.91 12.19
3/15/2021 4:45:00 PM 5.43 41.774 0.061 6.71 3.8 12.18
3/15/2021 5:00:00 PM 5.38 41.684 0.062 6.7 3.93 12.18
3/15/2021 5:15:00 PM 5.33 41.594 0.062 6.7 3.94 12.19
3/15/2021 5:30:00 PM 5.23 41.414 0.062 6.67 4.08 12.2
3/15/2021 5:45:00 PM 5.14 41.252 0.062 6.67 3.95 12.21
3/15/2021 6:00:00 PM 5.02 41.036 0.062 6.65 3.93 12.24
3/15/2021 6:15:00 PM 4.9 40.82 0.062 6.63 4.05 12.26
3/15/2021 6:30:00 PM 4.78 40.604 0.062 6.62 4 12.28
3/15/2021 6:45:00 PM 4.68 40.424 0.062 6.61 3.91 12.3
3/15/2021 7:00:00 PM 4.58 40.244 0.062 6.59 3.97 12.32
3/15/2021 7:15:00 PM 4.48 40.064 0.062 6.58 4.2 12.33
3/15/2021 7:30:00 PM 4.4 39.92 0.062 6.58 3.93 12.34
3/15/2021 7:45:00 PM 4.32 39.776 0.062 6.57 4.22 12.35
3/15/2021 8:00:00 PM 4.24 39.632 0.062 6.57 4.17 12.37
3/15/2021 8:15:00 PM 4.17 39.506 0.062 6.56 4.21 12.39
3/15/2021 8:30:00 PM 4.11 39.398 0.062 6.56 4.38 12.41
3/15/2021 8:45:00 PM 4.04 39.272 0.062 6.55 4.29 12.43
3/15/2021 9:00:00 PM 3.98 39.164 0.062 6.55 4.43 12.45
3/15/2021 9:15:00 PM 3.92 39.056 0.062 6.55 4.37 12.47
3/15/2021 9:30:00 PM 3.86 38.948 0.062 6.55 4.31 12.49
3/15/2021 9:45:00 PM 3.81 38.858 0.062 6.55 4.38 12.51
3/15/2021 10:00:00 PM 3.76 38.768 0.062 6.54 4.17 12.53
3/15/2021 10:15:00 PM 3.72 38.696 0.063 6.55 4.23 12.54
3/15/2021 10:30:00 PM 3.68 38.624 0.063 6.54 4.26 12.56
3/15/2021 10:45:00 PM 3.65 38.57 0.063 6.55 4.43 12.57
3/15/2021 11:00:00 PM 3.62 38.516 0.063 6.55 4.32 12.58
3/15/2021 11:15:00 PM 3.59 38.462 0.063 6.55 4.21 12.59
3/15/2021 11:30:00 PM 3.57 38.426 0.063 6.55 4.11 12.59
3/15/2021 11:45:00 PM 3.55 38.39 0.063 6.55 4.27 12.6
3/16/2021 12:00:00 AM 3.54 38.372 0.063 6.55 4.18 12.61
3/16/2021 12:15:00 AM 3.53 38.354 0.063 6.55 4.14 12.61
3/16/2021 12:30:00 AM 3.51 38.318 0.063 6.56 4.19 12.62
3/16/2021 12:45:00 AM 3.5 38.3 0.063 6.56 4.12 12.62
3/16/2021 1:00:00 AM 3.48 38.264 0.063 6.56 4.02 12.62
3/16/2021 1:15:00 AM 3.46 38.228 0.063 6.56 4.07 12.62
3/16/2021 1:30:00 AM 3.45 38.21 0.063 6.56 3.97 12.63
3/16/2021 1:45:00 AM 3.44 38.192 0.063 6.56 3.91 12.63
3/16/2021 2:00:00 AM 3.42 38.156 0.063 6.56 4.06 12.63
3/16/2021 2:15:00 AM 3.42 38.156 0.063 6.56 4.28 12.64
3/16/2021 2:30:00 AM 3.41 38.138 0.063 6.56 3.97 12.64
3/16/2021 2:45:00 AM 3.4 38.12 0.063 6.56 3.96 12.64
3/16/2021 3:00:00 AM 3.4 38.12 0.063 6.56 3.93 12.65
3/16/2021 3:15:00 AM 3.39 38.102 0.063 6.56 3.86 12.64
3/16/2021 3:30:00 AM 3.39 38.102 0.063 6.56 3.97 12.65
3/16/2021 3:45:00 AM 3.39 38.102 0.063 6.56 3.87 12.64
3/16/2021 4:00:00 AM 3.38 38.084 0.063 6.55 4.06 12.63
3/16/2021 4:15:00 AM 3.38 38.084 0.063 6.56 4.12 12.64
3/16/2021 4:30:00 AM 3.37 38.066 0.063 6.56 4.01 12.64
3/16/2021 4:45:00 AM 3.37 38.066 0.063 6.56 4.08 12.63
3/16/2021 5:00:00 AM 3.36 38.048 0.063 6.55 4.22 12.63
3/16/2021 5:15:00 AM 3.35 38.03 0.063 6.56 4.08 12.63
3/16/2021 5:30:00 AM 3.35 38.03 0.063 6.55 4.02 12.63
3/16/2021 5:45:00 AM 3.36 38.048 0.063 6.56 3.84 12.63
3/16/2021 6:00:00 AM 3.36 38.048 0.063 6.56 3.93 12.63
3/16/2021 6:15:00 AM 3.36 38.048 0.063 6.56 3.94 12.63
3/16/2021 6:30:00 AM 3.36 38.048 0.063 6.56 3.95 12.63
3/16/2021 6:45:00 AM 3.37 38.066 0.063 6.57 3.98 12.63
3/16/2021 7:00:00 AM 3.37 38.066 0.063 6.56 4 12.62
3/16/2021 7:15:00 AM 3.38 38.084 0.063 6.56 4.38 12.61
3/16/2021 7:30:00 AM 3.38 38.084 0.063 6.56 3.93 12.62
3/16/2021 7:45:00 AM 3.39 38.102 0.063 6.57 4 12.62
3/16/2021 8:00:00 AM 3.36 38.048 0.063 6.56 3.73 12.62
3/16/2021 8:15:00 AM 3.34 38.012 0.063 6.57 3.82 12.64
3/16/2021 8:30:00 AM 3.33 37.994 0.063 6.57 3.62 12.65
3/16/2021 8:45:00 AM 3.31 37.958 0.063 6.57 3.57 12.66
3/16/2021 9:00:00 AM 3.28 37.904 0.063 6.58 3.38 12.68
3/16/2021 9:15:00 AM 3.24 37.832 0.063 6.58 3.6 12.7
3/16/2021 9:30:00 AM 3.23 37.814 0.063 6.58 3.49 12.71
3/16/2021 9:45:00 AM 3.23 37.814 0.063 6.59 3.38 12.74
3/16/2021 10:00:00 AM 3.21 37.778 0.063 6.59 3.46 12.78
3/16/2021 10:15:00 AM 3.21 37.778 0.063 6.6 3.37 12.79
3/16/2021 10:30:00 AM 3.22 37.796 0.063 6.61 3.63 12.8
3/16/2021 10:45:00 AM 3.24 37.832 0.063 6.61 3.44 12.79
3/16/2021 11:00:00 AM 3.27 37.886 0.063 6.63 3.42 12.8
3/16/2021 11:15:00 AM 3.33 37.994 0.063 6.64 3.33 12.81
3/16/2021 11:30:00 AM 3.37 38.066 0.063 6.65 3.33 12.8
3/16/2021 11:45:00 AM 3.39 38.102 0.063 6.66 3.33 12.79
3/16/2021 12:00:00 PM 3.43 38.174 0.063 6.67 3.36 12.79
3/16/2021 12:15:00 PM 3.47 38.246 0.063 6.67 3.37 12.79
3/16/2021 12:30:00 PM 3.54 38.372 0.063 6.68 3.47 12.78
3/16/2021 12:45:00 PM 3.59 38.462 0.063 6.69 3.43 12.77
3/16/2021 1:00:00 PM 3.63 38.534 0.063 6.68 3.33 12.75
3/16/2021 1:15:00 PM 3.67 38.606 0.063 6.69 3.41 12.73
3/16/2021 1:30:00 PM 3.71 38.678 0.063 6.68 3.5 12.71
3/16/2021 1:45:00 PM 3.73 38.714 0.063 6.69 3.36 12.67
3/16/2021 2:00:00 PM 3.75 38.75 0.063 6.68 3.4 12.65
3/16/2021 2:15:00 PM 3.77 38.786 0.063 6.68 3.43 12.62
3/16/2021 2:30:00 PM 3.79 38.822 0.063 6.68 3.32 12.61
3/16/2021 2:45:00 PM 3.8 38.84 0.063 6.67 3.32 12.6
3/16/2021 3:00:00 PM 3.8 38.84 0.063 6.67 3.35 12.6
3/16/2021 3:15:00 PM 3.81 38.858 0.063 6.68 3.35 12.6
3/16/2021 3:30:00 PM 3.82 38.876 0.063 6.67 3.3 12.61
3/16/2021 3:45:00 PM 3.84 38.912 0.063 6.69 3.35 12.62
3/16/2021 4:00:00 PM 3.88 38.984 0.063 6.71 4.5 12.62
3/16/2021 4:15:00 PM 3.93 39.074 0.063 6.7 3.41 12.62
3/16/2021 4:30:00 PM 3.97 39.146 0.063 6.71 3.4 12.61
3/16/2021 4:45:00 PM 4.02 39.236 0.063 6.71 3.57 12.6
3/16/2021 5:00:00 PM 4.06 39.308 0.063 6.72 3.53 12.59
3/16/2021 5:15:00 PM 4.09 39.362 0.063 6.71 3.34 12.56
3/16/2021 5:30:00 PM 4.11 39.398 0.063 6.71 3.49 12.54
3/16/2021 5:45:00 PM 4.15 39.47 0.063 6.72 3.38 12.52
3/16/2021 6:00:00 PM 4.16 39.488 0.063 6.7 3.45 12.48
3/16/2021 6:15:00 PM 4.16 39.488 0.063 6.69 3.52 12.44
3/16/2021 6:30:00 PM 4.17 39.506 0.063 6.68 3.42 12.41
3/16/2021 6:45:00 PM 4.18 39.524 0.063 6.67 3.5 12.38
3/16/2021 7:00:00 PM 4.17 39.506 0.063 6.66 3.46 12.36
3/16/2021 7:15:00 PM 4.16 39.488 0.063 6.65 3.45 12.35
3/16/2021 7:30:00 PM 4.15 39.47 0.063 6.63 3.58 12.34
3/16/2021 7:45:00 PM 4.14 39.452 0.064 6.62 3.61 12.32
3/16/2021 8:00:00 PM 4.13 39.434 0.064 6.62 3.7 12.32
3/16/2021 8:15:00 PM 4.12 39.416 0.064 6.61 3.71 12.32
3/16/2021 8:30:00 PM 4.11 39.398 0.064 6.61 3.73 12.32
3/16/2021 8:45:00 PM 4.1 39.38 0.064 6.61 3.66 12.32
3/16/2021 9:00:00 PM 4.1 39.38 0.064 6.62 3.71 12.33
3/16/2021 9:15:00 PM 4.09 39.362 0.064 6.61 3.68 12.33
3/16/2021 9:30:00 PM 4.08 39.344 0.064 6.6 3.82 12.33
3/16/2021 9:45:00 PM 4.08 39.344 0.064 6.61 3.75 12.34
3/16/2021 10:00:00 PM 4.07 39.326 0.064 6.61 3.74 12.34
3/16/2021 10:15:00 PM 4.07 39.326 0.064 6.6 3.72 12.34
3/16/2021 10:30:00 PM 4.06 39.308 0.064 6.6 3.72 12.35
3/16/2021 10:45:00 PM 4.06 39.308 0.064 6.6 3.76 12.35
3/16/2021 11:00:00 PM 4.06 39.308 0.064 6.61 3.76 12.35
3/16/2021 11:15:00 PM 4.05 39.29 0.064 6.61 3.71 12.35
3/16/2021 11:30:00 PM 4.05 39.29 0.064 6.61 3.67 12.35
3/16/2021 11:45:00 PM 4.05 39.29 0.064 6.61 3.86 12.35
3/17/2021 12:00:00 AM 4.05 39.29 0.064 6.61 3.8 12.35
3/17/2021 12:15:00 AM 4.05 39.29 0.064 6.61 3.68 12.35
3/17/2021 12:30:00 AM 4.04 39.272 0.064 6.61 3.62 12.35
3/17/2021 12:45:00 AM 4.04 39.272 0.064 6.61 3.74 12.35
3/17/2021 1:00:00 AM 4.03 39.254 0.064 6.62 3.67 12.35
3/17/2021 1:15:00 AM 4.03 39.254 0.064 6.61 3.71 12.35
3/17/2021 1:30:00 AM 4.03 39.254 0.064 6.61 3.63 12.35
3/17/2021 1:45:00 AM 4.02 39.236 0.064 6.61 3.65 12.35
3/17/2021 2:00:00 AM 4.02 39.236 0.064 6.61 3.73 12.36
3/17/2021 2:15:00 AM 4.02 39.236 0.064 6.61 3.67 12.36
3/17/2021 2:30:00 AM 4.01 39.218 0.064 6.61 3.61 12.36
3/17/2021 2:45:00 AM 4.01 39.218 0.064 6.61 3.75 12.36
3/17/2021 3:00:00 AM 4.01 39.218 0.064 6.61 3.65 12.36
3/17/2021 3:15:00 AM 4.01 39.218 0.064 6.6 3.65 12.36
3/17/2021 3:30:00 AM 4 39.2 0.064 6.61 3.6 12.36
3/17/2021 3:45:00 AM 4 39.2 0.064 6.6 3.69 12.36
3/17/2021 4:00:00 AM 4 39.2 0.064 6.6 3.67 12.36
3/17/2021 4:15:00 AM 3.99 39.182 0.064 6.61 3.64 12.36
3/17/2021 4:30:00 AM 3.99 39.182 0.064 6.61 3.66 12.36
3/17/2021 4:45:00 AM 3.99 39.182 0.064 6.61 3.78 12.36
3/17/2021 5:00:00 AM 3.99 39.182 0.064 6.61 3.64 12.36
3/17/2021 5:15:00 AM 3.99 39.182 0.064 6.61 3.87 12.37
3/17/2021 5:30:00 AM 3.98 39.164 0.064 6.61 3.7 12.37
3/17/2021 5:45:00 AM 3.98 39.164 0.064 6.61 3.77 12.37
3/17/2021 6:00:00 AM 3.98 39.164 0.064 6.61 3.68 12.37
3/17/2021 6:15:00 AM 3.98 39.164 0.064 6.61 3.71 12.37
3/17/2021 6:30:00 AM 3.99 39.182 0.064 6.61 3.62 12.37
3/17/2021 6:45:00 AM 3.99 39.182 0.064 6.62 3.92 12.37
3/17/2021 7:00:00 AM 3.99 39.182 0.064 6.61 3.66 12.37
3/17/2021 7:15:00 AM 4 39.2 0.064 6.61 3.96 12.38
3/17/2021 7:30:00 AM 4 39.2 0.064 6.62 3.83 12.38
3/17/2021 7:45:00 AM 4.01 39.218 0.064 6.62 4.02 12.38
3/17/2021 8:00:00 AM 4.02 39.236 0.064 6.62 3.56 12.41
3/17/2021 8:15:00 AM 4.02 39.236 0.064 6.63 3.61 12.43
3/17/2021 8:30:00 AM 4.04 39.272 0.064 6.64 3.52 12.45
3/17/2021 8:45:00 AM 4.06 39.308 0.064 6.66 3.5 12.48
3/17/2021 9:00:00 AM 4.08 39.344 0.064 6.67 3.47 12.51
3/17/2021 9:15:00 AM 4.11 39.398 0.064 6.68 3.48 12.53
3/17/2021 9:30:00 AM 4.15 39.47 0.064 6.69 3.42 12.54
3/17/2021 9:45:00 AM 4.2 39.56 0.064 6.71 3.39 12.55
3/17/2021 10:00:00 AM 4.25 39.65 0.064 6.72 3.46 12.55
3/17/2021 10:15:00 AM 4.31 39.758 0.064 6.73 3.44 12.55
3/17/2021 10:30:00 AM 4.4 39.92 0.064 6.75 3.33 12.55
3/17/2021 10:45:00 AM 4.52 40.136 0.064 6.77 3.4 12.53
3/17/2021 11:00:00 AM 4.66 40.388 0.064 6.79 3.37 12.51
3/17/2021 11:15:00 AM 4.83 40.694 0.064 6.81 3.35 12.47
3/17/2021 11:30:00 AM 4.98 40.964 0.064 6.82 3.43 12.43
3/17/2021 11:45:00 AM 5.16 41.288 0.064 6.83 3.37 12.37
3/17/2021 12:00:00 PM 5.37 41.666 0.064 6.85 3.41 12.31
3/17/2021 12:15:00 PM 5.59 42.062 0.064 6.87 3.44 12.24
3/17/2021 12:30:00 PM 5.8 42.44 0.064 6.88 3.49 12.18
3/17/2021 12:45:00 PM 6.02 42.836 0.064 6.9 3.34 12.11
3/17/2021 1:00:00 PM 6.24 43.232 0.064 6.91 3.4 12.04
3/17/2021 1:15:00 PM 6.45 43.61 0.064 6.93 3.5 11.97
3/17/2021 1:30:00 PM 6.64 43.952 0.064 6.94 3.43 11.9
3/17/2021 1:45:00 PM 6.82 44.276 0.064 6.95 3.46 11.84
3/17/2021 2:00:00 PM 7 44.6 0.064 6.96 3.54 11.78
3/17/2021 2:15:00 PM 7.19 44.942 0.064 6.98 3.46 11.72
3/17/2021 2:30:00 PM 7.35 45.23 0.064 7 3.52 11.66
3/17/2021 2:45:00 PM 7.49 45.482 0.064 7.01 3.51 11.61
3/17/2021 3:00:00 PM 7.62 45.716 0.064 7.02 3.58 11.56
3/17/2021 3:15:00 PM 7.73 45.914 0.064 7.03 3.55 11.52
3/17/2021 3:30:00 PM 7.82 46.076 0.064 7.04 3.47 11.47
3/17/2021 3:45:00 PM 7.88 46.184 0.064 7.04 3.53 11.44
3/17/2021 4:00:00 PM 7.93 46.274 0.064 7.04 3.63 11.42
3/17/2021 4:15:00 PM 7.97 46.346 0.064 7.03 3.64 11.4
3/17/2021 4:30:00 PM 8 46.4 0.064 7.03 3.67 11.38
3/17/2021 4:45:00 PM 8 46.4 0.064 7.02 3.66 11.36
3/17/2021 5:00:00 PM 7.98 46.364 0.064 7.02 3.71 11.35
3/17/2021 5:15:00 PM 7.93 46.274 0.064 7.01 3.71 11.35
3/17/2021 5:30:00 PM 7.86 46.148 0.064 6.99 3.73 11.35
3/17/2021 5:45:00 PM 7.77 45.986 0.064 6.97 3.77 11.36
3/17/2021 6:00:00 PM 7.67 45.806 0.064 6.95 3.8 11.37
3/17/2021 6:15:00 PM 7.54 45.572 0.064 6.92 3.76 11.38
3/17/2021 6:30:00 PM 7.4 45.32 0.065 6.89 3.79 11.4
3/17/2021 6:45:00 PM 7.27 45.086 0.065 6.88 3.91 11.41
3/17/2021 7:00:00 PM 7.14 44.852 0.065 6.85 3.85 11.43
3/17/2021 7:15:00 PM 7.01 44.618 0.065 6.83 3.89 11.43
3/17/2021 7:30:00 PM 6.87 44.366 0.065 6.81 3.97 11.45
3/17/2021 7:45:00 PM 6.73 44.114 0.065 6.79 4.01 11.46
3/17/2021 8:00:00 PM 6.61 43.898 0.065 6.77 4.01 11.48
3/17/2021 8:15:00 PM 6.49 43.682 0.065 6.76 4.17 11.51
3/17/2021 8:30:00 PM 6.37 43.466 0.065 6.75 4.13 11.55
3/17/2021 8:45:00 PM 6.25 43.25 0.065 6.75 4.21 11.58
3/17/2021 9:00:00 PM 6.14 43.052 0.065 6.74 4.16 11.62
3/17/2021 9:15:00 PM 6.02 42.836 0.066 6.73 4.12 11.65
3/17/2021 9:30:00 PM 5.92 42.656 0.066 6.72 4.14 11.69
3/17/2021 9:45:00 PM 5.81 42.458 0.066 6.72 4.17 11.72
3/17/2021 10:00:00 PM 5.71 42.278 0.066 6.71 4.1 11.76
3/17/2021 10:15:00 PM 5.61 42.098 0.066 6.71 4.08 11.79
3/17/2021 10:30:00 PM 5.51 41.918 0.066 6.7 4.18 11.83
3/17/2021 10:45:00 PM 5.42 41.756 0.066 6.7 4.06 11.85
3/17/2021 11:00:00 PM 5.34 41.612 0.066 6.7 4.04 11.88
3/17/2021 11:15:00 PM 5.26 41.468 0.066 6.7 4.06 11.91
3/17/2021 11:30:00 PM 5.19 41.342 0.066 6.7 4.22 11.93
3/17/2021 11:45:00 PM 5.14 41.252 0.066 6.7 4.14 11.95
3/18/2021 12:00:00 AM 5.09 41.162 0.066 6.7 4.05 11.97
3/18/2021 12:15:00 AM 5.05 41.09 0.066 6.7 4.05 11.98
3/18/2021 12:30:00 AM 5 41 0.066 6.7 4.23 11.99
3/18/2021 12:45:00 AM 4.95 40.91 0.066 6.7 4.15 12
3/18/2021 1:00:00 AM 4.92 40.856 0.066 6.69 4.04 12.01
3/18/2021 1:15:00 AM 4.9 40.82 0.066 6.7 3.97 12.03
3/18/2021 1:30:00 AM 4.89 40.802 0.066 6.7 4.09 12.03
3/18/2021 1:45:00 AM 4.88 40.784 0.066 6.7 4.07 12.03
3/18/2021 2:00:00 AM 4.87 40.766 0.066 6.7 3.96 12.04
3/18/2021 2:15:00 AM 4.87 40.766 0.066 6.71 4.07 12.04
3/18/2021 2:30:00 AM 4.87 40.766 0.066 6.72 4.04 12.04
3/18/2021 2:45:00 AM 4.88 40.784 0.066 6.72 4.06 12.04
3/18/2021 3:00:00 AM 4.88 40.784 0.066 6.72 4.01 12.03
3/18/2021 3:15:00 AM 4.88 40.784 0.066 6.72 3.99 12.04
3/18/2021 3:30:00 AM 4.88 40.784 0.066 6.72 4.02 12.04
3/18/2021 3:45:00 AM 4.88 40.784 0.066 6.73 3.9 12.03
3/18/2021 4:00:00 AM 4.87 40.766 0.066 6.72 4.03 12.03
3/18/2021 4:15:00 AM 4.87 40.766 0.066 6.72 4.08 12.03
3/18/2021 4:30:00 AM 4.87 40.766 0.066 6.72 4.03 12.03
3/18/2021 4:45:00 AM 4.87 40.766 0.066 6.72 4.04 12.03
3/18/2021 5:00:00 AM 4.88 40.784 0.066 6.72 4.04 12.02
3/18/2021 5:15:00 AM 4.88 40.784 0.066 6.72 4.15 12.02
3/18/2021 5:30:00 AM 4.89 40.802 0.066 6.72 4.11 12.02
3/18/2021 5:45:00 AM 4.89 40.802 0.066 6.72 4.04 12.02
3/18/2021 6:00:00 AM 4.89 40.802 0.066 6.72 3.92 12.02
3/18/2021 6:15:00 AM 4.9 40.82 0.066 6.73 4.2 12.02
3/18/2021 6:30:00 AM 4.9 40.82 0.066 6.72 4.02 12.01
3/18/2021 6:45:00 AM 4.9 40.82 0.066 6.72 4.13 12.01
3/18/2021 7:00:00 AM 4.9 40.82 0.066 6.71 4 12.01
3/18/2021 7:15:00 AM 4.9 40.82 0.066 6.71 4.16 12.01
3/18/2021 7:30:00 AM 4.9 40.82 0.066 6.71 4.2 12
3/18/2021 7:45:00 AM 4.9 40.82 0.066 6.71 4.01 12.01
3/18/2021 8:00:00 AM 4.9 40.82 0.066 6.71 3.92 12.02
3/18/2021 8:15:00 AM 4.9 40.82 0.066 6.72 3.86 12.03
3/18/2021 8:30:00 AM 4.91 40.838 0.066 6.73 3.86 12.04
3/18/2021 8:45:00 AM 4.92 40.856 0.066 6.73 3.93 12.05
3/18/2021 9:00:00 AM 4.93 40.874 0.066 6.74 3.94 12.07
3/18/2021 9:15:00 AM 4.94 40.892 0.066 6.74 3.87 12.09
3/18/2021 9:30:00 AM 4.95 40.91 0.066 6.75 3.92 12.1
3/18/2021 9:45:00 AM 4.96 40.928 0.066 6.75 4.02 12.12
3/18/2021 10:00:00 AM 4.98 40.964 0.067 6.76 4.03 12.12
3/18/2021 10:15:00 AM 5 41 0.067 6.77 4.02 12.14
3/18/2021 10:30:00 AM 5.03 41.054 0.067 6.78 3.94 12.15
3/18/2021 10:45:00 AM 5.05 41.09 0.067 6.79 4.14 12.16
3/18/2021 11:00:00 AM 5.07 41.126 0.067 6.8 4.06 12.17
3/18/2021 11:15:00 AM 5.09 41.162 0.067 6.8 4.11 12.17
3/18/2021 11:30:00 AM 5.13 41.234 0.067 6.82 4.24 12.17
3/18/2021 11:45:00 AM 5.16 41.288 0.067 6.82 4.19 12.18
3/18/2021 12:00:00 PM 5.19 41.342 0.067 6.83 4.17 12.18
3/18/2021 12:15:00 PM 5.23 41.414 0.067 6.84 4.25 12.18
3/18/2021 12:30:00 PM 5.28 41.504 0.067 6.85 4.35 12.18
3/18/2021 12:45:00 PM 5.34 41.612 0.067 6.86 4.43 12.19
3/18/2021 1:00:00 PM 5.38 41.684 0.068 6.87 4.47 12.18
3/18/2021 1:15:00 PM 5.43 41.774 0.068 6.89 4.47 12.18
3/18/2021 1:30:00 PM 5.48 41.864 0.069 6.9 4.57 12.16
3/18/2021 1:45:00 PM 5.5 41.9 0.069 6.89 4.6 12.14
3/18/2021 2:00:00 PM 5.5 41.9 0.069 6.89 4.66 12.12
3/18/2021 2:15:00 PM 5.5 41.9 0.069 6.89 4.66 12.11
3/18/2021 2:30:00 PM 5.52 41.936 0.07 6.89 4.69 12.1
3/18/2021 2:45:00 PM 5.55 41.99 0.07 6.89 4.79 12.09
3/18/2021 3:00:00 PM 5.54 41.972 0.071 6.9 4.96 12.08
3/18/2021 3:15:00 PM 5.54 41.972 0.072 6.88 5.24 12.09
3/18/2021 3:30:00 PM 5.53 41.954 0.073 6.89 5.28 12.07
3/18/2021 3:45:00 PM 5.51 41.918 0.073 6.88 5.11 12.06
3/18/2021 4:00:00 PM 5.48 41.864 0.074 6.86 5.14 12.06
3/18/2021 4:15:00 PM 5.45 41.81 0.075 6.85 5.05 12.05
3/18/2021 4:30:00 PM 5.41 41.738 0.075 6.84 5.13 12.04
3/18/2021 4:45:00 PM 5.37 41.666 0.075 6.82 5.29 12.03
3/18/2021 5:00:00 PM 5.33 41.594 0.076 6.82 5.3 12.04
3/18/2021 5:15:00 PM 5.3 41.54 0.076 6.81 5.43 12.08
3/18/2021 5:30:00 PM 5.26 41.468 0.076 6.81 5.58 12.08
3/18/2021 5:45:00 PM 5.21 41.378 0.076 6.81 5.66 12.08
3/18/2021 6:00:00 PM 5.16 41.288 0.076 6.8 5.78 12.08
3/18/2021 6:15:00 PM 5.1 41.18 0.076 6.79 5.96 12.07
3/18/2021 6:30:00 PM 5.04 41.072 0.076 6.76 6.02 12.06
3/18/2021 6:45:00 PM 5 41 0.076 6.75 6.04 12.05
3/18/2021 7:00:00 PM 4.96 40.928 0.076 6.74 6.61 12.04
3/18/2021 7:15:00 PM 4.91 40.838 0.076 6.73 6.39 12.04
3/18/2021 7:30:00 PM 4.86 40.748 0.076 6.72 6.3 12.05
3/18/2021 7:45:00 PM 4.82 40.676 0.077 6.72 6.34 12.06
3/18/2021 8:00:00 PM 4.77 40.586 0.077 6.72 6.41 12.07
3/18/2021 8:15:00 PM 4.71 40.478 0.077 6.71 6.28 12.1
3/18/2021 8:30:00 PM 4.65 40.37 0.077 6.71 6.34 12.11
3/18/2021 8:45:00 PM 4.61 40.298 0.077 6.71 6.44 12.12
3/18/2021 9:00:00 PM 4.54 40.172 0.077 6.7 6.15 12.15
3/18/2021 9:15:00 PM 4.5 40.1 0.078 6.7 6.08 12.16
3/18/2021 9:30:00 PM 4.45 40.01 0.078 6.7 6.06 12.18
3/18/2021 9:45:00 PM 4.39 39.902 0.078 6.69 5.88 12.21
3/18/2021 10:00:00 PM 4.34 39.812 0.077 6.69 5.93 12.22
3/18/2021 10:15:00 PM 4.3 39.74 0.077 6.69 5.84 12.24
3/18/2021 10:30:00 PM 4.26 39.668 0.077 6.69 5.6 12.26
3/18/2021 10:45:00 PM 4.21 39.578 0.077 6.69 5.57 12.27
3/18/2021 11:00:00 PM 4.17 39.506 0.077 6.68 5.55 12.29
3/18/2021 11:15:00 PM 4.12 39.416 0.076 6.68 5.47 12.3
3/18/2021 11:30:00 PM 4.08 39.344 0.076 6.68 6.48 12.32
3/18/2021 11:45:00 PM 4.02 39.236 0.076 6.68 5.83 12.34
3/19/2021 12:00:00 AM 3.98 39.164 0.076 6.68 5.55 12.35
3/19/2021 12:15:00 AM 3.93 39.074 0.075 6.67 5.47 12.37
3/19/2021 12:30:00 AM 3.88 38.984 0.075 6.67 5.44 12.39
3/19/2021 12:45:00 AM 3.83 38.894 0.075 6.66 5.22 12.41
3/19/2021 1:00:00 AM 3.78 38.804 0.075 6.66 5.22 12.43
3/19/2021 1:15:00 AM 3.74 38.732 0.075 6.66 5.11 12.45
3/19/2021 1:30:00 AM 3.69 38.642 0.074 6.66 5.1 12.47
3/19/2021 1:45:00 AM 3.64 38.552 0.074 6.66 4.96 12.48
3/19/2021 2:00:00 AM 3.6 38.48 0.074 6.65 4.98 12.5
3/19/2021 2:15:00 AM 3.55 38.39 0.074 6.65 5.01 12.52
3/19/2021 2:30:00 AM 3.49 38.282 0.074 6.64 5.01 12.54
3/19/2021 2:45:00 AM 3.43 38.174 0.073 6.64 4.91 12.57
3/19/2021 3:00:00 AM 3.36 38.048 0.073 6.64 4.86 12.59
3/19/2021 3:15:00 AM 3.3 37.94 0.073 6.64 4.78 12.61
3/19/2021 3:30:00 AM 3.22 37.796 0.073 6.63 4.96 12.64
3/19/2021 3:45:00 AM 3.15 37.67 0.073 6.62 4.88 12.67
3/19/2021 4:00:00 AM 3.09 37.562 0.073 6.63 4.85 12.69
3/19/2021 4:15:00 AM 3.02 37.436 0.073 6.62 4.94 12.71
3/19/2021 4:30:00 AM 2.96 37.328 0.073 6.62 4.71 12.75
3/19/2021 4:45:00 AM 2.89 37.202 0.072 6.62 4.66 12.77
3/19/2021 5:00:00 AM 2.83 37.094 0.072 6.61 4.7 12.8
3/19/2021 5:15:00 AM 2.8 37.04 0.072 6.62 4.81 12.81
3/19/2021 5:30:00 AM 2.76 36.968 0.072 6.61 4.65 12.83
3/19/2021 5:45:00 AM 2.71 36.878 0.072 6.61 4.58 12.85
3/19/2021 6:00:00 AM 2.68 36.824 0.072 6.61 4.5 12.86
3/19/2021 6:15:00 AM 2.64 36.752 0.072 6.61 4.57 12.88
3/19/2021 6:30:00 AM 2.6 36.68 0.072 6.6 4.69 12.9
3/19/2021 6:45:00 AM 2.55 36.59 0.072 6.6 4.82 12.93
3/19/2021 7:00:00 AM 2.51 36.518 0.072 6.6 4.61 12.95
3/19/2021 7:15:00 AM 2.46 36.428 0.072 6.61 4.53 12.97
3/19/2021 7:30:00 AM 2.41 36.338 0.071 6.6 4.5 13
3/19/2021 7:45:00 AM 2.38 36.284 0.071 6.6 4.59 13.04
3/19/2021 8:00:00 AM 2.34 36.212 0.071 6.61 4.48 13.08
3/19/2021 8:15:00 AM 2.31 36.158 0.071 6.62 4.44 13.14
3/19/2021 8:30:00 AM 2.29 36.122 0.071 6.63 4.31 13.18
3/19/2021 8:45:00 AM 2.27 36.086 0.071 6.64 4.36 13.23
3/19/2021 9:00:00 AM 2.25 36.05 0.071 6.65 4.5 13.27
3/19/2021 9:15:00 AM 2.25 36.05 0.071 6.66 4.29 13.3
3/19/2021 9:30:00 AM 2.26 36.068 0.071 6.67 4.22 13.32
3/19/2021 9:45:00 AM 2.31 36.158 0.071 6.68 4.18 13.33
3/19/2021 10:00:00 AM 2.37 36.266 0.07 6.69 4.24 13.34
3/19/2021 10:15:00 AM 2.46 36.428 0.07 6.71 4.13 13.34
3/19/2021 10:30:00 AM 2.57 36.626 0.07 6.73 4.1 13.32
3/19/2021 10:45:00 AM 2.68 36.824 0.07 6.74 4.24 13.3
3/19/2021 11:00:00 AM 2.82 37.076 0.07 6.76 4.14 13.26
3/19/2021 11:15:00 AM 2.98 37.364 0.07 6.77 4.1 13.22
3/19/2021 11:30:00 AM 3.16 37.688 0.07 6.79 4.12 13.18
3/19/2021 11:45:00 AM 3.35 38.03 0.069 6.8 4.03 13.12
3/19/2021 12:00:00 PM 3.56 38.408 0.069 6.81 4.06 13.05
3/19/2021 12:15:00 PM 3.76 38.768 0.069 6.82 4.04 12.99
3/19/2021 12:30:00 PM 4.01 39.218 0.069 6.83 4.1 12.92
3/19/2021 12:45:00 PM 4.23 39.614 0.069 6.84 4 12.84
3/19/2021 1:00:00 PM 4.44 39.992 0.069 6.85 4.01 12.78
3/19/2021 1:15:00 PM 4.64 40.352 0.069 6.87 4.12 12.71
3/19/2021 1:30:00 PM 4.81 40.658 0.069 6.87 4.08 12.64
3/19/2021 1:45:00 PM 4.97 40.946 0.069 6.87 4.05 12.58
3/19/2021 2:00:00 PM 5.13 41.234 0.069 6.89 4.05 12.52
3/19/2021 2:15:00 PM 5.26 41.468 0.068 6.88 4.83 12.46
3/19/2021 2:30:00 PM 5.37 41.666 0.068 6.88 6.32 12.42
3/19/2021 2:45:00 PM 5.5 41.9 0.068 6.89 4.48 12.37
3/19/2021 3:00:00 PM 5.6 42.08 0.068 6.9 4.2 12.32
3/19/2021 3:15:00 PM 5.67 42.206 0.068 6.9 4.22 12.29
3/19/2021 3:30:00 PM 5.74 42.332 0.068 6.9 4.35 12.26
3/19/2021 3:45:00 PM 5.78 42.404 0.068 6.9 4.24 12.22
3/19/2021 4:00:00 PM 5.84 42.512 0.068 6.9 4.17 12.19
3/19/2021 4:15:00 PM 5.87 42.566 0.068 6.9 4.21 12.17
3/19/2021 4:30:00 PM 5.87 42.566 0.068 6.9 4.21 12.15
3/19/2021 4:45:00 PM 5.87 42.566 0.068 6.89 4.27 12.13
3/19/2021 5:00:00 PM 5.85 42.53 0.068 6.88 4.27 12.14
3/19/2021 5:15:00 PM 5.79 42.422 0.068 6.86 4.27 12.13
3/19/2021 5:30:00 PM 5.71 42.278 0.068 6.86 4.81 12.15
3/19/2021 5:45:00 PM 5.62 42.116 0.068 6.84 4.43 12.17
3/19/2021 6:00:00 PM 5.51 41.918 0.068 6.82 4.36 12.19
3/19/2021 6:15:00 PM 5.39 41.702 0.068 6.8 4.31 12.2
3/19/2021 6:30:00 PM 5.23 41.414 0.068 6.77 4.36 12.22
3/19/2021 6:45:00 PM 5.09 41.162 0.068 6.75 4.43 12.25
3/19/2021 7:00:00 PM 4.96 40.928 0.068 6.74 4.37 12.27
3/19/2021 7:15:00 PM 4.83 40.694 0.068 6.72 4.44 12.29
3/19/2021 7:30:00 PM 4.7 40.46 0.068 6.7 4.59 12.31
3/19/2021 7:45:00 PM 4.59 40.262 0.068 6.69 4.41 12.32
3/19/2021 8:00:00 PM 4.49 40.082 0.068 6.68 4.46 12.34
3/19/2021 8:15:00 PM 4.39 39.902 0.068 6.67 4.72 12.36
3/19/2021 8:30:00 PM 4.3 39.74 0.068 6.66 4.52 12.39
3/19/2021 8:45:00 PM 4.21 39.578 0.068 6.65 4.48 12.42
3/19/2021 9:00:00 PM 4.12 39.416 0.068 6.65 4.48 12.46
3/19/2021 9:15:00 PM 4.04 39.272 0.068 6.64 4.48 12.49
3/19/2021 9:30:00 PM 3.96 39.128 0.068 6.64 4.42 12.51
3/19/2021 9:45:00 PM 3.88 38.984 0.068 6.63 4.52 12.55
3/19/2021 10:00:00 PM 3.8 38.84 0.068 6.63 4.67 12.58
3/19/2021 10:15:00 PM 3.73 38.714 0.068 6.63 4.38 12.6
3/19/2021 10:30:00 PM 3.66 38.588 0.068 6.63 4.33 12.63
3/19/2021 10:45:00 PM 3.59 38.462 0.068 6.62 4.45 12.66
3/19/2021 11:00:00 PM 3.52 38.336 0.068 6.62 4.68 12.68
3/19/2021 11:15:00 PM 3.45 38.21 0.068 6.62 4.37 12.71
3/19/2021 11:30:00 PM 3.4 38.12 0.068 6.62 4.63 12.73
3/19/2021 11:45:00 PM 3.34 38.012 0.068 6.62 4.43 12.76
3/20/2021 12:00:00 AM 3.28 37.904 0.068 6.61 4.48 12.78
3/20/2021 12:15:00 AM 3.23 37.814 0.068 6.61 4.36 12.8
3/20/2021 12:30:00 AM 3.17 37.706 0.068 6.61 4.39 12.82
3/20/2021 12:45:00 AM 3.12 37.616 0.068 6.61 4.37 12.84
3/20/2021 1:00:00 AM 3.07 37.526 0.068 6.6 4.35 12.86
3/20/2021 1:15:00 AM 3.02 37.436 0.068 6.62 4.35 12.88
3/20/2021 1:30:00 AM 2.97 37.346 0.067 6.6 4.41 12.9
3/20/2021 1:45:00 AM 2.92 37.256 0.067 6.6 4.33 12.92
3/20/2021 2:00:00 AM 2.88 37.184 0.067 6.6 4.36 12.94
3/20/2021 2:15:00 AM 2.83 37.094 0.067 6.6 4.31 12.96
3/20/2021 2:30:00 AM 2.79 37.022 0.067 6.6 4.43 12.98
3/20/2021 2:45:00 AM 2.75 36.95 0.067 6.59 4.54 12.99
3/20/2021 3:00:00 AM 2.7 36.86 0.067 6.59 4.34 13.01
3/20/2021 3:15:00 AM 2.67 36.806 0.067 6.59 4.44 13.02
3/20/2021 3:30:00 AM 2.63 36.734 0.067 6.59 4.38 13.04
3/20/2021 3:45:00 AM 2.59 36.662 0.067 6.58 4.27 13.06
3/20/2021 4:00:00 AM 2.55 36.59 0.067 6.59 4.34 13.07
3/20/2021 4:15:00 AM 2.52 36.536 0.067 6.59 4.33 13.09
3/20/2021 4:30:00 AM 2.48 36.464 0.067 6.58 4.34 13.1
3/20/2021 4:45:00 AM 2.44 36.392 0.067 6.58 4.26 13.12
3/20/2021 5:00:00 AM 2.4 36.32 0.067 6.58 4.42 13.13
3/20/2021 5:15:00 AM 2.37 36.266 0.067 6.58 4.36 13.15
3/20/2021 5:30:00 AM 2.33 36.194 0.067 6.57 4.36 13.16
3/20/2021 5:45:00 AM 2.3 36.14 0.067 6.57 4.48 13.18
3/20/2021 6:00:00 AM 2.26 36.068 0.067 6.57 4.36 13.19
3/20/2021 6:15:00 AM 2.23 36.014 0.067 6.56 4.18 13.2
3/20/2021 6:30:00 AM 2.2 35.96 0.067 6.57 4.21 13.21
3/20/2021 6:45:00 AM 2.17 35.906 0.067 6.57 4.31 13.23
3/20/2021 7:00:00 AM 2.14 35.852 0.067 6.57 4.25 13.24
3/20/2021 7:15:00 AM 2.11 35.798 0.067 6.57 4.15 13.25
3/20/2021 7:30:00 AM 2.09 35.762 0.067 6.57 4.17 13.28
3/20/2021 7:45:00 AM 2.07 35.726 0.066 6.57 4.17 13.31
3/20/2021 8:00:00 AM 2.06 35.708 0.066 6.58 4.19 13.35
3/20/2021 8:15:00 AM 2.05 35.69 0.066 6.6 4.19 13.39
3/20/2021 8:30:00 AM 2.06 35.708 0.066 6.61 4.07 13.43
3/20/2021 8:45:00 AM 2.08 35.744 0.066 6.62 4.02 13.46
3/20/2021 9:00:00 AM 2.12 35.816 0.066 6.64 4.15 13.48
3/20/2021 9:15:00 AM 2.17 35.906 0.066 6.65 4.04 13.49
3/20/2021 9:30:00 AM 2.23 36.014 0.066 6.67 4.07 13.49
3/20/2021 9:45:00 AM 2.33 36.194 0.066 6.69 4.04 13.49
3/20/2021 10:00:00 AM 2.46 36.428 0.066 6.7 4.07 13.47
3/20/2021 10:15:00 AM 2.61 36.698 0.066 6.72 4.05 13.44
3/20/2021 10:30:00 AM 2.79 37.022 0.065 6.73 3.98 13.39
3/20/2021 10:45:00 AM 2.99 37.382 0.065 6.76 3.96 13.34
3/20/2021 11:00:00 AM 3.21 37.778 0.065 6.78 4 13.28
3/20/2021 11:15:00 AM 3.46 38.228 0.065 6.8 3.99 13.21
3/20/2021 11:30:00 AM 3.73 38.714 0.065 6.81 4.06 13.12
3/20/2021 11:45:00 AM 4.01 39.218 0.065 6.83 3.98 13.03
3/20/2021 12:00:00 PM 4.31 39.758 0.065 6.85 4 12.94
3/20/2021 12:15:00 PM 4.62 40.316 0.065 6.86 4.06 12.84
3/20/2021 12:30:00 PM 4.92 40.856 0.065 6.87 4 12.74
3/20/2021 12:45:00 PM 5.2 41.36 0.064 6.9 4.04 12.65
3/20/2021 1:00:00 PM 5.46 41.828 0.064 6.9 4.05 12.56
3/20/2021 1:15:00 PM 5.71 42.278 0.064 6.91 4.02 12.47
3/20/2021 1:30:00 PM 5.94 42.692 0.064 6.93 4.1 12.39
3/20/2021 1:45:00 PM 6.15 43.07 0.064 6.94 4.14 12.32
3/20/2021 2:00:00 PM 6.36 43.448 0.064 6.94 4.05 12.25
3/20/2021 2:15:00 PM 6.54 43.772 0.064 6.96 4.02 12.17
3/20/2021 2:30:00 PM 6.7 44.06 0.064 6.96 4.13 12.1
3/20/2021 2:45:00 PM 6.85 44.33 0.064 6.96 4.06 12.05
3/20/2021 3:00:00 PM 6.99 44.582 0.064 6.97 4.17 11.98
3/20/2021 3:15:00 PM 7.1 44.78 0.064 6.99 4.24 11.94
3/20/2021 3:30:00 PM 7.21 44.978 0.064 6.98 4.22 11.89
3/20/2021 3:45:00 PM 7.29 45.122 0.064 6.99 4.21 11.84
3/20/2021 4:00:00 PM 7.36 45.248 0.064 7 4.3 11.81
3/20/2021 4:15:00 PM 7.4 45.32 0.064 6.99 4.2 11.77
3/20/2021 4:30:00 PM 7.43 45.374 0.064 6.98 4.3 11.75
3/20/2021 4:45:00 PM 7.43 45.374 0.064 6.98 4.35 11.73
3/20/2021 5:00:00 PM 7.42 45.356 0.064 6.96 4.27 11.71
3/20/2021 5:15:00 PM 7.39 45.302 0.064 6.96 4.3 11.71
3/20/2021 5:30:00 PM 7.34 45.212 0.064 6.95 4.34 11.71
3/20/2021 5:45:00 PM 7.25 45.05 0.064 6.94 4.33 11.72
3/20/2021 6:00:00 PM 7.16 44.888 0.064 6.92 4.44 11.73
3/20/2021 6:15:00 PM 7.04 44.672 0.064 6.89 4.42 11.74
3/20/2021 6:30:00 PM 6.87 44.366 0.064 6.84 4.43 11.75
3/20/2021 6:45:00 PM 6.7 44.06 0.064 6.82 4.47 11.77
3/20/2021 7:00:00 PM 6.55 43.79 0.064 6.81 4.51 11.8
3/20/2021 7:15:00 PM 6.39 43.502 0.064 6.78 4.45 11.82
3/20/2021 7:30:00 PM 6.23 43.214 0.064 6.76 4.54 11.84
3/20/2021 7:45:00 PM 6.08 42.944 0.064 6.74 4.73 11.86
3/20/2021 8:00:00 PM 5.95 42.71 0.064 6.72 4.61 11.89
3/20/2021 8:15:00 PM 5.83 42.494 0.064 6.72 4.62 11.92
3/20/2021 8:30:00 PM 5.71 42.278 0.065 6.71 4.6 11.96
3/20/2021 8:45:00 PM 5.59 42.062 0.065 6.71 4.61 12
3/20/2021 9:00:00 PM 5.47 41.846 0.065 6.7 4.54 12.03
3/20/2021 9:15:00 PM 5.36 41.648 0.065 6.67 4.62 12.07
3/20/2021 9:30:00 PM 5.24 41.432 0.065 6.69 4.66 12.11
3/20/2021 9:45:00 PM 5.13 41.234 0.065 6.67 4.53 12.16
3/20/2021 10:00:00 PM 5.03 41.054 0.065 6.67 4.53 12.19
3/20/2021 10:15:00 PM 4.93 40.874 0.065 6.66 4.62 12.22
3/20/2021 10:30:00 PM 4.83 40.694 0.065 6.66 4.53 12.26
3/20/2021 10:45:00 PM 4.74 40.532 0.065 6.66 4.5 12.3
3/20/2021 11:00:00 PM 4.65 40.37 0.065 6.67 4.59 12.33
3/20/2021 11:15:00 PM 4.56 40.208 0.065 6.67 4.5 12.36
3/20/2021 11:30:00 PM 4.48 40.064 0.065 6.66 4.51 12.39
3/20/2021 11:45:00 PM 4.4 39.92 0.065 6.65 4.44 12.42
3/21/2021 12:00:00 AM 4.32 39.776 0.065 6.65 4.53 12.45
3/21/2021 12:15:00 AM 4.25 39.65 0.065 6.66 4.58 12.47
3/21/2021 12:30:00 AM 4.18 39.524 0.065 6.66 4.63 12.49
3/21/2021 12:45:00 AM 4.11 39.398 0.065 6.66 4.51 12.52
3/21/2021 1:00:00 AM 4.04 39.272 0.065 6.65 4.45 12.54
3/21/2021 1:15:00 AM 3.98 39.164 0.065 6.65 4.64 12.57
3/21/2021 1:30:00 AM 3.91 39.038 0.065 6.65 4.63 12.59
3/21/2021 1:45:00 AM 3.85 38.93 0.065 6.65 4.74 12.61
3/21/2021 2:00:00 AM 3.79 38.822 0.065 6.64 4.48 12.63
3/21/2021 2:15:00 AM 3.73 38.714 0.065 6.65 4.56 12.66
3/21/2021 2:30:00 AM 3.67 38.606 0.065 6.64 4.59 12.67
3/21/2021 2:45:00 AM 3.62 38.516 0.065 6.64 4.7 12.69
3/21/2021 3:00:00 AM 3.57 38.426 0.064 6.64 5.07 12.71
3/21/2021 3:15:00 AM 3.52 38.336 0.064 6.64 4.42 12.73
3/21/2021 3:30:00 AM 3.47 38.246 0.064 6.63 4.41 12.75
3/21/2021 3:45:00 AM 3.42 38.156 0.064 6.63 4.45 12.76
3/21/2021 4:00:00 AM 3.37 38.066 0.064 6.62 4.43 12.78
3/21/2021 4:15:00 AM 3.32 37.976 0.064 6.62 4.44 12.8
3/21/2021 4:30:00 AM 3.28 37.904 0.064 6.63 4.47 12.82
3/21/2021 4:45:00 AM 3.23 37.814 0.064 6.63 4.45 12.83
3/21/2021 5:00:00 AM 3.19 37.742 0.064 6.62 4.4 12.85
3/21/2021 5:15:00 AM 3.14 37.652 0.064 6.61 4.59 12.86
3/21/2021 5:30:00 AM 3.1 37.58 0.064 6.61 4.41 12.88
3/21/2021 5:45:00 AM 3.06 37.508 0.064 6.61 4.59 12.9
3/21/2021 6:00:00 AM 3.02 37.436 0.064 6.61 4.51 12.92
3/21/2021 6:15:00 AM 2.98 37.364 0.064 6.61 4.51 12.93
3/21/2021 6:30:00 AM 2.94 37.292 0.064 6.61 4.43 12.95
3/21/2021 6:45:00 AM 2.9 37.22 0.064 6.61 4.37 12.96
3/21/2021 7:00:00 AM 2.87 37.166 0.064 6.6 4.49 12.98
3/21/2021 7:15:00 AM 2.83 37.094 0.064 6.6 4.49 13
3/21/2021 7:30:00 AM 2.8 37.04 0.064 6.61 4.64 13.03
3/21/2021 7:45:00 AM 2.78 37.004 0.064 6.61 4.31 13.07
3/21/2021 8:00:00 AM 2.75 36.95 0.064 6.62 4.34 13.1
3/21/2021 8:15:00 AM 2.73 36.914 0.064 6.63 4.45 13.15
3/21/2021 8:30:00 AM 2.74 36.932 0.064 6.65 4.25 13.19
3/21/2021 8:45:00 AM 2.76 36.968 0.064 6.65 4.31 13.23
3/21/2021 9:00:00 AM 2.78 37.004 0.064 6.67 4.22 13.25
3/21/2021 9:15:00 AM 2.82 37.076 0.064 6.68 4.19 13.27
3/21/2021 9:30:00 AM 2.89 37.202 0.064 6.7 4.1 13.28
3/21/2021 9:45:00 AM 2.98 37.364 0.064 6.72 4.15 13.27
3/21/2021 10:00:00 AM 3.11 37.598 0.064 6.75 4.12 13.25
3/21/2021 10:15:00 AM 3.27 37.886 0.063 6.77 4.12 13.22
3/21/2021 10:30:00 AM 3.45 38.21 0.063 6.79 4.1 13.19
3/21/2021 10:45:00 AM 3.64 38.552 0.063 6.81 4.13 13.14
3/21/2021 11:00:00 AM 3.87 38.966 0.063 6.84 4.12 13.08
3/21/2021 11:15:00 AM 4.13 39.434 0.063 6.86 4.09 13.01
3/21/2021 11:30:00 AM 4.4 39.92 0.063 6.86 4.07 12.93
3/21/2021 11:45:00 AM 4.68 40.424 0.063 6.89 4.12 12.84
3/21/2021 12:00:00 PM 4.98 40.964 0.063 6.91 4.06 12.75
3/21/2021 12:15:00 PM 5.3 41.54 0.063 6.92 4.1 12.65
3/21/2021 12:30:00 PM 5.61 42.098 0.063 6.92 4.23 12.55
3/21/2021 12:45:00 PM 5.91 42.638 0.063 6.96 4.16 12.45
3/21/2021 1:00:00 PM 6.2 43.16 0.063 6.96 4.1 12.36
3/21/2021 1:15:00 PM 6.46 43.628 0.062 6.97 4.19 12.27
3/21/2021 1:30:00 PM 6.7 44.06 0.062 7 4.16 12.18
3/21/2021 1:45:00 PM 6.93 44.474 0.062 7.01 4.14 12.1
3/21/2021 2:00:00 PM 7.14 44.852 0.062 7.02 4.12 12.02
3/21/2021 2:15:00 PM 7.33 45.194 0.062 7.05 4.36 11.95
3/21/2021 2:30:00 PM 7.51 45.518 0.062 7.05 4.37 11.89
3/21/2021 2:45:00 PM 7.67 45.806 0.062 7.06 4.32 11.82
3/21/2021 3:00:00 PM 7.82 46.076 0.062 7.08 4.47 11.76
3/21/2021 3:15:00 PM 7.95 46.31 0.062 7.09 4.27 11.72
3/21/2021 3:30:00 PM 8.06 46.508 0.062 7.1 4.29 11.67
3/21/2021 3:45:00 PM 8.15 46.67 0.062 7.11 4.29 11.62
3/21/2021 4:00:00 PM 8.21 46.778 0.062 7.11 4.28 11.58
3/21/2021 4:15:00 PM 8.25 46.85 0.062 7.11 4.42 11.54
3/21/2021 4:30:00 PM 8.28 46.904 0.062 7.11 4.31 11.51
3/21/2021 4:45:00 PM 8.28 46.904 0.062 7.1 4.29 11.5
3/21/2021 5:00:00 PM 8.27 46.886 0.062 7.09 4.29 11.48
3/21/2021 5:15:00 PM 8.23 46.814 0.062 7.08 4.34 11.47
3/21/2021 5:30:00 PM 8.17 46.706 0.062 7.07 4.41 11.47
3/21/2021 5:45:00 PM 8.08 46.544 0.062 7.06 4.46 11.47
3/21/2021 6:00:00 PM 7.97 46.346 0.063 7.03 4.48 11.48
3/21/2021 6:15:00 PM 7.85 46.13 0.063 7 4.44 11.49
3/21/2021 6:30:00 PM 7.68 45.824 0.063 6.97 4.49 11.5
3/21/2021 6:45:00 PM 7.51 45.518 0.063 6.93 4.63 11.52
3/21/2021 7:00:00 PM 7.34 45.212 0.063 6.9 4.56 11.55
3/21/2021 7:15:00 PM 7.17 44.906 0.063 6.88 4.57 11.56
3/21/2021 7:30:00 PM 7 44.6 0.063 6.86 4.5 11.58
3/21/2021 7:45:00 PM 6.84 44.312 0.063 6.83 4.65 11.61
3/21/2021 8:00:00 PM 6.69 44.042 0.063 6.82 4.67 11.63
3/21/2021 8:15:00 PM 6.56 43.808 0.063 6.8 4.83 11.66
3/21/2021 8:30:00 PM 6.42 43.556 0.063 6.79 4.77 11.7
3/21/2021 8:45:00 PM 6.29 43.322 0.063 6.78 4.81 11.74
3/21/2021 9:00:00 PM 6.16 43.088 0.063 6.76 4.75 11.79
3/21/2021 9:15:00 PM 6.03 42.854 0.063 6.76 4.8 11.83
3/21/2021 9:30:00 PM 5.9 42.62 0.063 6.75 4.82 11.87
3/21/2021 9:45:00 PM 5.78 42.404 0.064 6.74 4.83 11.91
3/21/2021 10:00:00 PM 5.66 42.188 0.064 6.74 4.7 11.96
3/21/2021 10:15:00 PM 5.55 41.99 0.064 6.74 4.78 11.99
3/21/2021 10:30:00 PM 5.44 41.792 0.064 6.73 4.68 12.02
3/21/2021 10:45:00 PM 5.33 41.594 0.064 6.73 4.74 12.06
3/21/2021 11:00:00 PM 5.23 41.414 0.064 6.73 4.72 12.09
3/21/2021 11:15:00 PM 5.13 41.234 0.064 6.73 4.71 12.12
3/21/2021 11:30:00 PM 5.04 41.072 0.064 6.72 4.63 12.16
3/21/2021 11:45:00 PM 4.95 40.91 0.064 6.71 4.74 12.18
3/22/2021 12:00:00 AM 4.86 40.748 0.064 6.72 4.68 12.22
3/22/2021 12:15:00 AM 4.77 40.586 0.064 6.71 4.66 12.25
3/22/2021 12:30:00 AM 4.69 40.442 0.064 6.71 4.82 12.27
3/22/2021 12:45:00 AM 4.61 40.298 0.064 6.72 4.58 12.3
3/22/2021 1:00:00 AM 4.53 40.154 0.064 6.74 4.74 12.33
3/22/2021 1:15:00 AM 4.46 40.028 0.064 6.72 4.7 12.35
3/22/2021 1:30:00 AM 4.39 39.902 0.064 6.69 4.78 12.38
3/22/2021 1:45:00 AM 4.32 39.776 0.064 6.71 4.61 12.4
3/22/2021 2:00:00 AM 4.25 39.65 0.064 6.71 4.72 12.43
3/22/2021 2:15:00 AM 4.18 39.524 0.064 6.7 4.55 12.45
3/22/2021 2:30:00 AM 4.11 39.398 0.064 6.69 4.57 12.47
3/22/2021 2:45:00 AM 4.05 39.29 0.063 6.69 4.48 12.49
3/22/2021 3:00:00 AM 3.98 39.164 0.063 6.68 4.59 12.51
3/22/2021 3:15:00 AM 3.92 39.056 0.063 6.69 4.53 12.53
3/22/2021 3:30:00 AM 3.86 38.948 0.063 6.68 4.6 12.55
3/22/2021 3:45:00 AM 3.81 38.858 0.063 6.68 4.63 12.58
3/22/2021 4:00:00 AM 3.76 38.768 0.063 6.69 4.59 12.59
3/22/2021 4:15:00 AM 3.7 38.66 0.063 6.69 4.64 12.61
3/22/2021 4:30:00 AM 3.65 38.57 0.063 6.68 4.63 12.63
3/22/2021 4:45:00 AM 3.6 38.48 0.063 6.68 4.56 12.64
3/22/2021 5:00:00 AM 3.56 38.408 0.063 6.68 4.58 12.66
3/22/2021 5:15:00 AM 3.51 38.318 0.063 6.67 4.51 12.69
3/22/2021 5:30:00 AM 3.46 38.228 0.063 6.67 4.65 12.7
3/22/2021 5:45:00 AM 3.42 38.156 0.063 6.67 4.65 12.72
3/22/2021 6:00:00 AM 3.37 38.066 0.063 6.67 4.6 12.73
3/22/2021 6:15:00 AM 3.33 37.994 0.063 6.66 4.6 12.75
3/22/2021 6:30:00 AM 3.29 37.922 0.063 6.66 4.49 12.77
3/22/2021 6:45:00 AM 3.25 37.85 0.063 6.66 4.56 12.78
3/22/2021 7:00:00 AM 3.21 37.778 0.063 6.66 4.61 12.8
3/22/2021 7:15:00 AM 3.18 37.724 0.063 6.66 4.61 12.81
3/22/2021 7:30:00 AM 3.15 37.67 0.063 6.67 4.64 12.85
3/22/2021 7:45:00 AM 3.12 37.616 0.063 6.67 4.49 12.9
3/22/2021 8:00:00 AM 3.1 37.58 0.063 6.68 4.46 12.94
3/22/2021 8:15:00 AM 3.09 37.562 0.063 6.69 4.48 12.99
3/22/2021 8:30:00 AM 3.09 37.562 0.063 6.71 4.36 13.04
3/22/2021 8:45:00 AM 3.11 37.598 0.063 6.73 4.37 13.08
3/22/2021 9:00:00 AM 3.14 37.652 0.063 6.74 4.34 13.1
3/22/2021 9:15:00 AM 3.19 37.742 0.063 6.76 4.35 13.12
3/22/2021 9:30:00 AM 3.26 37.868 0.063 6.78 4.32 13.13
3/22/2021 9:45:00 AM 3.36 38.048 0.063 6.8 4.26 13.12
3/22/2021 10:00:00 AM 3.49 38.282 0.063 6.82 4.42 13.11
3/22/2021 10:15:00 AM 3.66 38.588 0.062 6.83 4.37 13.07
3/22/2021 10:30:00 AM 3.85 38.93 0.062 6.86 4.25 13.04
3/22/2021 10:45:00 AM 4.06 39.308 0.062 6.88 4.23 12.98
3/22/2021 11:00:00 AM 4.3 39.74 0.062 6.91 4.26 12.92
3/22/2021 11:15:00 AM 4.55 40.19 0.062 6.94 4.2 12.85
3/22/2021 11:30:00 AM 4.83 40.694 0.062 6.95 4.27 12.76
3/22/2021 11:45:00 AM 5.12 41.216 0.062 6.97 4.35 12.67
3/22/2021 12:00:00 PM 5.42 41.756 0.062 6.99 4.22 12.58
3/22/2021 12:15:00 PM 5.74 42.332 0.062 7.01 4.22 12.48
3/22/2021 12:30:00 PM 6.05 42.89 0.062 7.02 4.26 12.38
3/22/2021 12:45:00 PM 6.35 43.43 0.062 7.04 4.28 12.28
3/22/2021 1:00:00 PM 6.64 43.952 0.062 7.06 4.3 12.19
3/22/2021 1:15:00 PM 6.9 44.42 0.061 7.08 4.26 12.11
3/22/2021 1:30:00 PM 7.14 44.852 0.061 7.09 4.43 12.03
3/22/2021 1:45:00 PM 7.37 45.266 0.061 7.11 4.38 11.95
3/22/2021 2:00:00 PM 7.58 45.644 0.061 7.12 4.39 11.87
3/22/2021 2:15:00 PM 7.77 45.986 0.061 7.14 4.32 11.8
3/22/2021 2:30:00 PM 7.95 46.31 0.061 7.15 4.33 11.73
3/22/2021 2:45:00 PM 8.11 46.598 0.061 7.16 4.34 11.68
3/22/2021 3:00:00 PM 8.25 46.85 0.061 7.18 4.34 11.62
3/22/2021 3:15:00 PM 8.38 47.084 0.061 7.19 4.39 11.56
3/22/2021 3:30:00 PM 8.49 47.282 0.061 7.21 4.4 11.52
3/22/2021 3:45:00 PM 8.58 47.444 0.061 7.21 4.46 11.47
3/22/2021 4:00:00 PM 8.64 47.552 0.061 7.22 4.4 11.43
3/22/2021 4:15:00 PM 8.69 47.642 0.061 7.22 4.53 11.39
3/22/2021 4:30:00 PM 8.71 47.678 0.061 7.22 4.54 11.36
3/22/2021 4:45:00 PM 8.71 47.678 0.061 7.21 4.67 11.34
3/22/2021 5:00:00 PM 8.7 47.66 0.061 7.21 4.69 11.33
3/22/2021 5:15:00 PM 8.66 47.588 0.061 7.19 4.69 11.32
3/22/2021 5:30:00 PM 8.6 47.48 0.061 7.17 4.63 11.31
3/22/2021 5:45:00 PM 8.51 47.318 0.061 7.15 4.97 11.32
3/22/2021 6:00:00 PM 8.41 47.138 0.061 7.12 4.69 11.32
3/22/2021 6:15:00 PM 8.29 46.922 0.062 7.09 4.7 11.33
3/22/2021 6:30:00 PM 8.12 46.616 0.062 7.05 4.7 11.33
3/22/2021 6:45:00 PM 7.95 46.31 0.062 7 4.75 11.34
3/22/2021 7:00:00 PM 7.79 46.022 0.062 7 4.78 11.36
3/22/2021 7:15:00 PM 7.62 45.716 0.062 6.96 4.83 11.37
3/22/2021 7:30:00 PM 7.45 45.41 0.062 6.93 4.8 11.39
3/22/2021 7:45:00 PM 7.28 45.104 0.062 6.91 4.85 11.41
3/22/2021 8:00:00 PM 7.12 44.816 0.062 6.88 4.89 11.43
3/22/2021 8:15:00 PM 6.98 44.564 0.062 6.86 5 11.47
3/22/2021 8:30:00 PM 6.85 44.33 0.062 6.85 5.01 11.51
3/22/2021 8:45:00 PM 6.72 44.096 0.062 6.83 5.09 11.53
3/22/2021 9:00:00 PM 6.58 43.844 0.062 6.82 4.94 11.58
3/22/2021 9:15:00 PM 6.45 43.61 0.062 6.81 5.01 11.62
3/22/2021 9:30:00 PM 6.32 43.376 0.063 6.8 5.16 11.66
3/22/2021 9:45:00 PM 6.19 43.142 0.063 6.8 5.1 11.71
3/22/2021 10:00:00 PM 6.07 42.926 0.063 6.79 4.97 11.75
3/22/2021 10:15:00 PM 5.95 42.71 0.063 6.78 4.94 11.79
3/22/2021 10:30:00 PM 5.83 42.494 0.063 6.78 5.09 11.83
3/22/2021 10:45:00 PM 5.73 42.314 0.063 6.77 5.04 11.87
3/22/2021 11:00:00 PM 5.62 42.116 0.063 6.76 5.05 11.9
3/22/2021 11:15:00 PM 5.52 41.936 0.063 6.76 5.01 11.94
3/22/2021 11:30:00 PM 5.42 41.756 0.063 6.76 4.95 11.97
3/22/2021 11:45:00 PM 5.33 41.594 0.063 6.76 4.92 12
3/23/2021 12:00:00 AM 5.24 41.432 0.062 6.75 4.97 12.03
3/23/2021 12:15:00 AM 5.15 41.27 0.063 6.75 4.95 12.06
3/23/2021 12:30:00 AM 5.07 41.126 0.063 6.74 5.05 12.09
3/23/2021 12:45:00 AM 4.99 40.982 0.063 6.75 5.09 12.11
3/23/2021 1:00:00 AM 4.92 40.856 0.062 6.75 4.87 12.14
3/23/2021 1:15:00 AM 4.84 40.712 0.062 6.74 5 12.17
3/23/2021 1:30:00 AM 4.77 40.586 0.062 6.74 5.08 12.19
3/23/2021 1:45:00 AM 4.7 40.46 0.062 6.74 4.95 12.22
3/23/2021 2:00:00 AM 4.64 40.352 0.062 6.73 4.92 12.24
3/23/2021 2:15:00 AM 4.58 40.244 0.062 6.73 5 12.26
3/23/2021 2:30:00 AM 4.52 40.136 0.062 6.73 5 12.28
3/23/2021 2:45:00 AM 4.46 40.028 0.062 6.72 4.85 12.3
3/23/2021 3:00:00 AM 4.4 39.92 0.062 6.76 4.92 12.33
3/23/2021 3:15:00 AM 4.34 39.812 0.062 6.75 4.89 12.35
3/23/2021 3:30:00 AM 4.28 39.704 0.062 6.76 4.91 12.36
3/23/2021 3:45:00 AM 4.23 39.614 0.062 6.76 4.96 12.38
3/23/2021 4:00:00 AM 4.18 39.524 0.062 6.74 4.82 12.4
3/23/2021 4:15:00 AM 4.13 39.434 0.062 6.74 4.83 12.41
3/23/2021 4:30:00 AM 4.08 39.344 0.062 6.74 4.94 12.43
3/23/2021 4:45:00 AM 4.03 39.254 0.062 6.74 4.98 12.45
3/23/2021 5:00:00 AM 3.98 39.164 0.062 6.73 4.92 12.47
3/23/2021 5:15:00 AM 3.93 39.074 0.062 6.72 4.87 12.49
3/23/2021 5:30:00 AM 3.89 39.002 0.062 6.71 4.9 12.5
3/23/2021 5:45:00 AM 3.84 38.912 0.062 6.72 4.87 12.52
3/23/2021 6:00:00 AM 3.8 38.84 0.062 6.71 4.84 12.54
3/23/2021 6:15:00 AM 3.75 38.75 0.062 6.7 4.91 12.55
3/23/2021 6:30:00 AM 3.71 38.678 0.062 6.7 4.95 12.57
3/23/2021 6:45:00 AM 3.67 38.606 0.062 6.7 4.96 12.58
3/23/2021 7:00:00 AM 3.63 38.534 0.062 6.68 4.83 12.6
3/23/2021 7:15:00 AM 3.6 38.48 0.062 6.69 4.86 12.62
3/23/2021 7:30:00 AM 3.56 38.408 0.062 6.7 4.73 12.66
3/23/2021 7:45:00 AM 3.54 38.372 0.062 6.71 4.84 12.72
3/23/2021 8:00:00 AM 3.52 38.336 0.062 6.72 4.9 12.76
3/23/2021 8:15:00 AM 3.52 38.336 0.061 6.74 4.7 12.83
3/23/2021 8:30:00 AM 3.52 38.336 0.061 6.77 4.67 12.87
3/23/2021 8:45:00 AM 3.55 38.39 0.061 6.79 4.69 12.91
3/23/2021 9:00:00 AM 3.58 38.444 0.061 6.81 4.58 12.94
3/23/2021 9:15:00 AM 3.62 38.516 0.061 6.82 4.64 12.96
3/23/2021 9:30:00 AM 3.69 38.642 0.061 6.85 4.57 12.97
3/23/2021 9:45:00 AM 3.79 38.822 0.061 6.87 4.55 12.97
3/23/2021 10:00:00 AM 3.92 39.056 0.061 6.89 4.55 12.95
3/23/2021 10:15:00 AM 4.09 39.362 0.061 6.92 4.64 12.93
3/23/2021 10:30:00 AM 4.29 39.722 0.061 6.95 4.67 12.89
3/23/2021 10:45:00 AM 4.5 40.1 0.06 6.95 4.61 12.84
3/23/2021 11:00:00 AM 4.73 40.514 0.06 6.98 4.51 12.77
3/23/2021 11:15:00 AM 4.99 40.982 0.06 7.01 4.51 12.71
3/23/2021 11:30:00 AM 5.26 41.468 0.06 7.03 4.54 12.64
3/23/2021 11:45:00 AM 5.52 41.936 0.06 7.04 4.5 12.56
3/23/2021 12:00:00 PM 5.79 42.422 0.06 7.06 4.49 12.47
3/23/2021 12:15:00 PM 6.06 42.908 0.06 7.08 4.52 12.39
3/23/2021 12:30:00 PM 6.35 43.43 0.06 7.1 4.56 12.3
3/23/2021 12:45:00 PM 6.62 43.916 0.06 7.11 4.59 12.22
3/23/2021 1:00:00 PM 6.83 44.294 0.06 7.13 4.56 12.14
3/23/2021 1:15:00 PM 7.04 44.672 0.059 7.14 4.55 12.08
3/23/2021 1:30:00 PM 7.22 44.996 0.059 7.15 4.56 12.01
3/23/2021 1:45:00 PM 7.41 45.338 0.059 7.16 4.56 11.95
3/23/2021 2:00:00 PM 7.58 45.644 0.059 7.18 4.69 11.89
3/23/2021 2:15:00 PM 7.75 45.95 0.059 7.2 4.61 11.83
3/23/2021 2:30:00 PM 7.9 46.22 0.059 7.22 4.64 11.78
3/23/2021 2:45:00 PM 8.02 46.436 0.059 7.23 4.59 11.73
3/23/2021 3:00:00 PM 8.09 46.562 0.059 7.22 4.74 11.7
3/23/2021 3:15:00 PM 8.17 46.706 0.059 7.23 4.73 11.67
3/23/2021 3:30:00 PM 8.23 46.814 0.059 7.22 4.79 11.64
3/23/2021 3:45:00 PM 8.26 46.868 0.06 7.25 4.72 11.61
3/23/2021 4:00:00 PM 8.27 46.886 0.06 7.22 4.7 11.6
3/23/2021 4:15:00 PM 8.3 46.94 0.06 7.23 4.76 11.59
3/23/2021 4:30:00 PM 8.31 46.958 0.06 7.22 4.79 11.57
3/23/2021 4:45:00 PM 8.29 46.922 0.06 7.21 4.88 11.56
3/23/2021 5:00:00 PM 8.27 46.886 0.06 7.21 4.99 11.57
3/23/2021 5:15:00 PM 8.26 46.868 0.06 7.2 4.91 11.56
3/23/2021 5:30:00 PM 8.22 46.796 0.06 7.19 4.89 11.54
3/23/2021 5:45:00 PM 8.16 46.688 0.06 7.16 5.01 11.52
3/23/2021 6:00:00 PM 8.11 46.598 0.06 7.13 5 11.52
3/23/2021 6:15:00 PM 8.06 46.508 0.06 7.12 5.06 11.51
3/23/2021 6:30:00 PM 8 46.4 0.06 7.1 5.09 11.49
3/23/2021 6:45:00 PM 7.93 46.274 0.06 7.07 5.04 11.47
3/23/2021 7:00:00 PM 7.84 46.112 0.06 7.04 5.13 11.44
3/23/2021 7:15:00 PM 7.76 45.968 0.06 7.01 5.15 11.4
3/23/2021 7:30:00 PM 7.67 45.806 0.061 6.98 5.22 11.37
3/23/2021 7:45:00 PM 7.59 45.662 0.061 6.95 5.25 11.33
3/23/2021 8:00:00 PM 7.51 45.518 0.061 6.93 5.32 11.33
3/23/2021 8:15:00 PM 7.43 45.374 0.061 6.92 5.41 11.34
3/23/2021 8:30:00 PM 7.34 45.212 0.061 6.88 5.45 11.35
3/23/2021 8:45:00 PM 7.25 45.05 0.061 6.86 5.48 11.37
3/23/2021 9:00:00 PM 7.16 44.888 0.061 6.86 5.47 11.4
3/23/2021 9:15:00 PM 7.08 44.744 0.061 6.85 5.46 11.42
3/23/2021 9:30:00 PM 6.99 44.582 0.061 6.84 5.65 11.44
3/23/2021 9:45:00 PM 6.9 44.42 0.061 6.83 5.64 11.47
3/23/2021 10:00:00 PM 6.82 44.276 0.061 6.82 5.52 11.49
3/23/2021 10:15:00 PM 6.74 44.132 0.061 6.82 5.56 11.52
3/23/2021 10:30:00 PM 6.66 43.988 0.061 6.82 5.57 11.53
3/23/2021 10:45:00 PM 6.58 43.844 0.061 6.81 5.48 11.56
3/23/2021 11:00:00 PM 6.5 43.7 0.061 6.8 5.41 11.58
3/23/2021 11:15:00 PM 6.42 43.556 0.061 6.8 5.52 11.61
3/23/2021 11:30:00 PM 6.35 43.43 0.061 6.8 5.41 11.63
3/23/2021 11:45:00 PM 6.28 43.304 0.061 6.79 5.4 11.65
3/24/2021 12:00:00 AM 6.21 43.178 0.061 6.78 5.42 11.67
3/24/2021 12:15:00 AM 6.14 43.052 0.061 6.78 5.54 11.7
3/24/2021 12:30:00 AM 6.09 42.962 0.061 6.78 5.58 11.71
3/24/2021 12:45:00 AM 6.03 42.854 0.06 6.78 5.54 11.74
3/24/2021 1:00:00 AM 5.99 42.782 0.06 6.78 5.53 11.76
3/24/2021 1:15:00 AM 5.95 42.71 0.06 6.78 5.54 11.77
3/24/2021 1:30:00 AM 5.91 42.638 0.06 6.78 5.53 11.78
3/24/2021 1:45:00 AM 5.86 42.548 0.06 6.77 5.54 11.79
3/24/2021 2:00:00 AM 5.83 42.494 0.06 6.77 5.56 11.8
3/24/2021 2:15:00 AM 5.81 42.458 0.06 6.77 5.43 11.81
3/24/2021 2:30:00 AM 5.79 42.422 0.06 6.77 5.41 11.81
3/24/2021 2:45:00 AM 5.77 42.386 0.06 6.77 5.51 11.82
3/24/2021 3:00:00 AM 5.76 42.368 0.06 6.77 5.41 11.83
3/24/2021 3:15:00 AM 5.76 42.368 0.06 6.77 5.38 11.83
3/24/2021 3:30:00 AM 5.75 42.35 0.06 6.76 5.36 11.83
3/24/2021 3:45:00 AM 5.75 42.35 0.06 6.76 5.33 11.84
3/24/2021 4:00:00 AM 5.75 42.35 0.06 6.76 5.53 11.83
3/24/2021 4:15:00 AM 5.75 42.35 0.06 6.76 5.49 11.83
3/24/2021 4:30:00 AM 5.76 42.368 0.06 6.77 5.31 11.83
3/24/2021 4:45:00 AM 5.76 42.368 0.059 6.77 5.39 11.83
3/24/2021 5:00:00 AM 5.77 42.386 0.059 6.77 5.45 11.82
3/24/2021 5:15:00 AM 5.79 42.422 0.059 6.77 5.51 11.82
3/24/2021 5:30:00 AM 5.81 42.458 0.059 6.77 5.41 11.81
3/24/2021 5:45:00 AM 5.83 42.494 0.059 6.77 5.44 11.81
3/24/2021 6:00:00 AM 5.86 42.548 0.059 6.77 5.4 11.8
3/24/2021 6:15:00 AM 5.88 42.584 0.059 6.77 5.53 11.78
3/24/2021 6:30:00 AM 5.9 42.62 0.059 6.77 5.5 11.77
3/24/2021 6:45:00 AM 5.93 42.674 0.059 6.77 5.5 11.77
3/24/2021 7:00:00 AM 5.95 42.71 0.059 6.77 5.46 11.76
3/24/2021 7:15:00 AM 5.98 42.764 0.059 6.77 5.47 11.76
3/24/2021 7:30:00 AM 6 42.8 0.059 6.76 5.51 11.75
3/24/2021 7:45:00 AM 6.01 42.818 0.059 6.76 5.51 11.75
3/24/2021 8:00:00 AM 6.03 42.854 0.059 6.77 5.61 11.76
3/24/2021 8:15:00 AM 6.05 42.89 0.059 6.77 5.69 11.76
3/24/2021 8:30:00 AM 6.07 42.926 0.059 6.77 5.99 11.77
3/24/2021 8:45:00 AM 6.09 42.962 0.058 6.78 5.91 11.79
3/24/2021 9:00:00 AM 6.12 43.016 0.058 6.79 5.91 11.83
3/24/2021 9:15:00 AM 6.14 43.052 0.059 6.79 6.18 11.84
3/24/2021 9:30:00 AM 6.17 43.106 0.059 6.8 6.66 11.87
3/24/2021 9:45:00 AM 6.21 43.178 0.059 6.81 6.81 11.9
3/24/2021 10:00:00 AM 6.24 43.232 0.06 6.83 7.1 11.92
3/24/2021 10:15:00 AM 6.3 43.34 0.059 6.83 7.12 11.96
3/24/2021 10:30:00 AM 6.35 43.43 0.059 6.87 7.14 11.98
3/24/2021 10:45:00 AM 6.4 43.52 0.059 6.87 7.32 11.99
3/24/2021 11:00:00 AM 6.44 43.592 0.059 6.88 7.22 11.97
3/24/2021 11:15:00 AM 6.49 43.682 0.059 6.9 7.49 11.96
3/24/2021 11:30:00 AM 6.55 43.79 0.06 6.92 7.75 11.96
3/24/2021 11:45:00 AM 6.6 43.88 0.06 6.92 7.85 11.93
3/24/2021 12:00:00 PM 6.65 43.97 0.06 6.92 7.89 11.9
3/24/2021 12:15:00 PM 6.69 44.042 0.061 6.93 7.94 11.88
3/24/2021 12:30:00 PM 6.74 44.132 0.061 6.93 7.98 11.87
3/24/2021 12:45:00 PM 6.87 44.366 0.057 7.42 5.96 11.59
3/24/2021 1:00:00 PM 6.92 44.456 0.057 7.24 5.64 11.68
3/24/2021 1:15:00 PM 6.98 44.564 0.058 7.17 5.55 11.69
3/24/2021 1:30:00 PM 7.05 44.69 0.058 7.16 5.19 11.69
3/24/2021 1:45:00 PM 7.12 44.816 0.058 7.17 5.08 11.68
3/24/2021 2:00:00 PM 7.2 44.96 0.058 7.13 4.76 11.68
3/24/2021 2:15:00 PM 7.26 45.068 0.058 7.17 4.47 11.66
3/24/2021 2:30:00 PM 7.3 45.14 0.058 7.18 4.63 11.63
3/24/2021 2:45:00 PM 7.36 45.248 0.057 7.2 4.78 11.61
3/24/2021 3:00:00 PM 7.42 45.356 0.057 7.18 4.6 11.59
3/24/2021 3:15:00 PM 7.49 45.482 0.057 7.19 4.5 11.57
3/24/2021 3:30:00 PM 7.57 45.626 0.057 7.18 5.34 11.57
3/24/2021 3:45:00 PM 7.65 45.77 0.057 7.2 4.71 11.56
3/24/2021 4:00:00 PM 7.73 45.914 0.057 7.21 4.53 11.55
3/24/2021 4:15:00 PM 7.79 46.022 0.057 7.21 4.29 11.53
3/24/2021 4:30:00 PM 7.83 46.094 0.057 7.21 4.29 11.5
3/24/2021 4:45:00 PM 7.87 46.166 0.057 7.19 4.35 11.48
3/24/2021 5:00:00 PM 7.91 46.238 0.057 7.19 4.33 11.45
3/24/2021 5:15:00 PM 7.94 46.292 0.057 7.2 4.25 11.41
3/24/2021 5:30:00 PM 7.95 46.31 0.057 7.16 4.5 11.35
3/24/2021 5:45:00 PM 7.95 46.31 0.057 7.15 4.63 11.28
3/24/2021 6:00:00 PM 7.95 46.31 0.057 7.13 4.49 11.25
3/24/2021 6:15:00 PM 7.95 46.31 0.057 7.13 4.29 11.24
3/24/2021 6:30:00 PM 7.94 46.292 0.057 7.14 4.32 11.21
3/24/2021 6:45:00 PM 7.92 46.256 0.057 7.12 4.31 11.19
3/24/2021 7:00:00 PM 7.9 46.22 0.057 7.08 4.38 11.16
3/24/2021 7:15:00 PM 7.87 46.166 0.057 7.07 4.24 11.13
3/24/2021 7:30:00 PM 7.84 46.112 0.057 7.04 4.43 11.11
3/24/2021 7:45:00 PM 7.8 46.04 0.057 7.02 4.64 11.08
3/24/2021 8:00:00 PM 7.77 45.986 0.057 7.01 4.52 11.08
3/24/2021 8:15:00 PM 7.74 45.932 0.057 7.01 4.56 11.08
3/24/2021 8:30:00 PM 7.71 45.878 0.057 7 4.5 11.08
3/24/2021 8:45:00 PM 7.68 45.824 0.057 7.02 4.55 11.08
3/24/2021 9:00:00 PM 7.65 45.77 0.056 6.99 4.65 11.09
3/24/2021 9:15:00 PM 7.62 45.716 0.056 7.01 4.53 11.1
3/24/2021 9:30:00 PM 7.59 45.662 0.056 6.99 4.43 11.11
3/24/2021 9:45:00 PM 7.56 45.608 0.056 6.99 4.48 11.12
3/24/2021 10:00:00 PM 7.54 45.572 0.056 6.99 4.14 11.13
3/24/2021 10:15:00 PM 7.51 45.518 0.056 6.97 3.96 11.14
3/24/2021 10:30:00 PM 7.49 45.482 0.056 6.98 4.25 11.14
3/24/2021 10:45:00 PM 7.47 45.446 0.056 6.99 3.95 11.15
3/24/2021 11:00:00 PM 7.45 45.41 0.056 6.97 4.11 11.15
3/24/2021 11:15:00 PM 7.44 45.392 0.056 6.98 4.07 11.16
3/24/2021 11:30:00 PM 7.43 45.374 0.056 6.97 4.21 11.16
3/24/2021 11:45:00 PM 7.42 45.356 0.056 6.97 4.21 11.17
3/25/2021 12:00:00 AM 7.4 45.32 0.056 6.98 4.06 11.17
3/25/2021 12:15:00 AM 7.39 45.302 0.056 6.96 3.89 11.17
3/25/2021 12:30:00 AM 7.38 45.284 0.056 6.97 4.15 11.17
3/25/2021 12:45:00 AM 7.37 45.266 0.056 6.96 4.2 11.18
3/25/2021 1:00:00 AM 7.37 45.266 0.055 6.97 4.02 11.18
3/25/2021 1:15:00 AM 7.37 45.266 0.055 6.98 4.3 11.18
3/25/2021 1:30:00 AM 7.36 45.248 0.055 6.96 4.36 11.18
3/25/2021 1:45:00 AM 7.36 45.248 0.055 6.96 4.03 11.18
3/25/2021 2:00:00 AM 7.36 45.248 0.055 6.97 3.97 11.18
3/25/2021 2:15:00 AM 7.36 45.248 0.055 6.95 4.23 11.18
3/25/2021 2:30:00 AM 7.36 45.248 0.055 6.96 4.16 11.18
3/25/2021 2:45:00 AM 7.36 45.248 0.055 6.96 4.11 11.18
3/25/2021 3:00:00 AM 7.35 45.23 0.055 6.98 4.19 11.19
3/25/2021 3:15:00 AM 7.34 45.212 0.055 6.98 4.07 11.19
3/25/2021 3:30:00 AM 7.32 45.176 0.055 6.95 4.2 11.19
3/25/2021 3:45:00 AM 7.31 45.158 0.055 6.96 4.01 11.2
3/25/2021 4:00:00 AM 7.29 45.122 0.055 6.96 4.22 11.2
3/25/2021 4:15:00 AM 7.28 45.104 0.055 6.97 4.07 11.2
3/25/2021 4:30:00 AM 7.27 45.086 0.055 6.95 4.08 11.21
3/25/2021 4:45:00 AM 7.26 45.068 0.055 6.97 4.3 11.21
3/25/2021 5:00:00 AM 7.25 45.05 0.055 6.99 4.07 11.22
3/25/2021 5:15:00 AM 7.23 45.014 0.055 6.95 4.25 11.22
3/25/2021 5:30:00 AM 7.22 44.996 0.055 6.96 4.03 11.22
3/25/2021 5:45:00 AM 7.2 44.96 0.055 6.96 4.11 11.23
3/25/2021 6:00:00 AM 7.19 44.942 0.054 6.97 4.07 11.23
3/25/2021 6:15:00 AM 7.18 44.924 0.054 6.98 4.19 11.24
3/25/2021 6:30:00 AM 7.18 44.924 0.054 6.95 4.19 11.24
3/25/2021 6:45:00 AM 7.17 44.906 0.054 6.97 4.12 11.25
3/25/2021 7:00:00 AM 7.16 44.888 0.054 6.92 3.87 11.25
3/25/2021 7:15:00 AM 7.15 44.87 0.054 6.97 4.19 11.26
3/25/2021 7:30:00 AM 7.14 44.852 0.054 6.97 4 11.27
3/25/2021 7:45:00 AM 7.14 44.852 0.054 6.99 3.77 11.31
3/25/2021 8:00:00 AM 7.14 44.852 0.054 6.98 3.84 11.34
3/25/2021 8:15:00 AM 7.14 44.852 0.054 6.98 5.91 11.36
3/25/2021 8:30:00 AM 7.15 44.87 0.054 6.97 3.55 11.41
3/25/2021 8:45:00 AM 7.16 44.888 0.054 7.02 3.79 11.44
3/25/2021 9:00:00 AM 7.21 44.978 0.054 7.04 3.48 11.51
3/25/2021 9:15:00 AM 7.25 45.05 0.054 7.06 3.38 11.55
3/25/2021 9:30:00 AM 7.33 45.194 0.054 7.07 3.49 11.59
3/25/2021 9:45:00 AM 7.39 45.302 0.054 7.12 3.49 11.6
3/25/2021 10:00:00 AM 7.45 45.41 0.053 7.13 3.5 11.61
3/25/2021 10:15:00 AM 7.56 45.608 0.053 7.14 3.37 11.62
3/25/2021 10:30:00 AM 7.68 45.824 0.053 7.15 3.4 11.62
3/25/2021 10:45:00 AM 7.75 45.95 0.053 7.17 3.3 11.61
3/25/2021 11:00:00 AM 7.9 46.22 0.053 7.21 3.38 11.6
3/25/2021 11:15:00 AM 8.07 46.526 0.053 7.21 3.45 11.58
3/25/2021 11:30:00 AM 8.23 46.814 0.053 7.22 3.59 11.54
3/25/2021 11:45:00 AM 8.45 47.21 0.053 7.24 3.47 11.5
3/25/2021 12:00:00 PM 8.69 47.642 0.053 7.25 3.53 11.44
3/25/2021 12:15:00 PM 8.94 48.092 0.053 7.24 3.46 11.38
3/25/2021 12:30:00 PM 9.14 48.452 0.053 7.24 3.43 11.33
3/25/2021 12:45:00 PM 9.38 48.884 0.053 7.25 3.32 11.28
3/25/2021 1:00:00 PM 9.58 49.244 0.053 7.25 3.55 11.22
3/25/2021 1:15:00 PM 9.69 49.442 0.053 7.3 3.78 11.18
3/25/2021 1:30:00 PM 9.89 49.802 0.052 7.26 3.51 11.14
3/25/2021 1:45:00 PM 10.08 50.144 0.053 7.27 3.63 11.09
3/25/2021 2:00:00 PM 10.25 50.45 0.053 7.29 3.49 11.04
3/25/2021 2:15:00 PM 10.38 50.684 0.053 7.28 3.65 11
3/25/2021 2:30:00 PM 10.48 50.864 0.053 7.32 3.67 10.96
3/25/2021 2:45:00 PM 10.57 51.026 0.052 7.3 3.59 10.93
3/25/2021 3:00:00 PM 10.66 51.188 0.052 7.3 3.67 10.9
3/25/2021 3:15:00 PM 10.73 51.314 0.053 7.32 3.87 10.87
3/25/2021 3:30:00 PM 10.77 51.386 0.053 7.3 3.57 10.85
3/25/2021 3:45:00 PM 10.79 51.422 0.053 7.29 3.9 10.84
3/25/2021 4:00:00 PM 10.78 51.404 0.053 7.32 3.82 10.82
3/25/2021 4:15:00 PM 10.75 51.35 0.053 7.36 3.67 10.81
3/25/2021 4:30:00 PM 10.7 51.26 0.053 7.33 3.83 10.79
3/25/2021 4:45:00 PM 10.64 51.152 0.053 7.32 3.83 10.78
3/25/2021 5:00:00 PM 10.56 51.008 0.053 7.32 3.85 10.77
3/25/2021 5:15:00 PM 10.49 50.882 0.053 7.28 3.66 10.76
3/25/2021 5:30:00 PM 10.41 50.738 0.053 7.28 4.18 10.76
3/25/2021 5:45:00 PM 10.31 50.558 0.053 7.26 4.27 10.74
3/25/2021 6:00:00 PM 10.22 50.396 0.053 7.23 4.09 10.72
3/25/2021 6:15:00 PM 10.13 50.234 0.053 7.2 3.91 10.69
3/25/2021 6:30:00 PM 10.03 50.054 0.053 7.18 4.2 10.66
3/25/2021 6:45:00 PM 9.93 49.874 0.053 7.14 4.13 10.63
3/25/2021 7:00:00 PM 9.84 49.712 0.053 7.14 3.97 10.61
3/25/2021 7:15:00 PM 9.73 49.514 0.053 7.11 4.01 10.59
3/25/2021 7:30:00 PM 9.63 49.334 0.054 7.08 4.07 10.58
3/25/2021 7:45:00 PM 9.52 49.136 0.054 7.05 4.18 10.58
3/25/2021 8:00:00 PM 9.43 48.974 0.054 7.06 4.2 10.59
3/25/2021 8:15:00 PM 9.33 48.794 0.054 7.03 4.17 10.6
3/25/2021 8:30:00 PM 9.25 48.65 0.054 7.04 4.12 10.62
3/25/2021 8:45:00 PM 9.18 48.524 0.054 7.02 4.26 10.63
3/25/2021 9:00:00 PM 9.11 48.398 0.054 7.03 4.15 10.64
3/25/2021 9:15:00 PM 9.05 48.29 0.054 7.02 4.28 10.67
3/25/2021 9:30:00 PM 9.01 48.218 0.054 7.03 4.32 10.69
3/25/2021 9:45:00 PM 8.97 48.146 0.054 7.02 4.05 10.69
3/25/2021 10:00:00 PM 8.93 48.074 0.054 7.02 3.92 10.69
3/25/2021 10:15:00 PM 8.89 48.002 0.054 7.03 3.9 10.71
3/25/2021 10:30:00 PM 8.86 47.948 0.054 7.02 3.94 10.71
3/25/2021 10:45:00 PM 8.83 47.894 0.054 6.98 4.01 10.71
3/25/2021 11:00:00 PM 8.81 47.858 0.054 7.01 3.99 10.73
3/25/2021 11:15:00 PM 8.79 47.822 0.054 7.01 3.95 10.72
3/25/2021 11:30:00 PM 8.76 47.768 0.054 7 3.75 10.73
3/25/2021 11:45:00 PM 8.74 47.732 0.054 7 3.79 10.73
3/26/2021 12:00:00 AM 8.73 47.714 0.054 6.99 3.89 10.74
3/26/2021 12:15:00 AM 8.71 47.678 0.054 7.01 3.82 10.74
3/26/2021 12:30:00 AM 8.7 47.66 0.054 7 3.8 10.75
3/26/2021 12:45:00 AM 8.68 47.624 0.054 7.01 3.93 10.74
3/26/2021 1:00:00 AM 8.65 47.57 0.054 7 3.88 10.75
3/26/2021 1:15:00 AM 8.64 47.552 0.054 7 3.88 10.76
3/26/2021 1:30:00 AM 8.62 47.516 0.054 6.99 4.07 10.75
3/26/2021 1:45:00 AM 8.61 47.498 0.054 7 3.94 10.75
3/26/2021 2:00:00 AM 8.6 47.48 0.053 6.99 3.67 10.75
3/26/2021 2:15:00 AM 8.61 47.498 0.053 7 4 10.75
3/26/2021 2:30:00 AM 8.6 47.48 0.054 7 3.94 10.75
3/26/2021 2:45:00 AM 8.61 47.498 0.053 6.99 3.79 10.74
3/26/2021 3:00:00 AM 8.61 47.498 0.053 7.01 3.8 10.74
3/26/2021 3:15:00 AM 8.62 47.516 0.053 6.99 3.86 10.73
3/26/2021 3:30:00 AM 8.64 47.552 0.053 7 3.85 10.72
3/26/2021 3:45:00 AM 8.66 47.588 0.053 6.99 3.75 10.72
3/26/2021 4:00:00 AM 8.66 47.588 0.053 6.99 3.87 10.71
3/26/2021 4:15:00 AM 8.64 47.552 0.054 7 3.92 10.71
3/26/2021 4:30:00 AM 8.64 47.552 0.053 7 3.88 10.71
3/26/2021 4:45:00 AM 8.64 47.552 0.053 7 3.87 10.7
3/26/2021 5:00:00 AM 8.62 47.516 0.053 6.99 3.71 10.7
3/26/2021 5:15:00 AM 8.59 47.462 0.054 6.97 4.02 10.7
3/26/2021 5:30:00 AM 8.57 47.426 0.053 6.99 3.72 10.7
3/26/2021 5:45:00 AM 8.55 47.39 0.053 6.99 3.86 10.7
3/26/2021 6:00:00 AM 8.54 47.372 0.053 6.99 3.74 10.71
3/26/2021 6:15:00 AM 8.55 47.39 0.053 6.99 3.91 10.69
3/26/2021 6:30:00 AM 8.55 47.39 0.053 6.99 3.99 10.7
3/26/2021 6:45:00 AM 8.53 47.354 0.053 6.98 3.91 10.71
3/26/2021 7:00:00 AM 8.52 47.336 0.053 6.99 3.77 10.71
3/26/2021 7:15:00 AM 8.54 47.372 0.053 6.99 4.09 10.71
3/26/2021 7:30:00 AM 8.54 47.372 0.053 6.99 3.96 10.73
3/26/2021 7:45:00 AM 8.53 47.354 0.053 6.99 3.99 10.76
3/26/2021 8:00:00 AM 8.54 47.372 0.053 7.02 3.9 10.81
3/26/2021 8:15:00 AM 8.56 47.408 0.053 7.05 3.84 10.85
3/26/2021 8:30:00 AM 8.56 47.408 0.053 7.04 3.85 10.86
3/26/2021 8:45:00 AM 8.58 47.444 0.053 7.07 3.86 10.92
3/26/2021 9:00:00 AM 8.59 47.462 0.053 7.06 3.84 10.94
3/26/2021 9:15:00 AM 8.67 47.606 0.053 7.09 3.73 10.99
3/26/2021 9:30:00 AM 8.73 47.714 0.053 7.11 3.67 11.03
3/26/2021 9:45:00 AM 8.74 47.732 0.053 7.15 3.74 11.01
3/26/2021 10:00:00 AM 8.76 47.768 0.053 7.15 3.82 10.99
3/26/2021 10:15:00 AM 8.79 47.822 0.053 7.18 3.61 10.98
3/26/2021 10:30:00 AM 8.83 47.894 0.054 7.13 3.28 10.95
3/26/2021 10:45:00 AM 8.9 48.02 0.053 7.15 3.44 11.01
3/26/2021 11:00:00 AM 8.99 48.182 0.053 7.17 3.42 11.04
3/26/2021 11:15:00 AM 9.05 48.29 0.053 7.22 3.65 11.04
3/26/2021 11:30:00 AM 9.14 48.452 0.053 7.24 3.65 11.06
3/26/2021 11:45:00 AM 9.27 48.686 0.053 7.26 3.36 11.07
3/26/2021 12:00:00 PM 9.31 48.758 0.053 7.24 3.58 11
3/26/2021 12:15:00 PM 9.36 48.848 0.053 7.27 3.47 10.98
3/26/2021 12:30:00 PM 9.48 49.064 0.053 7.27 3.63 11.01
3/26/2021 12:45:00 PM 9.55 49.19 0.053 7.28 3.79 11.02
3/26/2021 1:00:00 PM 9.67 49.406 0.053 7.3 3.51 11.03
3/26/2021 1:15:00 PM 9.83 49.694 0.053 7.3 3.66 11.02
3/26/2021 1:30:00 PM 9.86 49.748 0.053 7.32 3.68 11
3/26/2021 1:45:00 PM 9.84 49.712 0.053 7.33 3.63 11
3/26/2021 2:00:00 PM 9.81 49.658 0.053 7.33 3.53 10.99
3/26/2021 2:15:00 PM 9.82 49.676 0.053 7.34 3.69 11
3/26/2021 2:30:00 PM 9.87 49.766 0.053 7.33 3.43 11
3/26/2021 2:45:00 PM 9.88 49.784 0.053 7.33 3.71 11
3/26/2021 3:00:00 PM 9.83 49.694 0.053 7.34 3.62 11.01
3/26/2021 3:15:00 PM 9.72 49.496 0.053 7.33 3.69 11.03
3/26/2021 3:30:00 PM 9.65 49.37 0.053 7.33 3.51 11.04
3/26/2021 3:45:00 PM 9.56 49.208 0.053 7.3 3.66 11.03
3/26/2021 4:00:00 PM 9.48 49.064 0.053 7.32 3.61 11.05
3/26/2021 4:15:00 PM 9.42 48.956 0.053 7.3 3.74 11.07
3/26/2021 4:30:00 PM 9.33 48.794 0.053 7.28 3.62 11.07
3/26/2021 4:45:00 PM 9.22 48.596 0.053 7.27 3.8 11.07
3/26/2021 5:00:00 PM 9.11 48.398 0.053 7.26 3.61 11.06
3/26/2021 5:15:00 PM 9.01 48.218 0.053 7.25 3.68 11.06
3/26/2021 5:30:00 PM 8.93 48.074 0.053 7.23 3.85 11.08
3/26/2021 5:45:00 PM 8.86 47.948 0.053 7.23 3.58 11.09
3/26/2021 6:00:00 PM 8.77 47.786 0.053 7.2 3.67 11.07
3/26/2021 6:15:00 PM 8.67 47.606 0.053 7.17 3.41 11.04
3/26/2021 6:30:00 PM 8.59 47.462 0.053 7.15 3.39 11.03
3/26/2021 6:45:00 PM 8.49 47.282 0.053 7.13 3.55 11.01
3/26/2021 7:00:00 PM 8.41 47.138 0.054 7.11 3.74 10.98
3/26/2021 7:15:00 PM 8.32 46.976 0.054 7.06 3.23 10.97
3/26/2021 7:30:00 PM 8.24 46.832 0.054 7.05 3.49 10.96
3/26/2021 7:45:00 PM 8.15 46.67 0.054 7.04 3.35 10.96
3/26/2021 8:00:00 PM 8.07 46.526 0.054 7.04 3.49 10.97
3/26/2021 8:15:00 PM 8 46.4 0.054 7.03 3.56 10.99
3/26/2021 8:30:00 PM 7.94 46.292 0.054 7.03 3.85 11
3/26/2021 8:45:00 PM 7.88 46.184 0.054 7.03 3.62 11.02
3/26/2021 9:00:00 PM 7.82 46.076 0.054 7.02 3.56 11.03
3/26/2021 9:15:00 PM 7.76 45.968 0.054 7 3.9 11.05
3/26/2021 9:30:00 PM 7.7 45.86 0.054 6.99 3.68 11.07
3/26/2021 9:45:00 PM 7.65 45.77 0.054 7 3.48 11.09
3/26/2021 10:00:00 PM 7.6 45.68 0.054 7.01 3.43 11.1
3/26/2021 10:15:00 PM 7.56 45.608 0.054 7 3.45 11.12
3/26/2021 10:30:00 PM 7.52 45.536 0.054 6.99 3.35 11.13
3/26/2021 10:45:00 PM 7.48 45.464 0.054 7.01 3.45 11.14
3/26/2021 11:00:00 PM 7.44 45.392 0.054 6.99 3.6 11.16
3/26/2021 11:15:00 PM 7.41 45.338 0.054 6.99 3.22 11.17
3/26/2021 11:30:00 PM 7.37 45.266 0.054 7 3.36 11.17
3/26/2021 11:45:00 PM 7.33 45.194 0.054 6.98 3.3 11.18
3/27/2021 12:00:00 AM 7.31 45.158 0.054 6.99 3.43 11.19
3/27/2021 12:15:00 AM 7.29 45.122 0.054 6.98 3.45 11.19
3/27/2021 12:30:00 AM 7.27 45.086 0.054 7 3.48 11.2
3/27/2021 12:45:00 AM 7.25 45.05 0.055 7 3.45 11.21
3/27/2021 1:00:00 AM 7.24 45.032 0.054 6.99 3.46 11.21
3/27/2021 1:15:00 AM 7.23 45.014 0.054 6.98 3.17 11.22
3/27/2021 1:30:00 AM 7.21 44.978 0.054 6.98 3.23 11.22
3/27/2021 1:45:00 AM 7.2 44.96 0.054 6.99 3.26 11.22
3/27/2021 2:00:00 AM 7.19 44.942 0.054 6.98 3.13 11.22
3/27/2021 2:15:00 AM 7.18 44.924 0.054 6.98 3.03 11.23
3/27/2021 2:30:00 AM 7.17 44.906 0.054 6.98 3.28 11.23
3/27/2021 2:45:00 AM 7.17 44.906 0.054 6.98 3.3 11.23
3/27/2021 3:00:00 AM 7.16 44.888 0.054 6.98 3.48 11.24
3/27/2021 3:15:00 AM 7.15 44.87 0.054 6.97 3.09 11.24
3/27/2021 3:30:00 AM 7.14 44.852 0.054 6.99 3.37 11.24
3/27/2021 3:45:00 AM 7.13 44.834 0.054 6.99 3.31 11.24
3/27/2021 4:00:00 AM 7.13 44.834 0.054 6.97 3.24 11.24
3/27/2021 4:15:00 AM 7.12 44.816 0.054 6.98 3.15 11.24
3/27/2021 4:30:00 AM 7.12 44.816 0.054 6.96 3.23 11.24
3/27/2021 4:45:00 AM 7.11 44.798 0.054 6.97 3.28 11.25
3/27/2021 5:00:00 AM 7.11 44.798 0.054 6.97 3.09 11.25
3/27/2021 5:15:00 AM 7.1 44.78 0.054 6.96 3.2 11.25
3/27/2021 5:30:00 AM 7.1 44.78 0.054 7.01 3.12 11.25
3/27/2021 5:45:00 AM 7.1 44.78 0.054 6.97 3.25 11.25
3/27/2021 6:00:00 AM 7.1 44.78 0.054 6.97 3.48 11.25
3/27/2021 6:15:00 AM 7.09 44.762 0.054 6.96 3.2 11.26
3/27/2021 6:30:00 AM 7.09 44.762 0.054 6.96 3.16 11.26
3/27/2021 6:45:00 AM 7.09 44.762 0.054 6.98 2.98 11.27
3/27/2021 7:00:00 AM 7.09 44.762 0.054 6.96 3.26 11.27
3/27/2021 7:15:00 AM 7.08 44.744 0.054 6.96 3.46 11.27
3/27/2021 7:30:00 AM 7.09 44.762 0.055 6.97 3.1 11.3
3/27/2021 7:45:00 AM 7.09 44.762 0.054 6.99 3.01 11.34
3/27/2021 8:00:00 AM 7.09 44.762 0.054 7.02 3.05 11.37
3/27/2021 8:15:00 AM 7.1 44.78 0.054 7 2.88 11.39
3/27/2021 8:30:00 AM 7.12 44.816 0.054 7.01 2.91 11.44
3/27/2021 8:45:00 AM 7.15 44.87 0.054 7.07 2.98 11.53
3/27/2021 9:00:00 AM 7.18 44.924 0.054 7.07 2.88 11.58
3/27/2021 9:15:00 AM 7.21 44.978 0.054 7.12 2.84 11.63
3/27/2021 9:30:00 AM 7.26 45.068 0.054 7.12 2.71 11.67
3/27/2021 9:45:00 AM 7.31 45.158 0.054 7.16 2.77 11.68
3/27/2021 10:00:00 AM 7.43 45.374 0.054 7.17 2.78 11.71
3/27/2021 10:15:00 AM 7.49 45.482 0.054 7.19 2.81 11.69
3/27/2021 10:30:00 AM 7.55 45.59 0.054 7.18 2.78 11.7
3/27/2021 10:45:00 AM 7.66 45.788 0.054 7.23 2.83 11.7
3/27/2021 11:00:00 AM 7.81 46.058 0.054 7.24 2.88 11.68
3/27/2021 11:15:00 AM 7.9 46.22 0.054 7.25 2.9 11.67
3/27/2021 11:30:00 AM 7.94 46.292 0.053 7.27 2.84 11.64
3/27/2021 11:45:00 AM 8.11 46.598 0.053 7.27 2.8 11.61
3/27/2021 12:00:00 PM 8.36 47.048 0.053 7.28 2.88 11.55
3/27/2021 12:15:00 PM 8.77 47.786 0.054 7.3 2.87 11.49
3/27/2021 12:30:00 PM 9.05 48.29 0.053 7.3 2.77 11.42
3/27/2021 12:45:00 PM 9.34 48.812 0.053 7.34 2.76 11.35
3/27/2021 1:00:00 PM 9.6 49.28 0.053 7.32 2.94 11.27
3/27/2021 1:15:00 PM 9.73 49.514 0.053 7.34 2.9 11.23
3/27/2021 1:30:00 PM 9.82 49.676 0.053 7.36 2.88 11.21
3/27/2021 1:45:00 PM 9.88 49.784 0.053 7.37 2.9 11.19
3/27/2021 2:00:00 PM 9.98 49.964 0.053 7.36 2.91 11.17
3/27/2021 2:15:00 PM 10.09 50.162 0.053 7.39 2.87 11.13
3/27/2021 2:30:00 PM 10.2 50.36 0.053 7.41 3.13 11.1
3/27/2021 2:45:00 PM 10.28 50.504 0.053 7.41 3.07 11.07
3/27/2021 3:00:00 PM 10.36 50.648 0.053 7.41 3.02 11.05
3/27/2021 3:15:00 PM 10.42 50.756 0.053 7.41 2.94 11.01
3/27/2021 3:30:00 PM 10.45 50.81 0.053 7.41 2.98 11
3/27/2021 3:45:00 PM 10.47 50.846 0.053 7.43 3.09 10.98
3/27/2021 4:00:00 PM 10.47 50.846 0.053 7.42 2.91 10.97
3/27/2021 4:15:00 PM 10.46 50.828 0.053 7.41 2.92 10.96
3/27/2021 4:30:00 PM 10.43 50.774 0.053 7.43 3.18 10.96
3/27/2021 4:45:00 PM 10.39 50.702 0.054 7.41 4.31 10.94
3/27/2021 5:00:00 PM 10.38 50.684 0.056 7.34 6.28 10.89
3/27/2021 5:15:00 PM 10.29 50.522 0.057 7.29 5.67 10.81
3/27/2021 5:30:00 PM 10.23 50.414 0.056 7.25 4.47 10.79
3/27/2021 5:45:00 PM 10.18 50.324 0.057 7.23 4.4 10.76
3/27/2021 6:00:00 PM 10.11 50.198 0.057 7.21 4.91 10.72
3/27/2021 6:15:00 PM 10.02 50.036 0.057 7.17 4.17 10.7
3/27/2021 6:30:00 PM 9.91 49.838 0.056 7.16 3.55 10.68
3/27/2021 6:45:00 PM 9.79 49.622 0.056 7.15 3.29 10.67
3/27/2021 7:00:00 PM 9.67 49.406 0.056 7.14 3.26 10.65
3/27/2021 7:15:00 PM 9.54 49.172 0.056 7.11 3.19 10.65
3/27/2021 7:30:00 PM 9.41 48.938 0.056 7.1 3.13 10.65
3/27/2021 7:45:00 PM 9.26 48.668 0.056 7.07 3.2 10.65
3/27/2021 8:00:00 PM 9.13 48.434 0.056 7.07 3.18 10.65
3/27/2021 8:15:00 PM 9.01 48.218 0.056 7.04 3.26 10.66
3/27/2021 8:30:00 PM 8.89 48.002 0.056 7.05 3.53 10.7
3/27/2021 8:45:00 PM 8.78 47.804 0.056 7.03 3.43 10.72
3/27/2021 9:00:00 PM 8.68 47.624 0.056 7.04 3.43 10.74
3/27/2021 9:15:00 PM 8.57 47.426 0.056 7.01 3.29 10.77
3/27/2021 9:30:00 PM 8.47 47.246 0.056 7.02 3.32 10.8
3/27/2021 9:45:00 PM 8.37 47.066 0.056 7 3.42 10.82
3/27/2021 10:00:00 PM 8.27 46.886 0.056 6.99 3.33 10.85
3/27/2021 10:15:00 PM 8.16 46.688 0.056 7 3.25 10.88
3/27/2021 10:30:00 PM 8.07 46.526 0.056 6.98 3.21 10.91
3/27/2021 10:45:00 PM 7.97 46.346 0.056 6.99 3.23 10.93
3/27/2021 11:00:00 PM 7.88 46.184 0.056 6.97 3.35 10.95
3/27/2021 11:15:00 PM 7.8 46.04 0.056 6.98 3.1 10.97
3/27/2021 11:30:00 PM 7.71 45.878 0.056 6.98 3.2 10.99
3/27/2021 11:45:00 PM 7.63 45.734 0.057 6.96 3.3 11
3/28/2021 12:00:00 AM 7.56 45.608 0.057 6.98 3.2 11.02
3/28/2021 12:15:00 AM 7.48 45.464 0.057 6.98 3.25 11.04
3/28/2021 12:30:00 AM 7.41 45.338 0.057 6.97 3.16 11.06
3/28/2021 12:45:00 AM 7.33 45.194 0.056 6.99 3.15 11.09
3/28/2021 1:00:00 AM 7.26 45.068 0.056 6.98 3.13 11.11
3/28/2021 1:15:00 AM 7.19 44.942 0.056 6.98 3 11.13
3/28/2021 1:30:00 AM 7.12 44.816 0.056 6.96 3.03 11.14
3/28/2021 1:45:00 AM 7.06 44.708 0.056 6.96 3 11.16
3/28/2021 2:00:00 AM 7 44.6 0.056 6.96 2.94 11.18
3/28/2021 2:15:00 AM 6.94 44.492 0.056 6.96 3.23 11.19
3/28/2021 2:30:00 AM 6.88 44.384 0.056 6.96 3.09 11.21
3/28/2021 2:45:00 AM 6.83 44.294 0.056 6.97 3.09 11.22
3/28/2021 3:00:00 AM 6.77 44.186 0.056 6.96 2.9 11.23
3/28/2021 3:15:00 AM 6.72 44.096 0.056 6.96 3.06 11.25
3/28/2021 3:30:00 AM 6.67 44.006 0.056 6.97 3.09 11.26
3/28/2021 3:45:00 AM 6.63 43.934 0.056 6.93 2.88 11.27
3/28/2021 4:00:00 AM 6.59 43.862 0.056 6.96 2.86 11.28
3/28/2021 4:15:00 AM 6.55 43.79 0.056 6.97 2.94 11.29
3/28/2021 4:30:00 AM 6.52 43.736 0.056 6.97 2.88 11.29
3/28/2021 4:45:00 AM 6.5 43.7 0.056 6.97 2.86 11.29
3/28/2021 5:00:00 AM 6.48 43.664 0.056 6.96 2.92 11.3
3/28/2021 5:15:00 AM 6.47 43.646 0.056 6.96 2.82 11.3
3/28/2021 5:30:00 AM 6.46 43.628 0.056 6.96 2.84 11.3
3/28/2021 5:45:00 AM 6.45 43.61 0.056 6.96 2.9 11.31
3/28/2021 6:00:00 AM 6.45 43.61 0.056 6.97 2.78 11.3
3/28/2021 6:15:00 AM 6.46 43.628 0.056 6.97 2.81 11.29
3/28/2021 6:30:00 AM 6.47 43.646 0.056 6.94 2.81 11.3
3/28/2021 6:45:00 AM 6.49 43.682 0.056 6.96 3.06 11.3
3/28/2021 7:00:00 AM 6.52 43.736 0.056 6.96 3.02 11.28
3/28/2021 7:15:00 AM 6.56 43.808 0.056 6.96 2.87 11.28
3/28/2021 7:30:00 AM 6.61 43.898 0.056 6.98 2.81 11.26
3/28/2021 7:45:00 AM 6.65 43.97 0.056 6.97 2.82 11.27
3/28/2021 8:00:00 AM 6.71 44.078 0.056 6.99 2.75 11.27
3/28/2021 8:15:00 AM 6.77 44.186 0.056 7 2.86 11.26
3/28/2021 8:30:00 AM 6.84 44.312 0.056 7 2.87 11.26
3/28/2021 8:45:00 AM 6.91 44.438 0.056 7.01 2.7 11.25
3/28/2021 9:00:00 AM 6.98 44.564 0.056 7.02 2.68 11.25
3/28/2021 9:15:00 AM 7.05 44.69 0.056 7.03 3.15 11.25
3/28/2021 9:30:00 AM 7.13 44.834 0.056 7.06 2.95 11.27
3/28/2021 9:45:00 AM 7.19 44.942 0.056 7.08 2.79 11.26
3/28/2021 10:00:00 AM 7.25 45.05 0.056 7.05 2.72 11.24
3/28/2021 10:15:00 AM 7.31 45.158 0.056 7.08 2.59 11.23
3/28/2021 10:30:00 AM 7.36 45.248 0.056 7.09 2.54 11.24
3/28/2021 10:45:00 AM 7.43 45.374 0.056 7.09 2.56 11.27
3/28/2021 11:00:00 AM 7.48 45.464 0.055 7.11 2.63 11.29
3/28/2021 11:15:00 AM 7.56 45.608 0.055 7.15 2.69 11.32
3/28/2021 11:30:00 AM 7.62 45.716 0.055 7.19 2.98 11.33
3/28/2021 11:45:00 AM 7.68 45.824 0.055 7.16 2.74 11.31
3/28/2021 12:00:00 PM 7.73 45.914 0.055 7.17 2.75 11.3
3/28/2021 12:15:00 PM 7.8 46.04 0.055 7.18 2.74 11.31
3/28/2021 12:30:00 PM 7.88 46.184 0.055 7.21 2.64 11.31
3/28/2021 12:45:00 PM 7.93 46.274 0.055 7.2 2.92 11.27
3/28/2021 1:00:00 PM 8 46.4 0.055 7.22 2.69 11.27
3/28/2021 1:15:00 PM 8.07 46.526 0.055 7.23 2.64 11.25
3/28/2021 1:30:00 PM 8.13 46.634 0.055 7.23 2.69 11.23
3/28/2021 1:45:00 PM 8.18 46.724 0.055 7.23 2.67 11.18
3/28/2021 2:00:00 PM 8.23 46.814 0.055 7.24 2.78 11.15
3/28/2021 2:15:00 PM 8.28 46.904 0.055 7.21 2.77 11.1
3/28/2021 2:30:00 PM 8.33 46.994 0.055 7.24 3.08 11.12
3/28/2021 2:45:00 PM 8.34 47.012 0.055 7.22 3.11 11.08
3/28/2021 3:00:00 PM 8.34 47.012 0.055 7.22 3.41 11.02
3/28/2021 3:15:00 PM 8.37 47.066 0.055 7.18 3.89 11.05
3/28/2021 3:30:00 PM 8.43 47.174 0.056 7.25 4.1 11.12
3/28/2021 3:45:00 PM 8.47 47.246 0.056 7.25 4.53 11.08
3/28/2021 4:00:00 PM 8.5 47.3 0.055 7.24 4.52 11.12
3/28/2021 4:15:00 PM 8.49 47.282 0.055 7.27 4.53 11.13
3/28/2021 4:30:00 PM 8.47 47.246 0.055 7.24 4.94 11.11
3/28/2021 4:45:00 PM 8.46 47.228 0.055 7.24 5.57 11.12
3/28/2021 5:00:00 PM 8.43 47.174 0.056 7.2 5.77 11.07
3/28/2021 5:15:00 PM 8.4 47.12 0.057 7.18 6.81 11.07
3/28/2021 5:30:00 PM 8.37 47.066 0.057 7.2 7.28 11.08
3/28/2021 5:45:00 PM 8.31 46.958 0.058 7.18 7.65 11.04
3/28/2021 6:00:00 PM 8.27 46.886 0.059 7.16 7.95 11.04
3/28/2021 6:15:00 PM 8.23 46.814 0.06 7.17 8.31 11
3/28/2021 6:30:00 PM 8.16 46.688 0.062 7.12 8.05 10.96
3/28/2021 6:45:00 PM 8.09 46.562 0.063 7.12 8.5 10.96
3/28/2021 7:00:00 PM 8 46.4 0.064 7.13 8.23 10.95
3/28/2021 7:15:00 PM 7.91 46.238 0.064 7.11 8.15 10.95
3/28/2021 7:30:00 PM 7.82 46.076 0.065 7.1 8.19 10.94
3/28/2021 7:45:00 PM 7.73 45.914 0.065 7.07 7.92 10.94
3/28/2021 8:00:00 PM 7.62 45.716 0.065 7.07 7.95 10.95
3/28/2021 8:15:00 PM 7.53 45.554 0.065 7.05 7.75 10.97
3/28/2021 8:30:00 PM 7.42 45.356 0.065 7.03 7.2 10.99
3/28/2021 8:45:00 PM 7.33 45.194 0.065 7.04 6.88 11.02
3/28/2021 9:00:00 PM 7.23 45.014 0.064 7.03 8.15 11.05
3/28/2021 9:15:00 PM 7.14 44.852 0.064 7.03 6.72 11.08
3/28/2021 9:30:00 PM 7.06 44.708 0.064 7.03 6.55 11.1
3/28/2021 9:45:00 PM 6.99 44.582 0.064 7.02 6.32 11.12
3/28/2021 10:00:00 PM 6.91 44.438 0.064 7.02 6.19 11.15
3/28/2021 10:15:00 PM 6.84 44.312 0.063 7.03 5.95 11.18
3/28/2021 10:30:00 PM 6.76 44.168 0.064 7.03 6.23 11.2
3/28/2021 10:45:00 PM 6.69 44.042 0.063 7.03 6.1 11.22
3/28/2021 11:00:00 PM 6.64 43.952 0.063 7.03 6.03 11.24
3/28/2021 11:15:00 PM 6.58 43.844 0.063 7.02 5.61 11.26
3/28/2021 11:30:00 PM 6.5 43.7 0.063 7.02 5.35 11.28
3/28/2021 11:45:00 PM 6.42 43.556 0.063 7.04 5.03 11.31
3/29/2021 12:00:00 AM 6.28 43.304 0.062 7.02 5.06 11.32
3/29/2021 12:15:00 AM 6.19 43.142 0.062 7.02 4.8 11.35
3/29/2021 12:30:00 AM 6.12 43.016 0.062 6.94 4.62 11.39
3/29/2021 12:45:00 AM 6.05 42.89 0.062 6.99 4.3 11.42
3/29/2021 1:00:00 AM 5.97 42.746 0.062 6.98 4.22 11.45
3/29/2021 1:15:00 AM 5.9 42.62 0.062 7 4.16 11.47
3/29/2021 1:30:00 AM 5.84 42.512 0.062 6.99 4.2 11.49
3/29/2021 1:45:00 AM 5.77 42.386 0.062 6.99 3.94 11.51
3/29/2021 2:00:00 AM 5.72 42.296 0.062 6.99 3.9 11.53
3/29/2021 2:15:00 AM 5.67 42.206 0.061 6.98 4.06 11.55
3/29/2021 2:30:00 AM 5.62 42.116 0.061 6.98 3.99 11.57
3/29/2021 2:45:00 AM 5.56 42.008 0.061 6.97 3.76 11.59
3/29/2021 3:00:00 AM 5.52 41.936 0.061 6.98 3.92 11.6
3/29/2021 3:15:00 AM 5.47 41.846 0.061 7 3.69 11.62
3/29/2021 3:30:00 AM 5.43 41.774 0.061 6.98 3.6 11.64
3/29/2021 3:45:00 AM 5.39 41.702 0.061 6.98 3.6 11.66
3/29/2021 4:00:00 AM 5.34 41.612 0.061 6.97 3.6 11.67
3/29/2021 4:15:00 AM 5.31 41.558 0.061 6.98 3.84 11.69
3/29/2021 4:30:00 AM 5.26 41.468 0.061 6.98 3.72 11.7
3/29/2021 4:45:00 AM 5.23 41.414 0.061 6.98 3.69 11.71
3/29/2021 5:00:00 AM 5.21 41.378 0.061 6.98 3.62 11.73
3/29/2021 5:15:00 AM 5.18 41.324 0.061 6.98 3.43 11.74
3/29/2021 5:30:00 AM 5.15 41.27 0.061 6.97 3.38 11.75
3/29/2021 5:45:00 AM 5.12 41.216 0.061 6.97 3.39 11.76
3/29/2021 6:00:00 AM 5.09 41.162 0.061 6.97 3.23 11.77
3/29/2021 6:15:00 AM 5.07 41.126 0.061 6.98 3.16 11.79
3/29/2021 6:30:00 AM 5.04 41.072 0.061 6.98 3.36 11.8
3/29/2021 6:45:00 AM 5.01 41.018 0.061 6.97 3.7 11.81
3/29/2021 7:00:00 AM 4.99 40.982 0.061 6.97 3.25 11.83
3/29/2021 7:15:00 AM 4.96 40.928 0.061 6.97 3.15 11.85
3/29/2021 7:30:00 AM 4.94 40.892 0.061 6.99 3.24 11.87
3/29/2021 7:45:00 AM 4.92 40.856 0.061 6.98 3.1 11.9
3/29/2021 8:00:00 AM 4.89 40.802 0.061 6.99 3.29 11.93
3/29/2021 8:15:00 AM 4.87 40.766 0.061 7 2.92 11.97
3/29/2021 8:30:00 AM 4.85 40.73 0.06 7 2.97 12.03
3/29/2021 8:45:00 AM 4.86 40.748 0.06 7.02 3.05 12.1
3/29/2021 9:00:00 AM 4.86 40.748 0.06 7.06 2.9 12.16
3/29/2021 9:15:00 AM 4.86 40.748 0.06 7.06 2.79 12.2
3/29/2021 9:30:00 AM 4.86 40.748 0.06 7.09 2.73 12.23
3/29/2021 9:45:00 AM 4.86 40.748 0.06 7.12 2.78 12.27
3/29/2021 10:00:00 AM 4.87 40.766 0.06 7.11 2.77 12.3
3/29/2021 10:15:00 AM 4.91 40.838 0.06 7.12 2.89 12.33
3/29/2021 10:30:00 AM 4.94 40.892 0.06 7.15 2.66 12.36
3/29/2021 10:45:00 AM 5 41 0.059 7.16 2.75 12.38
3/29/2021 11:00:00 AM 5.05 41.09 0.059 7.18 2.73 12.4
3/29/2021 11:15:00 AM 5.11 41.198 0.059 7.19 2.72 12.41
3/29/2021 11:30:00 AM 5.22 41.396 0.059 7.2 2.85 12.42
3/29/2021 11:45:00 AM 5.34 41.612 0.059 7.23 2.83 12.4
3/29/2021 12:00:00 PM 5.48 41.864 0.059 7.24 2.79 12.39
3/29/2021 12:15:00 PM 5.64 42.152 0.059 7.25 2.68 12.35
3/29/2021 12:30:00 PM 5.83 42.494 0.059 7.26 2.6 12.32
3/29/2021 12:45:00 PM 6.04 42.872 0.059 7.25 2.65 12.26
3/29/2021 1:00:00 PM 6.14 43.052 0.059 7.27 2.73 12.2
3/29/2021 1:15:00 PM 6.36 43.448 0.058 7.26 2.62 12.15
3/29/2021 1:30:00 PM 6.59 43.862 0.058 7.26 2.88 12.08
3/29/2021 1:45:00 PM 6.83 44.294 0.058 7.27 2.6 12.02
3/29/2021 2:00:00 PM 7.06 44.708 0.058 7.27 2.67 11.94
3/29/2021 2:15:00 PM 7.24 45.032 0.058 7.26 2.72 11.88
3/29/2021 2:30:00 PM 7.4 45.32 0.058 7.28 2.6 11.82
3/29/2021 2:45:00 PM 7.56 45.608 0.058 7.28 2.69 11.76
3/29/2021 3:00:00 PM 7.69 45.842 0.058 7.29 2.85 11.71
3/29/2021 3:15:00 PM 7.8 46.04 0.058 7.29 2.68 11.66
3/29/2021 3:30:00 PM 7.87 46.166 0.058 7.3 2.86 11.62
3/29/2021 3:45:00 PM 7.92 46.256 0.058 7.29 2.85 11.59
3/29/2021 4:00:00 PM 7.98 46.364 0.058 7.29 2.68 11.55
3/29/2021 4:15:00 PM 8.01 46.418 0.058 7.28 2.91 11.52
3/29/2021 4:30:00 PM 8.03 46.454 0.058 7.25 2.82 11.49
3/29/2021 4:45:00 PM 8.03 46.454 0.058 7.28 2.71 11.46
3/29/2021 5:00:00 PM 8 46.4 0.058 7.26 2.73 11.44
3/29/2021 5:15:00 PM 7.96 46.328 0.058 7.24 2.77 11.43
3/29/2021 5:30:00 PM 7.9 46.22 0.058 7.22 2.92 11.43
3/29/2021 5:45:00 PM 7.8 46.04 0.058 7.21 2.86 11.43
3/29/2021 6:00:00 PM 7.69 45.842 0.058 7.2 2.96 11.43
3/29/2021 6:15:00 PM 7.58 45.644 0.058 7.18 2.8 11.44
3/29/2021 6:30:00 PM 7.43 45.374 0.058 7.17 2.87 11.43
3/29/2021 6:45:00 PM 7.29 45.122 0.058 7.17 2.77 11.42
3/29/2021 7:00:00 PM 7.15 44.87 0.058 7.13 2.94 11.42
3/29/2021 7:15:00 PM 7.02 44.636 0.058 7.11 2.97 11.43
3/29/2021 7:30:00 PM 6.88 44.384 0.059 7.08 2.79 11.43
3/29/2021 7:45:00 PM 6.74 44.132 0.059 7.07 2.94 11.44
3/29/2021 8:00:00 PM 6.61 43.898 0.059 7.04 2.93 11.44
3/29/2021 8:15:00 PM 6.5 43.7 0.059 7.03 2.92 11.46
3/29/2021 8:30:00 PM 6.4 43.52 0.059 7.02 3.2 11.47
3/29/2021 8:45:00 PM 6.3 43.34 0.059 7 3.02 11.5
3/29/2021 9:00:00 PM 6.21 43.178 0.059 6.99 3.23 11.53
3/29/2021 9:15:00 PM 6.11 42.998 0.059 7.01 2.97 11.56
3/29/2021 9:30:00 PM 6.01 42.818 0.059 6.99 2.81 11.58
3/29/2021 9:45:00 PM 5.92 42.656 0.059 6.99 3.02 11.62
3/29/2021 10:00:00 PM 5.83 42.494 0.059 7 2.89 11.64
3/29/2021 10:15:00 PM 5.75 42.35 0.059 6.99 2.91 11.66
3/29/2021 10:30:00 PM 5.67 42.206 0.059 6.98 3.02 11.69
3/29/2021 10:45:00 PM 5.59 42.062 0.058 6.99 2.95 11.71
3/29/2021 11:00:00 PM 5.52 41.936 0.058 6.98 2.86 11.74
3/29/2021 11:15:00 PM 5.45 41.81 0.058 6.98 2.85 11.76
3/29/2021 11:30:00 PM 5.38 41.684 0.058 6.98 2.93 11.78
3/29/2021 11:45:00 PM 5.31 41.558 0.058 6.98 2.74 11.8
3/30/2021 12:00:00 AM 5.25 41.45 0.058 6.98 2.96 11.82
3/30/2021 12:15:00 AM 5.19 41.342 0.058 6.97 2.85 11.84
3/30/2021 12:30:00 AM 5.13 41.234 0.058 6.97 2.95 11.86
3/30/2021 12:45:00 AM 5.07 41.126 0.058 6.97 2.92 11.87
3/30/2021 1:00:00 AM 5.02 41.036 0.058 6.97 2.86 11.9
3/30/2021 1:15:00 AM 4.97 40.946 0.058 6.96 2.86 11.92
3/30/2021 1:30:00 AM 4.92 40.856 0.058 6.97 2.84 11.93
3/30/2021 1:45:00 AM 4.87 40.766 0.058 6.96 2.69 11.95
3/30/2021 2:00:00 AM 4.82 40.676 0.058 6.96 2.82 11.96
3/30/2021 2:15:00 AM 4.77 40.586 0.058 6.97 2.83 11.98
3/30/2021 2:30:00 AM 4.72 40.496 0.058 6.99 3.38 11.99
3/30/2021 2:45:00 AM 4.68 40.424 0.058 6.93 3.05 12.01
3/30/2021 3:00:00 AM 4.64 40.352 0.058 6.95 2.87 12.02
3/30/2021 3:15:00 AM 4.6 40.28 0.058 6.95 2.75 12.03
3/30/2021 3:30:00 AM 4.56 40.208 0.058 6.95 2.85 12.04
3/30/2021 3:45:00 AM 4.52 40.136 0.058 6.95 3.1 12.06
3/30/2021 4:00:00 AM 4.48 40.064 0.058 6.94 2.74 12.07
3/30/2021 4:15:00 AM 4.45 40.01 0.058 6.94 2.63 12.08
3/30/2021 4:30:00 AM 4.41 39.938 0.058 6.96 2.75 12.09
3/30/2021 4:45:00 AM 4.38 39.884 0.058 6.97 2.7 12.1
3/30/2021 5:00:00 AM 4.34 39.812 0.058 6.97 2.74 12.11
3/30/2021 5:15:00 AM 4.31 39.758 0.058 6.97 2.77 12.12
3/30/2021 5:30:00 AM 4.28 39.704 0.058 6.96 2.85 12.13
3/30/2021 5:45:00 AM 4.25 39.65 0.058 6.95 2.65 12.14
3/30/2021 6:00:00 AM 4.22 39.596 0.058 6.96 2.64 12.16
3/30/2021 6:15:00 AM 4.18 39.524 0.058 6.95 2.79 12.17
3/30/2021 6:30:00 AM 4.16 39.488 0.058 6.99 3.33 12.18
3/30/2021 6:45:00 AM 4.13 39.434 0.057 6.98 2.93 12.19
3/30/2021 7:00:00 AM 4.1 39.38 0.057 6.95 2.73 12.2
3/30/2021 7:15:00 AM 4.08 39.344 0.057 6.95 2.76 12.23
3/30/2021 7:30:00 AM 4.06 39.308 0.057 6.96 2.85 12.27
3/30/2021 7:45:00 AM 4.04 39.272 0.057 6.96 2.75 12.32
3/30/2021 8:00:00 AM 4.03 39.254 0.057 6.99 2.76 12.36
3/30/2021 8:15:00 AM 4.04 39.272 0.057 7.01 2.63 12.43
3/30/2021 8:30:00 AM 4.06 39.308 0.057 7.02 2.55 12.47
3/30/2021 8:45:00 AM 4.09 39.362 0.057 7.04 2.58 12.5
3/30/2021 9:00:00 AM 4.14 39.452 0.057 7.05 2.54 12.54
3/30/2021 9:15:00 AM 4.21 39.578 0.057 7.07 2.66 12.56
3/30/2021 9:30:00 AM 4.32 39.776 0.057 7.08 2.42 12.56
3/30/2021 9:45:00 AM 4.45 40.01 0.057 7.11 2.47 12.57
3/30/2021 10:00:00 AM 4.62 40.316 0.057 7.13 2.49 12.56
3/30/2021 10:15:00 AM 4.81 40.658 0.057 7.14 2.48 12.54
3/30/2021 10:30:00 AM 5.03 41.054 0.057 7.16 2.33 12.49
3/30/2021 10:45:00 AM 5.27 41.486 0.056 7.17 2.42 12.44
3/30/2021 11:00:00 AM 5.52 41.936 0.056 7.19 2.45 12.39
3/30/2021 11:15:00 AM 5.78 42.404 0.056 7.2 2.6 12.33
3/30/2021 11:30:00 AM 6.07 42.926 0.056 7.22 2.45 12.25
3/30/2021 11:45:00 AM 6.37 43.466 0.056 7.23 2.48 12.17
3/30/2021 12:00:00 PM 6.68 44.024 0.056 7.26 2.46 12.09
3/30/2021 12:15:00 PM 6.99 44.582 0.056 7.26 2.48 12.01
3/30/2021 12:30:00 PM 7.29 45.122 0.056 7.27 2.52 11.93
3/30/2021 12:45:00 PM 7.59 45.662 0.056 7.26 2.65 11.84
3/30/2021 1:00:00 PM 7.87 46.166 0.056 7.28 2.44 11.76
3/30/2021 1:15:00 PM 8.14 46.652 0.055 7.28 2.51 11.69
3/30/2021 1:30:00 PM 8.39 47.102 0.057 7.29 2.07 11.61
3/30/2021 1:45:00 PM 8.62 47.516 0.055 7.29 2.52 11.54
3/30/2021 2:00:00 PM 8.85 47.93 0.055 7.31 2.56 11.48
3/30/2021 2:15:00 PM 9.06 48.308 0.055 7.3 2.61 11.4
3/30/2021 2:30:00 PM 9.25 48.65 0.055 7.32 2.63 11.34
3/30/2021 2:45:00 PM 9.42 48.956 0.055 7.32 2.65 11.29
3/30/2021 3:00:00 PM 9.56 49.208 0.055 7.33 2.67 11.24
3/30/2021 3:15:00 PM 9.69 49.442 0.055 7.35 2.76 11.19
3/30/2021 3:30:00 PM 9.8 49.64 0.055 7.34 2.64 11.15
3/30/2021 3:45:00 PM 9.89 49.802 0.055 7.34 2.72 11.1
3/30/2021 4:00:00 PM 9.96 49.928 0.055 7.32 2.81 11.06
3/30/2021 4:15:00 PM 10 50 0.055 7.32 2.68 11.04
3/30/2021 4:30:00 PM 10.02 50.036 0.055 7.34 2.78 11.05
3/30/2021 4:45:00 PM 10 50 0.055 7.33 3.02 11.01
3/30/2021 5:00:00 PM 9.98 49.964 0.055 7.3 2.78 10.96
3/30/2021 5:15:00 PM 9.94 49.892 0.055 7.28 2.8 10.94
3/30/2021 5:30:00 PM 9.88 49.784 0.055 7.27 2.86 10.92
3/30/2021 5:45:00 PM 9.79 49.622 0.056 7.26 2.79 10.91
3/30/2021 6:00:00 PM 9.69 49.442 0.056 7.24 2.86 10.91
3/30/2021 6:15:00 PM 9.58 49.244 0.056 7.23 2.96 10.92
3/30/2021 6:30:00 PM 9.47 49.046 0.056 7.23 2.97 10.95
3/30/2021 6:45:00 PM 9.33 48.794 0.056 7.19 2.88 10.92
3/30/2021 7:00:00 PM 9.2 48.56 0.056 7.15 2.95 10.9
3/30/2021 7:15:00 PM 9.07 48.326 0.056 7.14 2.95 10.87
3/30/2021 7:30:00 PM 8.93 48.074 0.056 7.12 2.87 10.86
3/30/2021 7:45:00 PM 8.8 47.84 0.056 7.1 3.07 10.83
3/30/2021 8:00:00 PM 8.69 47.642 0.056 7.08 3.02 10.82
3/30/2021 8:15:00 PM 8.59 47.462 0.056 7.06 3.08 10.83
3/30/2021 8:30:00 PM 8.5 47.3 0.056 7.04 3.07 10.84
3/30/2021 8:45:00 PM 8.41 47.138 0.056 7.02 3.06 10.86
3/30/2021 9:00:00 PM 8.32 46.976 0.056 7.02 3.09 10.88
3/30/2021 9:15:00 PM 8.24 46.832 0.056 7.02 3.07 10.9
3/30/2021 9:30:00 PM 8.16 46.688 0.056 7.05 3.03 10.92
3/30/2021 9:45:00 PM 8.08 46.544 0.056 7.01 3.09 10.95
3/30/2021 10:00:00 PM 8 46.4 0.056 7.02 3.02 10.97
3/30/2021 10:15:00 PM 7.94 46.292 0.056 7.02 2.91 10.99
3/30/2021 10:30:00 PM 7.87 46.166 0.056 7.01 3.1 11.01
3/30/2021 10:45:00 PM 7.81 46.058 0.056 7 2.97 11.03
3/30/2021 11:00:00 PM 7.75 45.95 0.057 7.01 2.93 11.05
3/30/2021 11:15:00 PM 7.7 45.86 0.057 7.01 3.01 11.05
3/30/2021 11:30:00 PM 7.64 45.752 0.056 7 3.05 11.07
3/30/2021 11:45:00 PM 7.59 45.662 0.057 7.01 3 11.09
3/31/2021 12:00:00 AM 7.54 45.572 0.056 7 2.97 11.1
3/31/2021 12:15:00 AM 7.49 45.482 0.056 6.98 2.84 11.11
3/31/2021 12:30:00 AM 7.44 45.392 0.057 7 3.12 11.13
3/31/2021 12:45:00 AM 7.4 45.32 0.056 7 3.05 11.14
3/31/2021 1:00:00 AM 7.36 45.248 0.056 6.99 2.86 11.15
3/31/2021 1:15:00 AM 7.32 45.176 0.056 6.99 2.93 11.16
3/31/2021 1:30:00 AM 7.29 45.122 0.056 7 2.88 11.17
3/31/2021 1:45:00 AM 7.26 45.068 0.056 6.99 3.1 11.17
3/31/2021 2:00:00 AM 7.23 45.014 0.056 7 2.9 11.19
3/31/2021 2:15:00 AM 7.21 44.978 0.056 6.99 2.88 11.19
3/31/2021 2:30:00 AM 7.18 44.924 0.057 6.99 2.84 11.2
3/31/2021 2:45:00 AM 7.15 44.87 0.056 7 2.78 11.21
3/31/2021 3:00:00 AM 7.13 44.834 0.056 7.04 3.03 11.21
3/31/2021 3:15:00 AM 7.1 44.78 0.056 7.03 2.84 11.22
3/31/2021 3:30:00 AM 7.07 44.726 0.056 7.01 2.78 11.22
3/31/2021 3:45:00 AM 7.05 44.69 0.056 7.02 2.94 11.22
3/31/2021 4:00:00 AM 7.03 44.654 0.056 7.03 3.05 11.23
3/31/2021 4:15:00 AM 7.01 44.618 0.056 7.03 2.9 11.23
3/31/2021 4:30:00 AM 6.99 44.582 0.056 6.96 2.8 11.24
3/31/2021 4:45:00 AM 6.98 44.564 0.056 7.01 3.2 11.24
3/31/2021 5:00:00 AM 6.97 44.546 0.056 7.01 2.75 11.24
3/31/2021 5:15:00 AM 6.96 44.528 0.056 6.98 2.94 11.25
3/31/2021 5:30:00 AM 6.95 44.51 0.056 7 2.84 11.24
3/31/2021 5:45:00 AM 6.95 44.51 0.056 7 2.86 11.24
3/31/2021 6:00:00 AM 6.94 44.492 0.056 6.99 2.74 11.25
3/31/2021 6:15:00 AM 6.94 44.492 0.056 6.99 2.94 11.25
3/31/2021 6:30:00 AM 6.93 44.474 0.056 6.96 3.02 11.25
3/31/2021 6:45:00 AM 6.93 44.474 0.056 6.97 2.82 11.25
3/31/2021 7:00:00 AM 6.93 44.474 0.056 6.97 3.06 11.26
3/31/2021 7:15:00 AM 6.92 44.456 0.056 6.96 2.76 11.27
3/31/2021 7:30:00 AM 6.93 44.474 0.056 6.95 2.82 11.29
3/31/2021 7:45:00 AM 6.93 44.474 0.056 6.96 2.74 11.31
3/31/2021 8:00:00 AM 6.94 44.492 0.056 6.97 2.75 11.33
3/31/2021 8:15:00 AM 6.95 44.51 0.056 6.99 2.79 11.34
3/31/2021 8:30:00 AM 6.97 44.546 0.056 7 2.83 11.36
3/31/2021 8:45:00 AM 6.98 44.564 0.056 7.01 2.67 11.37
3/31/2021 9:00:00 AM 7 44.6 0.056 7.01 2.67 11.39
3/31/2021 9:15:00 AM 7.02 44.636 0.056 7.02 2.76 11.41
3/31/2021 9:30:00 AM 7.04 44.672 0.056 7.02 2.8 11.41
3/31/2021 9:45:00 AM 7.06 44.708 0.056 7.04 2.93 11.41
3/31/2021 10:00:00 AM 7.08 44.744 0.055 7.04 2.81 11.41
3/31/2021 10:15:00 AM 7.11 44.798 0.055 7.06 2.78 11.46
3/31/2021 10:30:00 AM 7.14 44.852 0.055 7.08 2.99 11.51
3/31/2021 10:45:00 AM 7.17 44.906 0.055 7.11 2.92 11.53
3/31/2021 11:00:00 AM 7.2 44.96 0.055 7.12 2.88 11.53
3/31/2021 11:15:00 AM 7.21 44.978 0.055 7.11 2.79 11.5
3/31/2021 11:30:00 AM 7.23 45.014 0.055 7.12 2.82 11.48
3/31/2021 11:45:00 AM 7.25 45.05 0.055 7.13 2.79 11.47
3/31/2021 12:00:00 PM 7.28 45.104 0.055 7.13 2.88 11.47
3/31/2021 12:15:00 PM 7.31 45.158 0.055 7.12 2.93 11.48
3/31/2021 12:30:00 PM 7.34 45.212 0.055 7.14 2.86